PWSweather.com
Personal Weather Stations
Station Observations
HVALPSUND
Hvalpsund, FarsoeDK 9640

HvalpsundFarsoeDK 9640

Lat: 56.705311, Lon: 9.203638

Elevation: 5

Station Type: Vantage Pro2

http://hvalpsundvejr.dk

High Low Average
Temperature 28.2°F-2.1°C 22.0°F-5.6°C 26.7°F-2.9°C
Dew Point 21.3°F-5.9°C 15.9°F-8.9°C 18.6°F-7.4°C
Winds 14.1 mph 22.7 kmh Calm Calm 4.0 mph E6.4 kmh E
Wind Gusts 17.0 mph27.4 kmh -- 6.0 mph9.7 kmh
Humidity 78% 65% 71%
Pressure 30.54 in1034.2 mb 30.30 in1026.1 mb -
Precipitation 0.00 in0.0 mm - -
Hour Temp Dew Point Humidity Winds Wind Gusts Pressure Precip Precip Rate Daily Precip Total
12:00 AM 28.1°F-2.2°C 21.2°F-6.0°C 75% 10.2 mph ENE16.4 kmh ENE 14.0 mph22.5 kmh 30.51 in1033.2 mb 0.00 in0.0 mm 0.00 in0.0 mm 0.00 in0.0 mm
12:01 AM 28.0°F-2.2°C 21.1°F-6.1°C 75% 8.6 mph E13.8 kmh E 13.0 mph20.9 kmh 30.51 in1033.2 mb 0.00 in0.0 mm 0.00 in0.0 mm 0.00 in0.0 mm
12:02 AM 28.1°F-2.2°C 21.2°F-6.0°C 75% 11.2 mph E18.0 kmh E 16.0 mph25.7 kmh 30.52 in1033.5 mb 0.00 in0.0 mm 0.00 in0.0 mm 0.00 in0.0 mm
12:03 AM 28.1°F-2.2°C 21.2°F-6.0°C 75% 14.1 mph ENE22.7 kmh ENE 17.0 mph27.4 kmh 30.52 in1033.5 mb 0.00 in0.0 mm 0.00 in0.0 mm 0.00 in0.0 mm
12:04 AM 28.1°F-2.2°C 20.9°F-6.2°C 74% 11.3 mph E18.2 kmh E 17.0 mph27.4 kmh 30.52 in1033.5 mb 0.00 in0.0 mm 0.00 in0.0 mm 0.00 in0.0 mm
12:05 AM 28.1°F-2.2°C 20.9°F-6.2°C 74% 9.0 mph E14.5 kmh E 16.0 mph25.7 kmh 30.52 in1033.5 mb 0.00 in0.0 mm 0.00 in0.0 mm 0.00 in0.0 mm
12:06 AM 28.1°F-2.2°C 20.9°F-6.2°C 74% 10.3 mph E16.6 kmh E 13.0 mph20.9 kmh 30.52 in1033.5 mb 0.00 in0.0 mm 0.00 in0.0 mm 0.00 in0.0 mm
12:07 AM 28.1°F-2.2°C 20.9°F-6.2°C 74% 12.2 mph E19.6 kmh E 16.0 mph25.7 kmh 30.52 in1033.5 mb 0.00 in0.0 mm 0.00 in0.0 mm 0.00 in0.0 mm
12:08 AM 28.1°F-2.2°C 20.9°F-6.2°C 74% 12.5 mph E20.1 kmh E 17.0 mph27.4 kmh 30.51 in1033.2 mb 0.00 in0.0 mm 0.00 in0.0 mm 0.00 in0.0 mm
12:09 AM 28.1°F-2.2°C 20.9°F-6.2°C 74% 11.6 mph E18.7 kmh E 17.0 mph27.4 kmh 30.51 in1033.2 mb 0.00 in0.0 mm 0.00 in0.0 mm 0.00 in0.0 mm
12:10 AM 28.1°F-2.2°C 20.9°F-6.2°C 74% 8.4 mph E13.5 kmh E 14.0 mph22.5 kmh 30.51 in1033.2 mb 0.00 in0.0 mm 0.00 in0.0 mm 0.00 in0.0 mm
12:11 AM 28.1°F-2.2°C 20.9°F-6.2°C 74% 6.8 mph E10.9 kmh E 10.0 mph16.1 kmh 30.51 in1033.2 mb 0.00 in0.0 mm 0.00 in0.0 mm 0.00 in0.0 mm
12:12 AM 28.1°F-2.2°C 20.9°F-6.2°C 74% 8.2 mph E13.2 kmh E 15.0 mph24.1 kmh 30.51 in1033.2 mb 0.00 in0.0 mm 0.00 in0.0 mm 0.00 in0.0 mm
12:13 AM 28.1°F-2.2°C 20.9°F-6.2°C 74% 9.6 mph E15.4 kmh E 15.0 mph24.1 kmh 30.52 in1033.5 mb 0.00 in0.0 mm 0.00 in0.0 mm 0.00 in0.0 mm
12:14 AM 28.1°F-2.2°C 20.9°F-6.2°C 74% 8.0 mph E12.9 kmh E 13.0 mph20.9 kmh 30.52 in1033.5 mb 0.00 in0.0 mm 0.00 in0.0 mm 0.00 in0.0 mm
12:15 AM 28.1°F-2.2°C 20.9°F-6.2°C 74% 10.2 mph E16.4 kmh E 14.0 mph22.5 kmh 30.52 in1033.5 mb 0.00 in0.0 mm 0.00 in0.0 mm 0.00 in0.0 mm
12:16 AM 28.2°F-2.1°C 21.0°F-6.1°C 74% 9.1 mph E14.6 kmh E 14.0 mph22.5 kmh 30.51 in1033.2 mb 0.00 in0.0 mm 0.00 in0.0 mm 0.00 in0.0 mm
12:17 AM 28.1°F-2.2°C 20.9°F-6.2°C 74% 9.9 mph E15.9 kmh E 14.0 mph22.5 kmh 30.52 in1033.5 mb 0.00 in0.0 mm 0.00 in0.0 mm 0.00 in0.0 mm
12:18 AM 28.1°F-2.2°C 20.9°F-6.2°C 74% 8.8 mph E14.2 kmh E 14.0 mph22.5 kmh 30.51 in1033.2 mb 0.00 in0.0 mm 0.00 in0.0 mm 0.00 in0.0 mm
12:19 AM 28.1°F-2.2°C 20.9°F-6.2°C 74% 7.9 mph E12.7 kmh E 12.0 mph19.3 kmh 30.51 in1033.2 mb 0.00 in0.0 mm 0.00 in0.0 mm 0.00 in0.0 mm
12:20 AM 28.1°F-2.2°C 20.9°F-6.2°C 74% 7.9 mph E12.7 kmh E 10.0 mph16.1 kmh 30.52 in1033.5 mb 0.00 in0.0 mm 0.00 in0.0 mm 0.00 in0.0 mm
12:21 AM 28.2°F-2.1°C 21.0°F-6.1°C 74% 8.0 mph E12.9 kmh E 10.0 mph16.1 kmh 30.52 in1033.5 mb 0.00 in0.0 mm 0.00 in0.0 mm 0.00 in0.0 mm
12:22 AM 28.1°F-2.2°C 20.9°F-6.2°C 74% 9.4 mph E15.1 kmh E 12.0 mph19.3 kmh 30.51 in1033.2 mb 0.00 in0.0 mm 0.00 in0.0 mm 0.00 in0.0 mm
12:23 AM 28.1°F-2.2°C 20.9°F-6.2°C 74% 7.0 mph E11.3 kmh E 12.0 mph19.3 kmh 30.52 in1033.5 mb 0.00 in0.0 mm 0.00 in0.0 mm 0.00 in0.0 mm
12:24 AM 28.1°F-2.2°C 20.9°F-6.2°C 74% 9.3 mph E15.0 kmh E 12.0 mph19.3 kmh 30.52 in1033.5 mb 0.00 in0.0 mm 0.00 in0.0 mm 0.00 in0.0 mm
12:25 AM 28.1°F-2.2°C 20.9°F-6.2°C 74% 7.5 mph E12.1 kmh E 12.0 mph19.3 kmh 30.52 in1033.5 mb 0.00 in0.0 mm 0.00 in0.0 mm 0.00 in0.0 mm
12:26 AM 28.1°F-2.2°C 20.9°F-6.2°C 74% 5.4 mph ENE8.7 kmh ENE 11.0 mph17.7 kmh 30.52 in1033.5 mb 0.00 in0.0 mm 0.00 in0.0 mm 0.00 in0.0 mm
12:27 AM 28.1°F-2.2°C 20.9°F-6.2°C 74% 7.9 mph NE12.7 kmh NE 12.0 mph19.3 kmh 30.52 in1033.5 mb 0.00 in0.0 mm 0.00 in0.0 mm 0.00 in0.0 mm
12:28 AM 28.2°F-2.1°C 21.0°F-6.1°C 74% 8.2 mph NE13.2 kmh NE 12.0 mph19.3 kmh 30.52 in1033.5 mb 0.00 in0.0 mm 0.00 in0.0 mm 0.00 in0.0 mm
12:29 AM 28.1°F-2.2°C 20.9°F-6.2°C 74% 7.4 mph ENE11.9 kmh ENE 11.0 mph17.7 kmh 30.51 in1033.2 mb 0.00 in0.0 mm 0.00 in0.0 mm 0.00 in0.0 mm
12:30 AM 28.2°F-2.1°C 21.0°F-6.1°C 74% 6.3 mph E10.1 kmh E 9.0 mph14.5 kmh 30.52 in1033.5 mb 0.00 in0.0 mm 0.00 in0.0 mm 0.00 in0.0 mm
12:31 AM 28.1°F-2.2°C 20.9°F-6.2°C 74% 3.7 mph E6.0 kmh E 9.0 mph14.5 kmh 30.52 in1033.5 mb 0.00 in0.0 mm 0.00 in0.0 mm 0.00 in0.0 mm
12:32 AM 28.1°F-2.2°C 20.9°F-6.2°C 74% 5.5 mph NE8.9 kmh NE 8.0 mph12.9 kmh 30.52 in1033.5 mb 0.00 in0.0 mm 0.00 in0.0 mm 0.00 in0.0 mm
12:33 AM 28.1°F-2.2°C 21.2°F-6.0°C 75% 6.5 mph NE10.5 kmh NE 10.0 mph16.1 kmh 30.52 in1033.5 mb 0.00 in0.0 mm 0.00 in0.0 mm 0.00 in0.0 mm
12:34 AM 28.2°F-2.1°C 21.3°F-5.9°C 75% 7.6 mph ENE12.2 kmh ENE 10.0 mph16.1 kmh 30.52 in1033.5 mb 0.00 in0.0 mm 0.00 in0.0 mm 0.00 in0.0 mm
12:35 AM 28.1°F-2.2°C 21.2°F-6.0°C 75% 7.0 mph E11.3 kmh E 11.0 mph17.7 kmh 30.52 in1033.5 mb 0.00 in0.0 mm 0.00 in0.0 mm 0.00 in0.0 mm
12:36 AM 28.1°F-2.2°C 21.2°F-6.0°C 75% 7.3 mph E11.7 kmh E 11.0 mph17.7 kmh 30.52 in1033.5 mb 0.00 in0.0 mm 0.00 in0.0 mm 0.00 in0.0 mm
12:37 AM 28.1°F-2.2°C 21.2°F-6.0°C 75% 8.7 mph ENE14.0 kmh ENE 14.0 mph22.5 kmh 30.52 in1033.5 mb 0.00 in0.0 mm 0.00 in0.0 mm 0.00 in0.0 mm
12:38 AM 28.1°F-2.2°C 20.9°F-6.2°C 74% 10.8 mph ENE17.4 kmh ENE 14.0 mph22.5 kmh 30.52 in1033.5 mb 0.00 in0.0 mm 0.00 in0.0 mm 0.00 in0.0 mm
12:39 AM 28.1°F-2.2°C 20.9°F-6.2°C 74% 9.6 mph ENE15.4 kmh ENE 13.0 mph20.9 kmh 30.51 in1033.2 mb 0.00 in0.0 mm 0.00 in0.0 mm 0.00 in0.0 mm
12:40 AM 28.1°F-2.2°C 20.9°F-6.2°C 74% 13.2 mph ENE21.2 kmh ENE 16.0 mph25.7 kmh 30.51 in1033.2 mb 0.00 in0.0 mm 0.00 in0.0 mm 0.00 in0.0 mm
12:41 AM 28.1°F-2.2°C 20.9°F-6.2°C 74% 11.1 mph E17.9 kmh E 16.0 mph25.7 kmh 30.51 in1033.2 mb 0.00 in0.0 mm 0.00 in0.0 mm 0.00 in0.0 mm
12:42 AM 28.1°F-2.2°C 20.9°F-6.2°C 74% 12.8 mph E20.6 kmh E 16.0 mph25.7 kmh 30.51 in1033.2 mb 0.00 in0.0 mm 0.00 in0.0 mm 0.00 in0.0 mm
12:43 AM 28.1°F-2.2°C 20.6°F-6.3°C 73% 11.9 mph E19.2 kmh E 16.0 mph25.7 kmh 30.51 in1033.2 mb 0.00 in0.0 mm 0.00 in0.0 mm 0.00 in0.0 mm
12:44 AM 28.1°F-2.2°C 20.6°F-6.3°C 73% 10.2 mph E16.4 kmh E 14.0 mph22.5 kmh 30.51 in1033.2 mb 0.00 in0.0 mm 0.00 in0.0 mm 0.00 in0.0 mm
12:45 AM 28.1°F-2.2°C 20.6°F-6.3°C 73% 11.1 mph E17.9 kmh E 14.0 mph22.5 kmh 30.51 in1033.2 mb 0.00 in0.0 mm 0.00 in0.0 mm 0.00 in0.0 mm
12:46 AM 28.1°F-2.2°C 20.6°F-6.3°C 73% 10.8 mph ENE17.4 kmh ENE 15.0 mph24.1 kmh 30.51 in1033.2 mb 0.00 in0.0 mm 0.00 in0.0 mm 0.00 in0.0 mm
12:47 AM 28.1°F-2.2°C 20.6°F-6.3°C 73% 11.5 mph E18.5 kmh E 16.0 mph25.7 kmh 30.51 in1033.2 mb 0.00 in0.0 mm 0.00 in0.0 mm 0.00 in0.0 mm
12:48 AM 28.1°F-2.2°C 20.6°F-6.3°C 73% 9.5 mph ENE15.3 kmh ENE 16.0 mph25.7 kmh 30.51 in1033.2 mb 0.00 in0.0 mm 0.00 in0.0 mm 0.00 in0.0 mm
12:49 AM 28.1°F-2.2°C 20.6°F-6.3°C 73% 9.9 mph E15.9 kmh E 12.0 mph19.3 kmh 30.52 in1033.5 mb 0.00 in0.0 mm 0.00 in0.0 mm 0.00 in0.0 mm
12:50 AM 28.1°F-2.2°C 20.6°F-6.3°C 73% 7.5 mph ENE12.1 kmh ENE 12.0 mph19.3 kmh 30.51 in1033.2 mb 0.00 in0.0 mm 0.00 in0.0 mm 0.00 in0.0 mm
12:51 AM 28.2°F-2.1°C 20.7°F-6.3°C 73% 8.4 mph ENE13.5 kmh ENE 12.0 mph19.3 kmh 30.52 in1033.5 mb 0.00 in0.0 mm 0.00 in0.0 mm 0.00 in0.0 mm
12:52 AM 28.1°F-2.2°C 20.6°F-6.3°C 73% 9.6 mph ENE15.4 kmh ENE 12.0 mph19.3 kmh 30.51 in1033.2 mb 0.00 in0.0 mm 0.00 in0.0 mm 0.00 in0.0 mm
12:53 AM 28.1°F-2.2°C 20.9°F-6.2°C 74% 11.2 mph ENE18.0 kmh ENE 14.0 mph22.5 kmh 30.51 in1033.2 mb 0.00 in0.0 mm 0.00 in0.0 mm 0.00 in0.0 mm
12:54 AM 28.1°F-2.2°C 20.6°F-6.3°C 73% 9.3 mph E15.0 kmh E 14.0 mph22.5 kmh 30.52 in1033.5 mb 0.00 in0.0 mm 0.00 in0.0 mm 0.00 in0.0 mm
12:55 AM 28.1°F-2.2°C 20.6°F-6.3°C 73% 7.7 mph ENE12.4 kmh ENE 12.0 mph19.3 kmh 30.52 in1033.5 mb 0.00 in0.0 mm 0.00 in0.0 mm 0.00 in0.0 mm
12:56 AM 28.2°F-2.1°C 20.7°F-6.3°C 73% 5.6 mph ENE9.0 kmh ENE 10.0 mph16.1 kmh 30.52 in1033.5 mb 0.00 in0.0 mm 0.00 in0.0 mm 0.00 in0.0 mm
12:57 AM 28.1°F-2.2°C 20.6°F-6.3°C 73% 11.2 mph ENE18.0 kmh ENE 14.0 mph22.5 kmh 30.51 in1033.2 mb 0.00 in0.0 mm 0.00 in0.0 mm 0.00 in0.0 mm
12:58 AM 28.1°F-2.2°C 20.6°F-6.3°C 73% 12.1 mph ENE19.5 kmh ENE 14.0 mph22.5 kmh 30.51 in1033.2 mb 0.00 in0.0 mm 0.00 in0.0 mm 0.00 in0.0 mm
12:59 AM 28.1°F-2.2°C 20.6°F-6.3°C 73% 9.7 mph ENE15.6 kmh ENE 15.0 mph24.1 kmh 30.51 in1033.2 mb 0.00 in0.0 mm 0.00 in0.0 mm 0.00 in0.0 mm
01:00 AM 28.1°F-2.2°C 20.6°F-6.3°C 73% 12.4 mph E20.0 kmh E 16.0 mph25.7 kmh 30.52 in1033.5 mb 0.00 in0.0 mm 0.00 in0.0 mm 0.00 in0.0 mm
01:01 AM 28.1°F-2.2°C 20.6°F-6.3°C 73% 10.8 mph ENE17.4 kmh ENE 16.0 mph25.7 kmh 30.51 in1033.2 mb 0.00 in0.0 mm 0.00 in0.0 mm 0.00 in0.0 mm
01:02 AM 28.1°F-2.2°C 20.6°F-6.3°C 73% 10.9 mph ENE17.5 kmh ENE 14.0 mph22.5 kmh 30.51 in1033.2 mb 0.00 in0.0 mm 0.00 in0.0 mm 0.00 in0.0 mm
01:03 AM 28.1°F-2.2°C 20.6°F-6.3°C 73% 8.7 mph NE14.0 kmh NE 13.0 mph20.9 kmh 30.52 in1033.5 mb 0.00 in0.0 mm 0.00 in0.0 mm 0.00 in0.0 mm
01:04 AM 28.1°F-2.2°C 20.6°F-6.3°C 73% 9.6 mph ENE15.4 kmh ENE 13.0 mph20.9 kmh 30.51 in1033.2 mb 0.00 in0.0 mm 0.00 in0.0 mm 0.00 in0.0 mm
01:05 AM 28.0°F-2.2°C 20.5°F-6.4°C 73% 10.4 mph NE16.7 kmh NE 13.0 mph20.9 kmh 30.51 in1033.2 mb 0.00 in0.0 mm 0.00 in0.0 mm 0.00 in0.0 mm
01:06 AM 28.1°F-2.2°C 20.6°F-6.3°C 73% 11.9 mph ENE19.2 kmh ENE 15.0 mph24.1 kmh 30.51 in1033.2 mb 0.00 in0.0 mm 0.00 in0.0 mm 0.00 in0.0 mm
01:07 AM 28.0°F-2.2°C 20.5°F-6.4°C 73% 12.8 mph ENE20.6 kmh ENE 16.0 mph25.7 kmh 30.51 in1033.2 mb 0.00 in0.0 mm 0.00 in0.0 mm 0.00 in0.0 mm
01:08 AM 28.0°F-2.2°C 20.5°F-6.4°C 73% 10.9 mph ENE17.5 kmh ENE 16.0 mph25.7 kmh 30.51 in1033.2 mb 0.00 in0.0 mm 0.00 in0.0 mm 0.00 in0.0 mm
01:09 AM 28.0°F-2.2°C 20.5°F-6.4°C 73% 9.5 mph ENE15.3 kmh ENE 13.0 mph20.9 kmh 30.51 in1033.2 mb 0.00 in0.0 mm 0.00 in0.0 mm 0.00 in0.0 mm
01:10 AM 28.1°F-2.2°C 20.6°F-6.3°C 73% 7.7 mph ENE12.4 kmh ENE 13.0 mph20.9 kmh 30.51 in1033.2 mb 0.00 in0.0 mm 0.00 in0.0 mm 0.00 in0.0 mm
01:11 AM 28.1°F-2.2°C 20.6°F-6.3°C 73% 7.5 mph NE12.1 kmh NE 10.0 mph16.1 kmh 30.51 in1033.2 mb 0.00 in0.0 mm 0.00 in0.0 mm 0.00 in0.0 mm
01:12 AM 28.1°F-2.2°C 20.6°F-6.3°C 73% 7.8 mph NE12.6 kmh NE 11.0 mph17.7 kmh 30.51 in1033.2 mb 0.00 in0.0 mm 0.00 in0.0 mm 0.00 in0.0 mm
01:13 AM 28.0°F-2.2°C 20.5°F-6.4°C 73% 9.4 mph NE15.1 kmh NE 12.0 mph19.3 kmh 30.51 in1033.2 mb 0.00 in0.0 mm 0.00 in0.0 mm 0.00 in0.0 mm
01:14 AM 27.9°F-2.3°C 20.4°F-6.4°C 73% 9.9 mph ENE15.9 kmh ENE 12.0 mph19.3 kmh 30.51 in1033.2 mb 0.00 in0.0 mm 0.00 in0.0 mm 0.00 in0.0 mm
01:15 AM 27.9°F-2.3°C 20.4°F-6.4°C 73% 7.5 mph ENE12.1 kmh ENE 12.0 mph19.3 kmh 30.51 in1033.2 mb 0.00 in0.0 mm 0.00 in0.0 mm 0.00 in0.0 mm
01:16 AM 28.0°F-2.2°C 20.5°F-6.4°C 73% 9.0 mph ENE14.5 kmh ENE 12.0 mph19.3 kmh 30.51 in1033.2 mb 0.00 in0.0 mm 0.00 in0.0 mm 0.00 in0.0 mm
01:17 AM 27.9°F-2.3°C 20.4°F-6.4°C 73% 8.0 mph ENE12.9 kmh ENE 12.0 mph19.3 kmh 30.51 in1033.2 mb 0.00 in0.0 mm 0.00 in0.0 mm 0.00 in0.0 mm
01:18 AM 28.0°F-2.2°C 20.5°F-6.4°C 73% 11.9 mph NE19.2 kmh NE 14.0 mph22.5 kmh 30.51 in1033.2 mb 0.00 in0.0 mm 0.00 in0.0 mm 0.00 in0.0 mm
01:19 AM 27.9°F-2.3°C 20.4°F-6.4°C 73% 9.5 mph ENE15.3 kmh ENE 14.0 mph22.5 kmh 30.51 in1033.2 mb 0.00 in0.0 mm 0.00 in0.0 mm 0.00 in0.0 mm
01:20 AM 27.9°F-2.3°C 20.4°F-6.4°C 73% 11.9 mph NE19.2 kmh NE 15.0 mph24.1 kmh 30.51 in1033.2 mb 0.00 in0.0 mm 0.00 in0.0 mm 0.00 in0.0 mm
01:21 AM 27.9°F-2.3°C 20.4°F-6.4°C 73% 12.1 mph ENE19.5 kmh ENE 15.0 mph24.1 kmh 30.51 in1033.2 mb 0.00 in0.0 mm 0.00 in0.0 mm 0.00 in0.0 mm
01:22 AM 27.9°F-2.3°C 20.4°F-6.4°C 73% 10.6 mph ENE17.1 kmh ENE 15.0 mph24.1 kmh 30.51 in1033.2 mb 0.00 in0.0 mm 0.00 in0.0 mm 0.00 in0.0 mm
01:23 AM 27.9°F-2.3°C 20.4°F-6.4°C 73% 7.3 mph NE11.7 kmh NE 13.0 mph20.9 kmh 30.51 in1033.2 mb 0.00 in0.0 mm 0.00 in0.0 mm 0.00 in0.0 mm
01:24 AM 27.9°F-2.3°C 20.4°F-6.4°C 73% 11.7 mph NE18.8 kmh NE 14.0 mph22.5 kmh 30.51 in1033.2 mb 0.00 in0.0 mm 0.00 in0.0 mm 0.00 in0.0 mm
01:25 AM 27.9°F-2.3°C 20.4°F-6.4°C 73% 10.2 mph NE16.4 kmh NE 14.0 mph22.5 kmh 30.51 in1033.2 mb 0.00 in0.0 mm 0.00 in0.0 mm 0.00 in0.0 mm
01:26 AM 27.9°F-2.3°C 20.4°F-6.4°C 73% 10.0 mph ENE16.1 kmh ENE 14.0 mph22.5 kmh 30.51 in1033.2 mb 0.00 in0.0 mm 0.00 in0.0 mm 0.00 in0.0 mm
01:27 AM 27.9°F-2.3°C 20.4°F-6.4°C 73% 8.0 mph ENE12.9 kmh ENE 14.0 mph22.5 kmh 30.51 in1033.2 mb 0.00 in0.0 mm 0.00 in0.0 mm 0.00 in0.0 mm
01:28 AM 27.9°F-2.3°C 20.4°F-6.4°C 73% 9.6 mph NE15.4 kmh NE 13.0 mph20.9 kmh 30.51 in1033.2 mb 0.00 in0.0 mm 0.00 in0.0 mm 0.00 in0.0 mm
01:29 AM 27.9°F-2.3°C 20.4°F-6.4°C 73% 13.5 mph ENE21.7 kmh ENE 17.0 mph27.4 kmh 30.51 in1033.2 mb 0.00 in0.0 mm 0.00 in0.0 mm 0.00 in0.0 mm
01:30 AM 27.9°F-2.3°C 20.4°F-6.4°C 73% 11.3 mph ENE18.2 kmh ENE 17.0 mph27.4 kmh 30.51 in1033.2 mb 0.00 in0.0 mm 0.00 in0.0 mm 0.00 in0.0 mm
01:31 AM 27.9°F-2.3°C 20.4°F-6.4°C 73% 12.2 mph E19.6 kmh E 17.0 mph27.4 kmh 30.51 in1033.2 mb 0.00 in0.0 mm 0.00 in0.0 mm 0.00 in0.0 mm
01:32 AM 27.9°F-2.3°C 20.4°F-6.4°C 73% 12.7 mph ENE20.4 kmh ENE 17.0 mph27.4 kmh 30.51 in1033.2 mb 0.00 in0.0 mm 0.00 in0.0 mm 0.00 in0.0 mm
01:33 AM 27.9°F-2.3°C 20.4°F-6.4°C 73% 11.0 mph E17.7 kmh E 15.0 mph24.1 kmh 30.51 in1033.2 mb 0.00 in0.0 mm 0.00 in0.0 mm 0.00 in0.0 mm
01:34 AM 27.9°F-2.3°C 20.4°F-6.4°C 73% 10.6 mph E17.1 kmh E 14.0 mph22.5 kmh 30.51 in1033.2 mb 0.00 in0.0 mm 0.00 in0.0 mm 0.00 in0.0 mm
01:35 AM 27.9°F-2.3°C 20.4°F-6.4°C 73% 11.4 mph ENE18.3 kmh ENE 15.0 mph24.1 kmh 30.51 in1033.2 mb 0.00 in0.0 mm 0.00 in0.0 mm 0.00 in0.0 mm
01:36 AM 27.9°F-2.3°C 20.4°F-6.4°C 73% 10.9 mph E17.5 kmh E 15.0 mph24.1 kmh 30.51 in1033.2 mb 0.00 in0.0 mm 0.00 in0.0 mm 0.00 in0.0 mm
01:37 AM 27.9°F-2.3°C 20.4°F-6.4°C 73% 12.4 mph E20.0 kmh E 14.0 mph22.5 kmh 30.51 in1033.2 mb 0.00 in0.0 mm 0.00 in0.0 mm 0.00 in0.0 mm
01:38 AM 27.9°F-2.3°C 20.1°F-6.6°C 72% 12.1 mph E19.5 kmh E 15.0 mph24.1 kmh 30.51 in1033.2 mb 0.00 in0.0 mm 0.00 in0.0 mm 0.00 in0.0 mm
01:39 AM 27.8°F-2.3°C 20.0°F-6.7°C 72% 10.6 mph E17.1 kmh E 15.0 mph24.1 kmh 30.51 in1033.2 mb 0.00 in0.0 mm 0.00 in0.0 mm 0.00 in0.0 mm
01:40 AM 27.8°F-2.3°C 20.3°F-6.5°C 73% 12.3 mph E19.8 kmh E 15.0 mph24.1 kmh 30.51 in1033.2 mb 0.00 in0.0 mm 0.00 in0.0 mm 0.00 in0.0 mm
01:41 AM 27.9°F-2.3°C 20.1°F-6.6°C 72% 9.8 mph E15.8 kmh E 15.0 mph24.1 kmh 30.51 in1033.2 mb 0.00 in0.0 mm 0.00 in0.0 mm 0.00 in0.0 mm
01:42 AM 27.9°F-2.3°C 20.4°F-6.4°C 73% 10.7 mph E17.2 kmh E 14.0 mph22.5 kmh 30.51 in1033.2 mb 0.00 in0.0 mm 0.00 in0.0 mm 0.00 in0.0 mm
01:43 AM 27.8°F-2.3°C 20.3°F-6.5°C 73% 10.5 mph E16.9 kmh E 14.0 mph22.5 kmh 30.51 in1033.2 mb 0.00 in0.0 mm 0.00 in0.0 mm 0.00 in0.0 mm
01:44 AM 27.8°F-2.3°C 20.3°F-6.5°C 73% 9.7 mph E15.6 kmh E 13.0 mph20.9 kmh 30.51 in1033.2 mb 0.00 in0.0 mm 0.00 in0.0 mm 0.00 in0.0 mm
01:45 AM 27.8°F-2.3°C 20.3°F-6.5°C 73% 8.8 mph E14.2 kmh E 12.0 mph19.3 kmh 30.51 in1033.2 mb 0.00 in0.0 mm 0.00 in0.0 mm 0.00 in0.0 mm
01:46 AM 27.8°F-2.3°C 20.3°F-6.5°C 73% 10.3 mph E16.6 kmh E 13.0 mph20.9 kmh 30.51 in1033.2 mb 0.00 in0.0 mm 0.00 in0.0 mm 0.00 in0.0 mm
01:47 AM 27.8°F-2.3°C 20.3°F-6.5°C 73% 11.0 mph E17.7 kmh E 15.0 mph24.1 kmh 30.51 in1033.2 mb 0.00 in0.0 mm 0.00 in0.0 mm 0.00 in0.0 mm
01:48 AM 27.8°F-2.3°C 20.3°F-6.5°C 73% 9.3 mph E15.0 kmh E 15.0 mph24.1 kmh 30.51 in1033.2 mb 0.00 in0.0 mm 0.00 in0.0 mm 0.00 in0.0 mm
01:49 AM 27.8°F-2.3°C 20.3°F-6.5°C 73% 10.2 mph E16.4 kmh E 13.0 mph20.9 kmh 30.51 in1033.2 mb 0.00 in0.0 mm 0.00 in0.0 mm 0.00 in0.0 mm
01:50 AM 27.9°F-2.3°C 20.4°F-6.4°C 73% 9.0 mph E14.5 kmh E 13.0 mph20.9 kmh 30.51 in1033.2 mb 0.00 in0.0 mm 0.00 in0.0 mm 0.00 in0.0 mm
01:51 AM 27.8°F-2.3°C 20.3°F-6.5°C 73% 10.3 mph E16.6 kmh E 14.0 mph22.5 kmh 30.51 in1033.2 mb 0.00 in0.0 mm 0.00 in0.0 mm 0.00 in0.0 mm
01:52 AM 27.8°F-2.3°C 20.3°F-6.5°C 73% 9.5 mph E15.3 kmh E 14.0 mph22.5 kmh 30.51 in1033.2 mb 0.00 in0.0 mm 0.00 in0.0 mm 0.00 in0.0 mm
01:53 AM 27.8°F-2.3°C 20.3°F-6.5°C 73% 10.2 mph E16.4 kmh E 11.0 mph17.7 kmh 30.51 in1033.2 mb 0.00 in0.0 mm 0.00 in0.0 mm 0.00 in0.0 mm
01:54 AM 27.8°F-2.3°C 20.3°F-6.5°C 73% 9.2 mph E14.8 kmh E 14.0 mph22.5 kmh 30.52 in1033.5 mb 0.00 in0.0 mm 0.00 in0.0 mm 0.00 in0.0 mm
01:55 AM 27.8°F-2.3°C 20.3°F-6.5°C 73% 9.7 mph E15.6 kmh E 14.0 mph22.5 kmh 30.51 in1033.2 mb 0.00 in0.0 mm 0.00 in0.0 mm 0.00 in0.0 mm
01:56 AM 27.8°F-2.3°C 20.3°F-6.5°C 73% 9.1 mph E14.6 kmh E 12.0 mph19.3 kmh 30.52 in1033.5 mb 0.00 in0.0 mm 0.00 in0.0 mm 0.00 in0.0 mm
01:57 AM 27.8°F-2.3°C 20.3°F-6.5°C 73% 6.2 mph E10.0 kmh E 11.0 mph17.7 kmh 30.52 in1033.5 mb 0.00 in0.0 mm 0.00 in0.0 mm 0.00 in0.0 mm
01:58 AM 27.8°F-2.3°C 20.3°F-6.5°C 73% 6.5 mph ENE10.5 kmh ENE 10.0 mph16.1 kmh 30.52 in1033.5 mb 0.00 in0.0 mm 0.00 in0.0 mm 0.00 in0.0 mm
01:59 AM 27.9°F-2.3°C 20.4°F-6.4°C 73% 7.8 mph ENE12.6 kmh ENE 10.0 mph16.1 kmh 30.52 in1033.5 mb 0.00 in0.0 mm 0.00 in0.0 mm 0.00 in0.0 mm
02:00 AM 27.9°F-2.3°C 20.4°F-6.4°C 73% 4.3 mph ENE6.9 kmh ENE 10.0 mph16.1 kmh 30.51 in1033.2 mb 0.00 in0.0 mm 0.00 in0.0 mm 0.00 in0.0 mm
02:01 AM 27.8°F-2.3°C 20.3°F-6.5°C 73% 6.7 mph ENE10.8 kmh ENE 9.0 mph14.5 kmh 30.51 in1033.2 mb 0.00 in0.0 mm 0.00 in0.0 mm 0.00 in0.0 mm
02:02 AM 27.8°F-2.3°C 20.3°F-6.5°C 73% 5.8 mph ENE9.3 kmh ENE 9.0 mph14.5 kmh 30.51 in1033.2 mb 0.00 in0.0 mm 0.00 in0.0 mm 0.00 in0.0 mm
02:03 AM 27.8°F-2.3°C 20.3°F-6.5°C 73% 5.2 mph ENE8.4 kmh ENE 9.0 mph14.5 kmh 30.51 in1033.2 mb 0.00 in0.0 mm 0.00 in0.0 mm 0.00 in0.0 mm
02:04 AM 27.8°F-2.3°C 20.3°F-6.5°C 73% 9.0 mph ENE14.5 kmh ENE 15.0 mph24.1 kmh 30.51 in1033.2 mb 0.00 in0.0 mm 0.00 in0.0 mm 0.00 in0.0 mm
02:05 AM 27.8°F-2.3°C 20.3°F-6.5°C 73% 10.1 mph ENE16.3 kmh ENE 15.0 mph24.1 kmh 30.52 in1033.5 mb 0.00 in0.0 mm 0.00 in0.0 mm 0.00 in0.0 mm
02:06 AM 27.8°F-2.3°C 20.3°F-6.5°C 73% 12.7 mph ENE20.4 kmh ENE 15.0 mph24.1 kmh 30.52 in1033.5 mb 0.00 in0.0 mm 0.00 in0.0 mm 0.00 in0.0 mm
02:07 AM 27.8°F-2.3°C 20.3°F-6.5°C 73% 10.3 mph ENE16.6 kmh ENE 15.0 mph24.1 kmh 30.52 in1033.5 mb 0.00 in0.0 mm 0.00 in0.0 mm 0.00 in0.0 mm
02:08 AM 27.8°F-2.3°C 20.3°F-6.5°C 73% 10.3 mph E16.6 kmh E 13.0 mph20.9 kmh 30.51 in1033.2 mb 0.00 in0.0 mm 0.00 in0.0 mm 0.00 in0.0 mm
02:09 AM 27.8°F-2.3°C 20.3°F-6.5°C 73% 10.1 mph E16.3 kmh E 13.0 mph20.9 kmh 30.51 in1033.2 mb 0.00 in0.0 mm 0.00 in0.0 mm 0.00 in0.0 mm
02:10 AM 27.8°F-2.3°C 20.3°F-6.5°C 73% 7.8 mph E12.6 kmh E 11.0 mph17.7 kmh 30.51 in1033.2 mb 0.00 in0.0 mm 0.00 in0.0 mm 0.00 in0.0 mm
02:11 AM 27.8°F-2.3°C 20.3°F-6.5°C 73% 3.8 mph E6.1 kmh E 11.0 mph17.7 kmh 30.51 in1033.2 mb 0.00 in0.0 mm 0.00 in0.0 mm 0.00 in0.0 mm
02:12 AM 27.8°F-2.3°C 20.3°F-6.5°C 73% 4.4 mph ENE7.1 kmh ENE 9.0 mph14.5 kmh 30.51 in1033.2 mb 0.00 in0.0 mm 0.00 in0.0 mm 0.00 in0.0 mm
02:13 AM 27.8°F-2.3°C 20.3°F-6.5°C 73% 7.5 mph ENE12.1 kmh ENE 10.0 mph16.1 kmh 30.51 in1033.2 mb 0.00 in0.0 mm 0.00 in0.0 mm 0.00 in0.0 mm
02:14 AM 27.8°F-2.3°C 20.3°F-6.5°C 73% 9.0 mph E14.5 kmh E 11.0 mph17.7 kmh 30.51 in1033.2 mb 0.00 in0.0 mm 0.00 in0.0 mm 0.00 in0.0 mm
02:15 AM 27.8°F-2.3°C 20.3°F-6.5°C 73% 6.5 mph E10.5 kmh E 11.0 mph17.7 kmh 30.51 in1033.2 mb 0.00 in0.0 mm 0.00 in0.0 mm 0.00 in0.0 mm
02:16 AM 27.8°F-2.3°C 20.3°F-6.5°C 73% 5.7 mph ENE9.2 kmh ENE 9.0 mph14.5 kmh 30.51 in1033.2 mb 0.00 in0.0 mm 0.00 in0.0 mm 0.00 in0.0 mm
02:17 AM 27.8°F-2.3°C 20.3°F-6.5°C 73% 5.1 mph E8.2 kmh E 9.0 mph14.5 kmh 30.51 in1033.2 mb 0.00 in0.0 mm 0.00 in0.0 mm 0.00 in0.0 mm
02:18 AM 27.8°F-2.3°C 20.3°F-6.5°C 73% 5.1 mph ENE8.2 kmh ENE 8.0 mph12.9 kmh 30.51 in1033.2 mb 0.00 in0.0 mm 0.00 in0.0 mm 0.00 in0.0 mm
02:19 AM 27.8°F-2.3°C 20.3°F-6.5°C 73% 7.3 mph ENE11.7 kmh ENE 9.0 mph14.5 kmh 30.51 in1033.2 mb 0.00 in0.0 mm 0.00 in0.0 mm 0.00 in0.0 mm
02:20 AM 27.8°F-2.3°C 20.3°F-6.5°C 73% 6.3 mph ENE10.1 kmh ENE 9.0 mph14.5 kmh 30.51 in1033.2 mb 0.00 in0.0 mm 0.00 in0.0 mm 0.00 in0.0 mm
02:21 AM 27.8°F-2.3°C 20.3°F-6.5°C 73% 5.4 mph NE8.7 kmh NE 8.0 mph12.9 kmh 30.51 in1033.2 mb 0.00 in0.0 mm 0.00 in0.0 mm 0.00 in0.0 mm
02:22 AM 27.8°F-2.3°C 20.3°F-6.5°C 73% 5.0 mph NE8.0 kmh NE 6.0 mph9.7 kmh 30.51 in1033.2 mb 0.00 in0.0 mm 0.00 in0.0 mm 0.00 in0.0 mm
02:23 AM 27.8°F-2.3°C 20.3°F-6.5°C 73% 6.3 mph ENE10.1 kmh ENE 8.0 mph12.9 kmh 30.51 in1033.2 mb 0.00 in0.0 mm 0.00 in0.0 mm 0.00 in0.0 mm
02:24 AM 27.7°F-2.4°C 20.2°F-6.6°C 73% 4.8 mph ENE7.7 kmh ENE 8.0 mph12.9 kmh 30.51 in1033.2 mb 0.00 in0.0 mm 0.00 in0.0 mm 0.00 in0.0 mm
02:25 AM 27.8°F-2.3°C 20.3°F-6.5°C 73% 6.4 mph ENE10.3 kmh ENE 9.0 mph14.5 kmh 30.52 in1033.5 mb 0.00 in0.0 mm 0.00 in0.0 mm 0.00 in0.0 mm
02:26 AM 27.7°F-2.4°C 20.2°F-6.6°C 73% 6.8 mph E10.9 kmh E 10.0 mph16.1 kmh 30.51 in1033.2 mb 0.00 in0.0 mm 0.00 in0.0 mm 0.00 in0.0 mm
02:27 AM 27.7°F-2.4°C 20.2°F-6.6°C 73% 5.9 mph ENE9.5 kmh ENE 10.0 mph16.1 kmh 30.51 in1033.2 mb 0.00 in0.0 mm 0.00 in0.0 mm 0.00 in0.0 mm
02:28 AM 27.7°F-2.4°C 20.2°F-6.6°C 73% 5.0 mph ENE8.0 kmh ENE 8.0 mph12.9 kmh 30.51 in1033.2 mb 0.00 in0.0 mm 0.00 in0.0 mm 0.00 in0.0 mm
02:29 AM 27.7°F-2.4°C 20.2°F-6.6°C 73% 5.3 mph ENE8.5 kmh ENE 8.0 mph12.9 kmh 30.51 in1033.2 mb 0.00 in0.0 mm 0.00 in0.0 mm 0.00 in0.0 mm
02:30 AM 27.8°F-2.3°C 20.3°F-6.5°C 73% 5.2 mph ENE8.4 kmh ENE 8.0 mph12.9 kmh 30.51 in1033.2 mb 0.00 in0.0 mm 0.00 in0.0 mm 0.00 in0.0 mm
02:31 AM 27.8°F-2.3°C 20.3°F-6.5°C 73% 3.8 mph E6.1 kmh E 7.0 mph11.3 kmh 30.52 in1033.5 mb 0.00 in0.0 mm 0.00 in0.0 mm 0.00 in0.0 mm
02:32 AM 27.8°F-2.3°C 20.6°F-6.3°C 74% 4.3 mph E6.9 kmh E 6.0 mph9.7 kmh 30.52 in1033.5 mb 0.00 in0.0 mm 0.00 in0.0 mm 0.00 in0.0 mm
02:33 AM 27.7°F-2.4°C 20.5°F-6.4°C 74% 4.2 mph E6.8 kmh E 7.0 mph11.3 kmh 30.51 in1033.2 mb 0.00 in0.0 mm 0.00 in0.0 mm 0.00 in0.0 mm
02:34 AM 27.7°F-2.4°C 20.5°F-6.4°C 74% 3.6 mph E5.8 kmh E 7.0 mph11.3 kmh 30.51 in1033.2 mb 0.00 in0.0 mm 0.00 in0.0 mm 0.00 in0.0 mm
02:35 AM 27.7°F-2.4°C 20.5°F-6.4°C 74% 4.1 mph NE6.6 kmh NE 5.0 mph8.0 kmh 30.52 in1033.5 mb 0.00 in0.0 mm 0.00 in0.0 mm 0.00 in0.0 mm
02:36 AM 27.7°F-2.4°C 20.5°F-6.4°C 74% 3.7 mph NE6.0 kmh NE 5.0 mph8.0 kmh 30.51 in1033.2 mb 0.00 in0.0 mm 0.00 in0.0 mm 0.00 in0.0 mm
02:37 AM 27.7°F-2.4°C 20.5°F-6.4°C 74% 5.9 mph ENE9.5 kmh ENE 10.0 mph16.1 kmh 30.51 in1033.2 mb 0.00 in0.0 mm 0.00 in0.0 mm 0.00 in0.0 mm
02:38 AM 27.7°F-2.4°C 20.5°F-6.4°C 74% 7.9 mph E12.7 kmh E 11.0 mph17.7 kmh 30.51 in1033.2 mb 0.00 in0.0 mm 0.00 in0.0 mm 0.00 in0.0 mm
02:39 AM 27.8°F-2.3°C 20.6°F-6.3°C 74% 7.2 mph E11.6 kmh E 11.0 mph17.7 kmh 30.51 in1033.2 mb 0.00 in0.0 mm 0.00 in0.0 mm 0.00 in0.0 mm
02:40 AM 27.7°F-2.4°C 20.2°F-6.6°C 73% 7.6 mph E12.2 kmh E 10.0 mph16.1 kmh 30.51 in1033.2 mb 0.00 in0.0 mm 0.00 in0.0 mm 0.00 in0.0 mm
02:41 AM 27.8°F-2.3°C 20.3°F-6.5°C 73% 5.2 mph ENE8.4 kmh ENE 9.0 mph14.5 kmh 30.51 in1033.2 mb 0.00 in0.0 mm 0.00 in0.0 mm 0.00 in0.0 mm
02:42 AM 27.8°F-2.3°C 20.3°F-6.5°C 73% 5.4 mph ENE8.7 kmh ENE 8.0 mph12.9 kmh 30.51 in1033.2 mb 0.00 in0.0 mm 0.00 in0.0 mm 0.00 in0.0 mm
02:43 AM 27.7°F-2.4°C 20.2°F-6.6°C 73% 7.8 mph ENE12.6 kmh ENE 10.0 mph16.1 kmh 30.51 in1033.2 mb 0.00 in0.0 mm 0.00 in0.0 mm 0.00 in0.0 mm
02:44 AM 27.7°F-2.4°C 20.2°F-6.6°C 73% 7.6 mph ENE12.2 kmh ENE 10.0 mph16.1 kmh 30.52 in1033.5 mb 0.00 in0.0 mm 0.00 in0.0 mm 0.00 in0.0 mm
02:45 AM 27.7°F-2.4°C 20.2°F-6.6°C 73% 8.4 mph E13.5 kmh E 11.0 mph17.7 kmh 30.52 in1033.5 mb 0.00 in0.0 mm 0.00 in0.0 mm 0.00 in0.0 mm
02:46 AM 27.7°F-2.4°C 20.2°F-6.6°C 73% 6.4 mph ENE10.3 kmh ENE 11.0 mph17.7 kmh 30.52 in1033.5 mb 0.00 in0.0 mm 0.00 in0.0 mm 0.00 in0.0 mm
02:47 AM 27.7°F-2.4°C 20.2°F-6.6°C 73% 8.5 mph ENE13.7 kmh ENE 10.0 mph16.1 kmh 30.52 in1033.5 mb 0.00 in0.0 mm 0.00 in0.0 mm 0.00 in0.0 mm
02:48 AM 27.7°F-2.4°C 20.2°F-6.6°C 73% 7.1 mph ENE11.4 kmh ENE 10.0 mph16.1 kmh 30.52 in1033.5 mb 0.00 in0.0 mm 0.00 in0.0 mm 0.00 in0.0 mm
02:49 AM 27.7°F-2.4°C 20.2°F-6.6°C 73% 6.9 mph E11.1 kmh E 10.0 mph16.1 kmh 30.52 in1033.5 mb 0.00 in0.0 mm 0.00 in0.0 mm 0.00 in0.0 mm
02:50 AM 27.7°F-2.4°C 20.2°F-6.6°C 73% 5.7 mph ENE9.2 kmh ENE 9.0 mph14.5 kmh 30.52 in1033.5 mb 0.00 in0.0 mm 0.00 in0.0 mm 0.00 in0.0 mm
02:51 AM 27.7°F-2.4°C 20.2°F-6.6°C 73% 5.9 mph E9.5 kmh E 8.0 mph12.9 kmh 30.52 in1033.5 mb 0.00 in0.0 mm 0.00 in0.0 mm 0.00 in0.0 mm
02:52 AM 27.7°F-2.4°C 20.2°F-6.6°C 73% 6.0 mph E9.7 kmh E 9.0 mph14.5 kmh 30.52 in1033.5 mb 0.00 in0.0 mm 0.00 in0.0 mm 0.00 in0.0 mm
02:53 AM 27.7°F-2.4°C 20.2°F-6.6°C 73% 4.9 mph E7.9 kmh E 9.0 mph14.5 kmh 30.52 in1033.5 mb 0.00 in0.0 mm 0.00 in0.0 mm 0.00 in0.0 mm
02:54 AM 27.7°F-2.4°C 20.2°F-6.6°C 73% 5.6 mph E9.0 kmh E 7.0 mph11.3 kmh 30.52 in1033.5 mb 0.00 in0.0 mm 0.00 in0.0 mm 0.00 in0.0 mm
02:55 AM 27.7°F-2.4°C 20.2°F-6.6°C 73% 4.9 mph ENE7.9 kmh ENE 7.0 mph11.3 kmh 30.52 in1033.5 mb 0.00 in0.0 mm 0.00 in0.0 mm 0.00 in0.0 mm
02:56 AM 27.7°F-2.4°C 20.2°F-6.6°C 73% 7.4 mph ENE11.9 kmh ENE 10.0 mph16.1 kmh 30.52 in1033.5 mb 0.00 in0.0 mm 0.00 in0.0 mm 0.00 in0.0 mm
02:57 AM 27.7°F-2.4°C 20.2°F-6.6°C 73% 7.3 mph ENE11.7 kmh ENE 10.0 mph16.1 kmh 30.51 in1033.2 mb 0.00 in0.0 mm 0.00 in0.0 mm 0.00 in0.0 mm
02:58 AM 27.6°F-2.4°C 19.8°F-6.8°C 72% 5.3 mph ENE8.5 kmh ENE 9.0 mph14.5 kmh 30.52 in1033.5 mb 0.00 in0.0 mm 0.00 in0.0 mm 0.00 in0.0 mm
02:59 AM 27.6°F-2.4°C 19.8°F-6.8°C 72% 5.9 mph NE9.5 kmh NE 9.0 mph14.5 kmh 30.51 in1033.2 mb 0.00 in0.0 mm 0.00 in0.0 mm 0.00 in0.0 mm
03:00 AM 27.7°F-2.4°C 19.9°F-6.7°C 72% 6.9 mph ENE11.1 kmh ENE 10.0 mph16.1 kmh 30.51 in1033.2 mb 0.00 in0.0 mm 0.00 in0.0 mm 0.00 in0.0 mm
03:01 AM 27.7°F-2.4°C 19.9°F-6.7°C 72% 8.5 mph E13.7 kmh E 11.0 mph17.7 kmh 30.51 in1033.2 mb 0.00 in0.0 mm 0.00 in0.0 mm 0.00 in0.0 mm
03:02 AM 27.6°F-2.4°C 19.8°F-6.8°C 72% 9.5 mph ENE15.3 kmh ENE 12.0 mph19.3 kmh 30.51 in1033.2 mb 0.00 in0.0 mm 0.00 in0.0 mm 0.00 in0.0 mm
03:03 AM 27.6°F-2.4°C 19.8°F-6.8°C 72% 6.8 mph E10.9 kmh E 12.0 mph19.3 kmh 30.51 in1033.2 mb 0.00 in0.0 mm 0.00 in0.0 mm 0.00 in0.0 mm
03:04 AM 27.6°F-2.4°C 19.8°F-6.8°C 72% 6.5 mph E10.5 kmh E 9.0 mph14.5 kmh 30.51 in1033.2 mb 0.00 in0.0 mm 0.00 in0.0 mm 0.00 in0.0 mm
03:05 AM 27.6°F-2.4°C 19.8°F-6.8°C 72% 7.1 mph E11.4 kmh E 11.0 mph17.7 kmh 30.51 in1033.2 mb 0.00 in0.0 mm 0.00 in0.0 mm 0.00 in0.0 mm
03:06 AM 27.6°F-2.4°C 19.8°F-6.8°C 72% 8.0 mph E12.9 kmh E 14.0 mph22.5 kmh 30.51 in1033.2 mb 0.00 in0.0 mm 0.00 in0.0 mm 0.00 in0.0 mm
03:07 AM 27.6°F-2.4°C 19.8°F-6.8°C 72% 9.3 mph ENE15.0 kmh ENE 14.0 mph22.5 kmh 30.52 in1033.5 mb 0.00 in0.0 mm 0.00 in0.0 mm 0.00 in0.0 mm
03:08 AM 27.6°F-2.4°C 19.4°F-7.0°C 71% 8.7 mph ENE14.0 kmh ENE 12.0 mph19.3 kmh 30.51 in1033.2 mb 0.00 in0.0 mm 0.00 in0.0 mm 0.00 in0.0 mm
03:09 AM 27.6°F-2.4°C 19.4°F-7.0°C 71% 7.4 mph E11.9 kmh E 12.0 mph19.3 kmh 30.51 in1033.2 mb 0.00 in0.0 mm 0.00 in0.0 mm 0.00 in0.0 mm
03:10 AM 27.7°F-2.4°C 19.5°F-6.9°C 71% 7.4 mph ENE11.9 kmh ENE 10.0 mph16.1 kmh 30.52 in1033.5 mb 0.00 in0.0 mm 0.00 in0.0 mm 0.00 in0.0 mm
03:11 AM 27.6°F-2.4°C 19.4°F-7.0°C 71% 7.8 mph ENE12.6 kmh ENE 10.0 mph16.1 kmh 30.51 in1033.2 mb 0.00 in0.0 mm 0.00 in0.0 mm 0.00 in0.0 mm
03:12 AM 27.6°F-2.4°C 19.4°F-7.0°C 71% 7.0 mph ENE11.3 kmh ENE 10.0 mph16.1 kmh 30.52 in1033.5 mb 0.00 in0.0 mm 0.00 in0.0 mm 0.00 in0.0 mm
03:13 AM 27.6°F-2.4°C 19.8°F-6.8°C 72% 7.7 mph ENE12.4 kmh ENE 10.0 mph16.1 kmh 30.52 in1033.5 mb 0.00 in0.0 mm 0.00 in0.0 mm 0.00 in0.0 mm
03:14 AM 27.6°F-2.4°C 19.8°F-6.8°C 72% 5.2 mph ENE8.4 kmh ENE 10.0 mph16.1 kmh 30.51 in1033.2 mb 0.00 in0.0 mm 0.00 in0.0 mm 0.00 in0.0 mm
03:15 AM 27.7°F-2.4°C 19.9°F-6.7°C 72% 5.0 mph ENE8.0 kmh ENE 8.0 mph12.9 kmh 30.51 in1033.2 mb 0.00 in0.0 mm 0.00 in0.0 mm 0.00 in0.0 mm
03:16 AM 27.6°F-2.4°C 19.4°F-7.0°C 71% 7.4 mph NE11.9 kmh NE 9.0 mph14.5 kmh 30.51 in1033.2 mb 0.00 in0.0 mm 0.00 in0.0 mm 0.00 in0.0 mm
03:17 AM 27.7°F-2.4°C 19.9°F-6.7°C 72% 6.2 mph ENE10.0 kmh ENE 10.0 mph16.1 kmh 30.52 in1033.5 mb 0.00 in0.0 mm 0.00 in0.0 mm 0.00 in0.0 mm
03:18 AM 27.6°F-2.4°C 19.8°F-6.8°C 72% 7.1 mph E11.4 kmh E 10.0 mph16.1 kmh 30.52 in1033.5 mb 0.00 in0.0 mm 0.00 in0.0 mm 0.00 in0.0 mm
03:19 AM 27.6°F-2.4°C 19.8°F-6.8°C 72% 5.5 mph ENE8.9 kmh ENE 10.0 mph16.1 kmh 30.52 in1033.5 mb 0.00 in0.0 mm 0.00 in0.0 mm 0.00 in0.0 mm
03:20 AM 27.6°F-2.4°C 19.4°F-7.0°C 71% 5.0 mph ENE8.0 kmh ENE 8.0 mph12.9 kmh 30.52 in1033.5 mb 0.00 in0.0 mm 0.00 in0.0 mm 0.00 in0.0 mm
03:21 AM 27.6°F-2.4°C 19.8°F-6.8°C 72% 5.9 mph ENE9.5 kmh ENE 9.0 mph14.5 kmh 30.52 in1033.5 mb 0.00 in0.0 mm 0.00 in0.0 mm 0.00 in0.0 mm
03:22 AM 27.7°F-2.4°C 19.9°F-6.7°C 72% 6.8 mph ENE10.9 kmh ENE 10.0 mph16.1 kmh 30.52 in1033.5 mb 0.00 in0.0 mm 0.00 in0.0 mm 0.00 in0.0 mm
03:23 AM 27.6°F-2.4°C 19.8°F-6.8°C 72% 5.9 mph NE9.5 kmh NE 10.0 mph16.1 kmh 30.52 in1033.5 mb 0.00 in0.0 mm 0.00 in0.0 mm 0.00 in0.0 mm
03:24 AM 27.6°F-2.4°C 19.8°F-6.8°C 72% 6.8 mph ENE10.9 kmh ENE 9.0 mph14.5 kmh 30.52 in1033.5 mb 0.00 in0.0 mm 0.00 in0.0 mm 0.00 in0.0 mm
03:25 AM 27.6°F-2.4°C 19.8°F-6.8°C 72% 4.7 mph ENE7.6 kmh ENE 9.0 mph14.5 kmh 30.52 in1033.5 mb 0.00 in0.0 mm 0.00 in0.0 mm 0.00 in0.0 mm
03:26 AM 27.6°F-2.4°C 19.8°F-6.8°C 72% 4.3 mph E6.9 kmh E 7.0 mph11.3 kmh 30.52 in1033.5 mb 0.00 in0.0 mm 0.00 in0.0 mm 0.00 in0.0 mm
03:27 AM 27.7°F-2.4°C 19.9°F-6.7°C 72% 4.2 mph E6.8 kmh E 7.0 mph11.3 kmh 30.52 in1033.5 mb 0.00 in0.0 mm 0.00 in0.0 mm 0.00 in0.0 mm
03:28 AM 27.6°F-2.4°C 19.8°F-6.8°C 72% 4.0 mph E6.4 kmh E 7.0 mph11.3 kmh 30.52 in1033.5 mb 0.00 in0.0 mm 0.00 in0.0 mm 0.00 in0.0 mm
03:29 AM 27.6°F-2.4°C 19.8°F-6.8°C 72% 6.9 mph ENE11.1 kmh ENE 8.0 mph12.9 kmh 30.52 in1033.5 mb 0.00 in0.0 mm 0.00 in0.0 mm 0.00 in0.0 mm
03:30 AM 27.6°F-2.4°C 19.8°F-6.8°C 72% 5.7 mph ENE9.2 kmh ENE 8.0 mph12.9 kmh 30.52 in1033.5 mb 0.00 in0.0 mm 0.00 in0.0 mm 0.00 in0.0 mm
03:31 AM 27.6°F-2.4°C 19.8°F-6.8°C 72% 4.4 mph ENE7.1 kmh ENE 8.0 mph12.9 kmh 30.52 in1033.5 mb 0.00 in0.0 mm 0.00 in0.0 mm 0.00 in0.0 mm
03:32 AM 27.6°F-2.4°C 19.8°F-6.8°C 72% 5.5 mph E8.9 kmh E 8.0 mph12.9 kmh 30.52 in1033.5 mb 0.00 in0.0 mm 0.00 in0.0 mm 0.00 in0.0 mm
03:33 AM 27.6°F-2.4°C 19.8°F-6.8°C 72% 7.3 mph ENE11.7 kmh ENE 9.0 mph14.5 kmh 30.52 in1033.5 mb 0.00 in0.0 mm 0.00 in0.0 mm 0.00 in0.0 mm
03:34 AM 27.7°F-2.4°C 19.9°F-6.7°C 72% 4.7 mph ENE7.6 kmh ENE 9.0 mph14.5 kmh 30.52 in1033.5 mb 0.00 in0.0 mm 0.00 in0.0 mm 0.00 in0.0 mm
03:35 AM 27.6°F-2.4°C 19.8°F-6.8°C 72% 7.5 mph E12.1 kmh E 11.0 mph17.7 kmh 30.52 in1033.5 mb 0.00 in0.0 mm 0.00 in0.0 mm 0.00 in0.0 mm
03:36 AM 27.7°F-2.4°C 19.5°F-6.9°C 71% 7.6 mph E12.2 kmh E 11.0 mph17.7 kmh 30.52 in1033.5 mb 0.00 in0.0 mm 0.00 in0.0 mm 0.00 in0.0 mm
03:37 AM 27.7°F-2.4°C 19.5°F-6.9°C 71% 7.7 mph E12.4 kmh E 9.0 mph14.5 kmh 30.52 in1033.5 mb 0.00 in0.0 mm 0.00 in0.0 mm 0.00 in0.0 mm
03:38 AM 27.7°F-2.4°C 19.9°F-6.7°C 72% 7.2 mph ENE11.6 kmh ENE 9.0 mph14.5 kmh 30.52 in1033.5 mb 0.00 in0.0 mm 0.00 in0.0 mm 0.00 in0.0 mm
03:39 AM 27.7°F-2.4°C 19.9°F-6.7°C 72% 6.9 mph NE11.1 kmh NE 10.0 mph16.1 kmh 30.52 in1033.5 mb 0.00 in0.0 mm 0.00 in0.0 mm 0.00 in0.0 mm
03:40 AM 27.7°F-2.4°C 19.9°F-6.7°C 72% 5.4 mph ENE8.7 kmh ENE 10.0 mph16.1 kmh 30.52 in1033.5 mb 0.00 in0.0 mm 0.00 in0.0 mm 0.00 in0.0 mm
03:41 AM 27.7°F-2.4°C 19.9°F-6.7°C 72% 4.4 mph E7.1 kmh E 8.0 mph12.9 kmh 30.52 in1033.5 mb 0.00 in0.0 mm 0.00 in0.0 mm 0.00 in0.0 mm
03:42 AM 27.7°F-2.4°C 19.9°F-6.7°C 72% 4.0 mph E6.4 kmh E 7.0 mph11.3 kmh 30.52 in1033.5 mb 0.00 in0.0 mm 0.00 in0.0 mm 0.00 in0.0 mm
03:43 AM 27.7°F-2.4°C 19.9°F-6.7°C 72% 5.6 mph ENE9.0 kmh ENE 8.0 mph12.9 kmh 30.52 in1033.5 mb 0.00 in0.0 mm 0.00 in0.0 mm 0.00 in0.0 mm
03:44 AM 27.7°F-2.4°C 19.9°F-6.7°C 72% 5.4 mph ENE8.7 kmh ENE 9.0 mph14.5 kmh 30.52 in1033.5 mb 0.00 in0.0 mm 0.00 in0.0 mm 0.00 in0.0 mm
03:45 AM 27.7°F-2.4°C 19.9°F-6.7°C 72% 7.9 mph ENE12.7 kmh ENE 11.0 mph17.7 kmh 30.52 in1033.5 mb 0.00 in0.0 mm 0.00 in0.0 mm 0.00 in0.0 mm
03:46 AM 27.7°F-2.4°C 19.5°F-6.9°C 71% 9.7 mph ENE15.6 kmh ENE 11.0 mph17.7 kmh 30.52 in1033.5 mb 0.00 in0.0 mm 0.00 in0.0 mm 0.00 in0.0 mm
03:47 AM 27.7°F-2.4°C 19.5°F-6.9°C 71% 7.8 mph E12.6 kmh E 11.0 mph17.7 kmh 30.52 in1033.5 mb 0.00 in0.0 mm 0.00 in0.0 mm 0.00 in0.0 mm
03:48 AM 27.7°F-2.4°C 19.9°F-6.7°C 72% 7.9 mph E12.7 kmh E 11.0 mph17.7 kmh 30.52 in1033.5 mb 0.00 in0.0 mm 0.00 in0.0 mm 0.00 in0.0 mm
03:49 AM 27.8°F-2.3°C 19.6°F-6.9°C 71% 7.3 mph E11.7 kmh E 9.0 mph14.5 kmh 30.52 in1033.5 mb 0.00 in0.0 mm 0.00 in0.0 mm 0.00 in0.0 mm
03:50 AM 27.7°F-2.4°C 19.5°F-6.9°C 71% 7.0 mph E11.3 kmh E 8.0 mph12.9 kmh 30.52 in1033.5 mb 0.00 in0.0 mm 0.00 in0.0 mm 0.00 in0.0 mm
03:51 AM 27.7°F-2.4°C 19.5°F-6.9°C 71% 5.8 mph E9.3 kmh E 9.0 mph14.5 kmh 30.52 in1033.5 mb 0.00 in0.0 mm 0.00 in0.0 mm 0.00 in0.0 mm
03:52 AM 27.7°F-2.4°C 19.5°F-6.9°C 71% 7.3 mph ENE11.7 kmh ENE 11.0 mph17.7 kmh 30.52 in1033.5 mb 0.00 in0.0 mm 0.00 in0.0 mm 0.00 in0.0 mm
03:53 AM 27.6°F-2.4°C 19.4°F-7.0°C 71% 7.2 mph E11.6 kmh E 11.0 mph17.7 kmh 30.52 in1033.5 mb 0.00 in0.0 mm 0.00 in0.0 mm 0.00 in0.0 mm
03:54 AM 27.7°F-2.4°C 19.5°F-6.9°C 71% 8.1 mph E13.0 kmh E 11.0 mph17.7 kmh 30.52 in1033.5 mb 0.00 in0.0 mm 0.00 in0.0 mm 0.00 in0.0 mm
03:55 AM 27.7°F-2.4°C 19.5°F-6.9°C 71% 6.6 mph E10.6 kmh E 11.0 mph17.7 kmh 30.52 in1033.5 mb 0.00 in0.0 mm 0.00 in0.0 mm 0.00 in0.0 mm
03:56 AM 27.7°F-2.4°C 19.5°F-6.9°C 71% 5.7 mph ENE9.2 kmh ENE 9.0 mph14.5 kmh 30.52 in1033.5 mb 0.00 in0.0 mm 0.00 in0.0 mm 0.00 in0.0 mm
03:57 AM 27.7°F-2.4°C 19.5°F-6.9°C 71% 5.9 mph NE9.5 kmh NE 9.0 mph14.5 kmh 30.52 in1033.5 mb 0.00 in0.0 mm 0.00 in0.0 mm 0.00 in0.0 mm
03:58 AM 27.7°F-2.4°C 19.5°F-6.9°C 71% 5.7 mph NE9.2 kmh NE 8.0 mph12.9 kmh 30.52 in1033.5 mb 0.00 in0.0 mm 0.00 in0.0 mm 0.00 in0.0 mm
03:59 AM 27.7°F-2.4°C 19.5°F-6.9°C 71% 4.7 mph NE7.6 kmh NE 8.0 mph12.9 kmh 30.52 in1033.5 mb 0.00 in0.0 mm 0.00 in0.0 mm 0.00 in0.0 mm
04:00 AM 27.7°F-2.4°C 19.5°F-6.9°C 71% 4.0 mph NE6.4 kmh NE 8.0 mph12.9 kmh 30.53 in1033.9 mb 0.00 in0.0 mm 0.00 in0.0 mm 0.00 in0.0 mm
04:01 AM 27.7°F-2.4°C 19.5°F-6.9°C 71% 4.2 mph E6.8 kmh E 7.0 mph11.3 kmh 30.53 in1033.9 mb 0.00 in0.0 mm 0.00 in0.0 mm 0.00 in0.0 mm
04:02 AM 27.7°F-2.4°C 19.5°F-6.9°C 71% 4.1 mph E6.6 kmh E 7.0 mph11.3 kmh 30.53 in1033.9 mb 0.00 in0.0 mm 0.00 in0.0 mm 0.00 in0.0 mm
04:03 AM 27.7°F-2.4°C 19.5°F-6.9°C 71% 5.9 mph E9.5 kmh E 8.0 mph12.9 kmh 30.53 in1033.9 mb 0.00 in0.0 mm 0.00 in0.0 mm 0.00 in0.0 mm
04:04 AM 27.7°F-2.4°C 19.5°F-6.9°C 71% 4.4 mph E7.1 kmh E 8.0 mph12.9 kmh 30.53 in1033.9 mb 0.00 in0.0 mm 0.00 in0.0 mm 0.00 in0.0 mm
04:05 AM 27.6°F-2.4°C 19.4°F-7.0°C 71% 4.4 mph E7.1 kmh E 7.0 mph11.3 kmh 30.53 in1033.9 mb 0.00 in0.0 mm 0.00 in0.0 mm 0.00 in0.0 mm
04:06 AM 27.7°F-2.4°C 19.5°F-6.9°C 71% 7.4 mph E11.9 kmh E 10.0 mph16.1 kmh 30.53 in1033.9 mb 0.00 in0.0 mm 0.00 in0.0 mm 0.00 in0.0 mm
04:07 AM 27.7°F-2.4°C 19.5°F-6.9°C 71% 5.6 mph E9.0 kmh E 10.0 mph16.1 kmh 30.53 in1033.9 mb 0.00 in0.0 mm 0.00 in0.0 mm 0.00 in0.0 mm
04:08 AM 27.7°F-2.4°C 19.5°F-6.9°C 71% 5.6 mph ENE9.0 kmh ENE 8.0 mph12.9 kmh 30.53 in1033.9 mb 0.00 in0.0 mm 0.00 in0.0 mm 0.00 in0.0 mm
04:09 AM 27.7°F-2.4°C 19.5°F-6.9°C 71% 4.5 mph E7.2 kmh E 8.0 mph12.9 kmh 30.53 in1033.9 mb 0.00 in0.0 mm 0.00 in0.0 mm 0.00 in0.0 mm
04:10 AM 27.7°F-2.4°C 19.9°F-6.7°C 72% 4.0 mph ESE6.4 kmh ESE 8.0 mph12.9 kmh 30.53 in1033.9 mb 0.00 in0.0 mm 0.00 in0.0 mm 0.00 in0.0 mm
04:11 AM 27.7°F-2.4°C 19.5°F-6.9°C 71% 4.8 mph E7.7 kmh E 7.0 mph11.3 kmh 30.53 in1033.9 mb 0.00 in0.0 mm 0.00 in0.0 mm 0.00 in0.0 mm
04:12 AM 27.7°F-2.4°C 19.5°F-6.9°C 71% 8.1 mph E13.0 kmh E 10.0 mph16.1 kmh 30.53 in1033.9 mb 0.00 in0.0 mm 0.00 in0.0 mm 0.00 in0.0 mm
04:13 AM 27.6°F-2.4°C 19.4°F-7.0°C 71% 7.5 mph E12.1 kmh E 10.0 mph16.1 kmh 30.53 in1033.9 mb 0.00 in0.0 mm 0.00 in0.0 mm 0.00 in0.0 mm
04:14 AM 27.7°F-2.4°C 19.5°F-6.9°C 71% 4.8 mph E7.7 kmh E 8.0 mph12.9 kmh 30.53 in1033.9 mb 0.00 in0.0 mm 0.00 in0.0 mm 0.00 in0.0 mm
04:15 AM 27.6°F-2.4°C 19.4°F-7.0°C 71% 4.3 mph ENE6.9 kmh ENE 7.0 mph11.3 kmh 30.53 in1033.9 mb 0.00 in0.0 mm 0.00 in0.0 mm 0.00 in0.0 mm
04:16 AM 27.6°F-2.4°C 19.8°F-6.8°C 72% 4.6 mph ENE7.4 kmh ENE 7.0 mph11.3 kmh 30.53 in1033.9 mb 0.00 in0.0 mm 0.00 in0.0 mm 0.00 in0.0 mm
04:17 AM 27.6°F-2.4°C 19.4°F-7.0°C 71% 4.3 mph E6.9 kmh E 6.0 mph9.7 kmh 30.53 in1033.9 mb 0.00 in0.0 mm 0.00 in0.0 mm 0.00 in0.0 mm
04:18 AM 27.7°F-2.4°C 19.5°F-6.9°C 71% 5.3 mph ENE8.5 kmh ENE 9.0 mph14.5 kmh 30.53 in1033.9 mb 0.00 in0.0 mm 0.00 in0.0 mm 0.00 in0.0 mm
04:19 AM 27.6°F-2.4°C 19.8°F-6.8°C 72% 5.0 mph NE8.0 kmh NE 9.0 mph14.5 kmh 30.53 in1033.9 mb 0.00 in0.0 mm 0.00 in0.0 mm 0.00 in0.0 mm
04:20 AM 27.7°F-2.4°C 19.9°F-6.7°C 72% 3.6 mph ENE5.8 kmh ENE 8.0 mph12.9 kmh 30.53 in1033.9 mb 0.00 in0.0 mm 0.00 in0.0 mm 0.00 in0.0 mm
04:21 AM 27.6°F-2.4°C 19.8°F-6.8°C 72% 4.9 mph ENE7.9 kmh ENE 7.0 mph11.3 kmh 30.53 in1033.9 mb 0.00 in0.0 mm 0.00 in0.0 mm 0.00 in0.0 mm
04:22 AM 27.6°F-2.4°C 19.8°F-6.8°C 72% 4.2 mph E6.8 kmh E 7.0 mph11.3 kmh 30.53 in1033.9 mb 0.00 in0.0 mm 0.00 in0.0 mm 0.00 in0.0 mm
04:23 AM 27.6°F-2.4°C 19.8°F-6.8°C 72% 4.2 mph E6.8 kmh E 7.0 mph11.3 kmh 30.53 in1033.9 mb 0.00 in0.0 mm 0.00 in0.0 mm 0.00 in0.0 mm
04:24 AM 27.6°F-2.4°C 19.8°F-6.8°C 72% 4.0 mph E6.4 kmh E 6.0 mph9.7 kmh 30.53 in1033.9 mb 0.00 in0.0 mm 0.00 in0.0 mm 0.00 in0.0 mm
04:25 AM 27.7°F-2.4°C 19.9°F-6.7°C 72% 3.1 mph E5.0 kmh E 5.0 mph8.0 kmh 30.53 in1033.9 mb 0.00 in0.0 mm 0.00 in0.0 mm 0.00 in0.0 mm
04:26 AM 27.6°F-2.4°C 19.8°F-6.8°C 72% 4.3 mph E6.9 kmh E 7.0 mph11.3 kmh 30.53 in1033.9 mb 0.00 in0.0 mm 0.00 in0.0 mm 0.00 in0.0 mm
04:27 AM 27.6°F-2.4°C 19.8°F-6.8°C 72% 5.6 mph E9.0 kmh E 8.0 mph12.9 kmh 30.53 in1033.9 mb 0.00 in0.0 mm 0.00 in0.0 mm 0.00 in0.0 mm
04:28 AM 27.6°F-2.4°C 19.8°F-6.8°C 72% 5.6 mph E9.0 kmh E 8.0 mph12.9 kmh 30.53 in1033.9 mb 0.00 in0.0 mm 0.00 in0.0 mm 0.00 in0.0 mm
04:29 AM 27.6°F-2.4°C 19.8°F-6.8°C 72% 4.7 mph ENE7.6 kmh ENE 8.0 mph12.9 kmh 30.53 in1033.9 mb 0.00 in0.0 mm 0.00 in0.0 mm 0.00 in0.0 mm
04:30 AM 27.6°F-2.4°C 19.8°F-6.8°C 72% 4.4 mph E7.1 kmh E 8.0 mph12.9 kmh 30.53 in1033.9 mb 0.00 in0.0 mm 0.00 in0.0 mm 0.00 in0.0 mm
04:31 AM 27.6°F-2.4°C 19.8°F-6.8°C 72% 9.5 mph E15.3 kmh E 12.0 mph19.3 kmh 30.53 in1033.9 mb 0.00 in0.0 mm 0.00 in0.0 mm 0.00 in0.0 mm
04:32 AM 27.6°F-2.4°C 19.4°F-7.0°C 71% 8.7 mph E14.0 kmh E 12.0 mph19.3 kmh 30.53 in1033.9 mb 0.00 in0.0 mm 0.00 in0.0 mm 0.00 in0.0 mm
04:33 AM 27.6°F-2.4°C 19.4°F-7.0°C 71% 7.2 mph E11.6 kmh E 11.0 mph17.7 kmh 30.53 in1033.9 mb 0.00 in0.0 mm 0.00 in0.0 mm 0.00 in0.0 mm
04:34 AM 27.6°F-2.4°C 19.4°F-7.0°C 71% 7.2 mph E11.6 kmh E 10.0 mph16.1 kmh 30.53 in1033.9 mb 0.00 in0.0 mm 0.00 in0.0 mm 0.00 in0.0 mm
04:35 AM 27.6°F-2.4°C 19.4°F-7.0°C 71% 7.2 mph E11.6 kmh E 10.0 mph16.1 kmh 30.53 in1033.9 mb 0.00 in0.0 mm 0.00 in0.0 mm 0.00 in0.0 mm
04:36 AM 27.6°F-2.4°C 19.4°F-7.0°C 71% 8.0 mph E12.9 kmh E 10.0 mph16.1 kmh 30.53 in1033.9 mb 0.00 in0.0 mm 0.00 in0.0 mm 0.00 in0.0 mm
04:37 AM 27.6°F-2.4°C 19.4°F-7.0°C 71% 10.7 mph ESE17.2 kmh ESE 13.0 mph20.9 kmh 30.53 in1033.9 mb 0.00 in0.0 mm 0.00 in0.0 mm 0.00 in0.0 mm
04:38 AM 27.6°F-2.4°C 19.1°F-7.2°C 70% 11.3 mph E18.2 kmh E 14.0 mph22.5 kmh 30.52 in1033.5 mb 0.00 in0.0 mm 0.00 in0.0 mm 0.00 in0.0 mm
04:39 AM 27.6°F-2.4°C 19.1°F-7.2°C 70% 10.1 mph E16.3 kmh E 14.0 mph22.5 kmh 30.52 in1033.5 mb 0.00 in0.0 mm 0.00 in0.0 mm 0.00 in0.0 mm
04:40 AM 27.6°F-2.4°C 19.1°F-7.2°C 70% 7.8 mph E12.6 kmh E 12.0 mph19.3 kmh 30.52 in1033.5 mb 0.00 in0.0 mm 0.00 in0.0 mm 0.00 in0.0 mm
04:41 AM 27.6°F-2.4°C 19.1°F-7.2°C 70% 6.1 mph ESE9.8 kmh ESE 9.0 mph14.5 kmh 30.52 in1033.5 mb 0.00 in0.0 mm 0.00 in0.0 mm 0.00 in0.0 mm
04:42 AM 27.6°F-2.4°C 19.1°F-7.2°C 70% 4.3 mph E6.9 kmh E 8.0 mph12.9 kmh 30.52 in1033.5 mb 0.00 in0.0 mm 0.00 in0.0 mm 0.00 in0.0 mm
04:43 AM 27.6°F-2.4°C 19.1°F-7.2°C 70% 6.3 mph E10.1 kmh E 9.0 mph14.5 kmh 30.52 in1033.5 mb 0.00 in0.0 mm 0.00 in0.0 mm 0.00 in0.0 mm
04:44 AM 27.6°F-2.4°C 19.4°F-7.0°C 71% 6.0 mph E9.7 kmh E 9.0 mph14.5 kmh 30.52 in1033.5 mb 0.00 in0.0 mm 0.00 in0.0 mm 0.00 in0.0 mm
04:45 AM 27.6°F-2.4°C 19.4°F-7.0°C 71% 7.8 mph E12.6 kmh E 12.0 mph19.3 kmh 30.52 in1033.5 mb 0.00 in0.0 mm 0.00 in0.0 mm 0.00 in0.0 mm
04:46 AM 27.6°F-2.4°C 19.4°F-7.0°C 71% 9.5 mph E15.3 kmh E 12.0 mph19.3 kmh 30.52 in1033.5 mb 0.00 in0.0 mm 0.00 in0.0 mm 0.00 in0.0 mm
04:47 AM 27.6°F-2.4°C 19.4°F-7.0°C 71% 8.3 mph E13.4 kmh E 12.0 mph19.3 kmh 30.52 in1033.5 mb 0.00 in0.0 mm 0.00 in0.0 mm 0.00 in0.0 mm
04:48 AM 27.6°F-2.4°C 19.4°F-7.0°C 71% 10.3 mph E16.6 kmh E 13.0 mph20.9 kmh 30.52 in1033.5 mb 0.00 in0.0 mm 0.00 in0.0 mm 0.00 in0.0 mm
04:49 AM 27.6°F-2.4°C 19.1°F-7.2°C 70% 8.5 mph E13.7 kmh E 13.0 mph20.9 kmh 30.52 in1033.5 mb 0.00 in0.0 mm 0.00 in0.0 mm 0.00 in0.0 mm
04:50 AM 27.6°F-2.4°C 19.1°F-7.2°C 70% 6.3 mph E10.1 kmh E 11.0 mph17.7 kmh 30.52 in1033.5 mb 0.00 in0.0 mm 0.00 in0.0 mm 0.00 in0.0 mm
04:51 AM 27.6°F-2.4°C 19.1°F-7.2°C 70% 8.0 mph E12.9 kmh E 10.0 mph16.1 kmh 30.52 in1033.5 mb 0.00 in0.0 mm 0.00 in0.0 mm 0.00 in0.0 mm
04:52 AM 27.6°F-2.4°C 19.1°F-7.2°C 70% 7.1 mph E11.4 kmh E 10.0 mph16.1 kmh 30.52 in1033.5 mb 0.00 in0.0 mm 0.00 in0.0 mm 0.00 in0.0 mm
04:53 AM 27.6°F-2.4°C 19.1°F-7.2°C 70% 6.6 mph E10.6 kmh E 9.0 mph14.5 kmh 30.52 in1033.5 mb 0.00 in0.0 mm 0.00 in0.0 mm 0.00 in0.0 mm
04:54 AM 27.6°F-2.4°C 19.1°F-7.2°C 70% 5.2 mph E8.4 kmh E 8.0 mph12.9 kmh 30.52 in1033.5 mb 0.00 in0.0 mm 0.00 in0.0 mm 0.00 in0.0 mm
04:55 AM 27.6°F-2.4°C 19.1°F-7.2°C 70% 3.9 mph E6.3 kmh E 8.0 mph12.9 kmh 30.52 in1033.5 mb 0.00 in0.0 mm 0.00 in0.0 mm 0.00 in0.0 mm
04:56 AM 27.6°F-2.4°C 19.4°F-7.0°C 71% 5.7 mph E9.2 kmh E 7.0 mph11.3 kmh 30.52 in1033.5 mb 0.00 in0.0 mm 0.00 in0.0 mm 0.00 in0.0 mm
04:57 AM 27.6°F-2.4°C 19.4°F-7.0°C 71% 5.3 mph E8.5 kmh E 7.0 mph11.3 kmh 30.52 in1033.5 mb 0.00 in0.0 mm 0.00 in0.0 mm 0.00 in0.0 mm
04:58 AM 27.6°F-2.4°C 19.4°F-7.0°C 71% 6.8 mph E10.9 kmh E 9.0 mph14.5 kmh 30.52 in1033.5 mb 0.00 in0.0 mm 0.00 in0.0 mm 0.00 in0.0 mm
04:59 AM 27.6°F-2.4°C 19.4°F-7.0°C 71% 8.6 mph E13.8 kmh E 11.0 mph17.7 kmh 30.52 in1033.5 mb 0.00 in0.0 mm 0.00 in0.0 mm 0.00 in0.0 mm
05:00 AM 27.6°F-2.4°C 19.4°F-7.0°C 71% 7.5 mph E12.1 kmh E 11.0 mph17.7 kmh 30.52 in1033.5 mb 0.00 in0.0 mm 0.00 in0.0 mm 0.00 in0.0 mm
05:01 AM 27.6°F-2.4°C 19.4°F-7.0°C 71% 7.2 mph E11.6 kmh E 9.0 mph14.5 kmh 30.52 in1033.5 mb 0.00 in0.0 mm 0.00 in0.0 mm 0.00 in0.0 mm
05:02 AM 27.6°F-2.4°C 19.4°F-7.0°C 71% 6.2 mph ENE10.0 kmh ENE 9.0 mph14.5 kmh 30.52 in1033.5 mb 0.00 in0.0 mm 0.00 in0.0 mm 0.00 in0.0 mm
05:03 AM 27.6°F-2.4°C 19.4°F-7.0°C 71% 6.0 mph ENE9.7 kmh ENE 8.0 mph12.9 kmh 30.52 in1033.5 mb 0.00 in0.0 mm 0.00 in0.0 mm 0.00 in0.0 mm
05:04 AM 27.6°F-2.4°C 19.4°F-7.0°C 71% 5.9 mph ENE9.5 kmh ENE 10.0 mph16.1 kmh 30.52 in1033.5 mb 0.00 in0.0 mm 0.00 in0.0 mm 0.00 in0.0 mm
05:05 AM 27.6°F-2.4°C 19.4°F-7.0°C 71% 4.2 mph ENE6.8 kmh ENE 10.0 mph16.1 kmh 30.52 in1033.5 mb 0.00 in0.0 mm 0.00 in0.0 mm 0.00 in0.0 mm
05:06 AM 27.6°F-2.4°C 19.4°F-7.0°C 71% 4.5 mph ENE7.2 kmh ENE 6.0 mph9.7 kmh 30.52 in1033.5 mb 0.00 in0.0 mm 0.00 in0.0 mm 0.00 in0.0 mm
05:07 AM 27.6°F-2.4°C 19.4°F-7.0°C 71% 4.3 mph ENE6.9 kmh ENE 6.0 mph9.7 kmh 30.53 in1033.9 mb 0.00 in0.0 mm 0.00 in0.0 mm 0.00 in0.0 mm
05:08 AM 27.6°F-2.4°C 19.4°F-7.0°C 71% 3.5 mph NE5.6 kmh NE 5.0 mph8.0 kmh 30.52 in1033.5 mb 0.00 in0.0 mm 0.00 in0.0 mm 0.00 in0.0 mm
05:09 AM 27.6°F-2.4°C 19.4°F-7.0°C 71% 6.8 mph NE10.9 kmh NE 10.0 mph16.1 kmh 30.53 in1033.9 mb 0.00 in0.0 mm 0.00 in0.0 mm 0.00 in0.0 mm
05:10 AM 27.6°F-2.4°C 19.4°F-7.0°C 71% 6.6 mph NE10.6 kmh NE 10.0 mph16.1 kmh 30.53 in1033.9 mb 0.00 in0.0 mm 0.00 in0.0 mm 0.00 in0.0 mm
05:11 AM 27.6°F-2.4°C 19.4°F-7.0°C 71% 7.1 mph NE11.4 kmh NE 9.0 mph14.5 kmh 30.53 in1033.9 mb 0.00 in0.0 mm 0.00 in0.0 mm 0.00 in0.0 mm
05:12 AM 27.6°F-2.4°C 19.4°F-7.0°C 71% 5.7 mph ENE9.2 kmh ENE 9.0 mph14.5 kmh 30.53 in1033.9 mb 0.00 in0.0 mm 0.00 in0.0 mm 0.00 in0.0 mm
05:13 AM 27.6°F-2.4°C 19.4°F-7.0°C 71% 7.3 mph ENE11.7 kmh ENE 10.0 mph16.1 kmh 30.53 in1033.9 mb 0.00 in0.0 mm 0.00 in0.0 mm 0.00 in0.0 mm
05:14 AM 27.6°F-2.4°C 19.4°F-7.0°C 71% 6.2 mph E10.0 kmh E 10.0 mph16.1 kmh 30.53 in1033.9 mb 0.00 in0.0 mm 0.00 in0.0 mm 0.00 in0.0 mm
05:15 AM 27.6°F-2.4°C 19.4°F-7.0°C 71% 5.0 mph E8.0 kmh E 8.0 mph12.9 kmh 30.53 in1033.9 mb 0.00 in0.0 mm 0.00 in0.0 mm 0.00 in0.0 mm
05:16 AM 27.6°F-2.4°C 19.4°F-7.0°C 71% 5.8 mph E9.3 kmh E 8.0 mph12.9 kmh 30.53 in1033.9 mb 0.00 in0.0 mm 0.00 in0.0 mm 0.00 in0.0 mm
05:17 AM 27.6°F-2.4°C 19.4°F-7.0°C 71% 4.8 mph ENE7.7 kmh ENE 8.0 mph12.9 kmh 30.53 in1033.9 mb 0.00 in0.0 mm 0.00 in0.0 mm 0.00 in0.0 mm
05:18 AM 27.6°F-2.4°C 19.4°F-7.0°C 71% 5.5 mph ENE8.9 kmh ENE 7.0 mph11.3 kmh 30.53 in1033.9 mb 0.00 in0.0 mm 0.00 in0.0 mm 0.00 in0.0 mm
05:19 AM 27.6°F-2.4°C 19.4°F-7.0°C 71% 7.8 mph E12.6 kmh E 10.0 mph16.1 kmh 30.53 in1033.9 mb 0.00 in0.0 mm 0.00 in0.0 mm 0.00 in0.0 mm
05:20 AM 27.6°F-2.4°C 19.1°F-7.2°C 70% 6.7 mph ENE10.8 kmh ENE 10.0 mph16.1 kmh 30.53 in1033.9 mb 0.00 in0.0 mm 0.00 in0.0 mm 0.00 in0.0 mm
05:21 AM 27.6°F-2.4°C 19.1°F-7.2°C 70% 5.9 mph ENE9.5 kmh ENE 9.0 mph14.5 kmh 30.53 in1033.9 mb 0.00 in0.0 mm 0.00 in0.0 mm 0.00 in0.0 mm
05:22 AM 27.6°F-2.4°C 19.1°F-7.2°C 70% 6.4 mph ENE10.3 kmh ENE 9.0 mph14.5 kmh 30.53 in1033.9 mb 0.00 in0.0 mm 0.00 in0.0 mm 0.00 in0.0 mm
05:23 AM 27.6°F-2.4°C 19.1°F-7.2°C 70% 6.5 mph ENE10.5 kmh ENE 9.0 mph14.5 kmh 30.53 in1033.9 mb 0.00 in0.0 mm 0.00 in0.0 mm 0.00 in0.0 mm
05:24 AM 27.6°F-2.4°C 19.1°F-7.2°C 70% 5.0 mph ENE8.0 kmh ENE 9.0 mph14.5 kmh 30.53 in1033.9 mb 0.00 in0.0 mm 0.00 in0.0 mm 0.00 in0.0 mm
05:25 AM 27.6°F-2.4°C 19.1°F-7.2°C 70% 7.9 mph E12.7 kmh E 12.0 mph19.3 kmh 30.52 in1033.5 mb 0.00 in0.0 mm 0.00 in0.0 mm 0.00 in0.0 mm
05:26 AM 27.5°F-2.5°C 19.0°F-7.2°C 70% 9.2 mph ENE14.8 kmh ENE 14.0 mph22.5 kmh 30.53 in1033.9 mb 0.00 in0.0 mm 0.00 in0.0 mm 0.00 in0.0 mm
05:27 AM 27.5°F-2.5°C 19.0°F-7.2°C 70% 8.7 mph ENE14.0 kmh ENE 14.0 mph22.5 kmh 30.53 in1033.9 mb 0.00 in0.0 mm 0.00 in0.0 mm 0.00 in0.0 mm
05:28 AM 27.6°F-2.4°C 18.8°F-7.3°C 69% 7.3 mph NE11.7 kmh NE 11.0 mph17.7 kmh 30.53 in1033.9 mb 0.00 in0.0 mm 0.00 in0.0 mm 0.00 in0.0 mm
05:29 AM 27.5°F-2.5°C 18.7°F-7.4°C 69% 7.1 mph E11.4 kmh E 10.0 mph16.1 kmh 30.53 in1033.9 mb 0.00 in0.0 mm 0.00 in0.0 mm 0.00 in0.0 mm
05:30 AM 27.5°F-2.5°C 19.0°F-7.2°C 70% 8.6 mph E13.8 kmh E 11.0 mph17.7 kmh 30.53 in1033.9 mb 0.00 in0.0 mm 0.00 in0.0 mm 0.00 in0.0 mm
05:31 AM 27.5°F-2.5°C 19.0°F-7.2°C 70% 8.1 mph E13.0 kmh E 11.0 mph17.7 kmh 30.53 in1033.9 mb 0.00 in0.0 mm 0.00 in0.0 mm 0.00 in0.0 mm
05:32 AM 27.5°F-2.5°C 19.0°F-7.2°C 70% 7.1 mph E11.4 kmh E 10.0 mph16.1 kmh 30.53 in1033.9 mb 0.00 in0.0 mm 0.00 in0.0 mm 0.00 in0.0 mm
05:33 AM 27.5°F-2.5°C 19.0°F-7.2°C 70% 7.4 mph E11.9 kmh E 10.0 mph16.1 kmh 30.53 in1033.9 mb 0.00 in0.0 mm 0.00 in0.0 mm 0.00 in0.0 mm
05:34 AM 27.6°F-2.4°C 19.1°F-7.2°C 70% 6.0 mph E9.7 kmh E 10.0 mph16.1 kmh 30.53 in1033.9 mb 0.00 in0.0 mm 0.00 in0.0 mm 0.00 in0.0 mm
05:35 AM 27.5°F-2.5°C 19.0°F-7.2°C 70% 5.2 mph E8.4 kmh E 8.0 mph12.9 kmh 30.53 in1033.9 mb 0.00 in0.0 mm 0.00 in0.0 mm 0.00 in0.0 mm
05:36 AM 27.6°F-2.4°C 19.1°F-7.2°C 70% 6.3 mph E10.1 kmh E 8.0 mph12.9 kmh 30.53 in1033.9 mb 0.00 in0.0 mm 0.00 in0.0 mm 0.00 in0.0 mm
05:37 AM 27.6°F-2.4°C 19.1°F-7.2°C 70% 7.2 mph E11.6 kmh E 10.0 mph16.1 kmh 30.53 in1033.9 mb 0.00 in0.0 mm 0.00 in0.0 mm 0.00 in0.0 mm
05:38 AM 27.5°F-2.5°C 19.0°F-7.2°C 70% 4.9 mph ESE7.9 kmh ESE 10.0 mph16.1 kmh 30.53 in1033.9 mb 0.00 in0.0 mm 0.00 in0.0 mm 0.00 in0.0 mm
05:39 AM 27.5°F-2.5°C 19.0°F-7.2°C 70% 5.4 mph ESE8.7 kmh ESE 7.0 mph11.3 kmh 30.53 in1033.9 mb 0.00 in0.0 mm 0.00 in0.0 mm 0.00 in0.0 mm
05:40 AM 27.6°F-2.4°C 19.1°F-7.2°C 70% 6.7 mph E10.8 kmh E 8.0 mph12.9 kmh 30.53 in1033.9 mb 0.00 in0.0 mm 0.00 in0.0 mm 0.00 in0.0 mm
05:41 AM 27.5°F-2.5°C 18.7°F-7.4°C 69% 5.7 mph ESE9.2 kmh ESE 8.0 mph12.9 kmh 30.54 in1034.2 mb 0.00 in0.0 mm 0.00 in0.0 mm 0.00 in0.0 mm
05:42 AM 27.5°F-2.5°C 18.7°F-7.4°C 69% 5.8 mph E9.3 kmh E 8.0 mph12.9 kmh 30.53 in1033.9 mb 0.00 in0.0 mm 0.00 in0.0 mm 0.00 in0.0 mm
05:43 AM 27.5°F-2.5°C 18.7°F-7.4°C 69% 4.6 mph E7.4 kmh E 8.0 mph12.9 kmh 30.53 in1033.9 mb 0.00 in0.0 mm 0.00 in0.0 mm 0.00 in0.0 mm
05:44 AM 27.5°F-2.5°C 18.7°F-7.4°C 69% 5.2 mph E8.4 kmh E 7.0 mph11.3 kmh 30.54 in1034.2 mb 0.00 in0.0 mm 0.00 in0.0 mm 0.00 in0.0 mm
05:45 AM 27.5°F-2.5°C 19.0°F-7.2°C 70% 4.5 mph E7.2 kmh E 7.0 mph11.3 kmh 30.53 in1033.9 mb 0.00 in0.0 mm 0.00 in0.0 mm 0.00 in0.0 mm
05:46 AM 27.5°F-2.5°C 18.7°F-7.4°C 69% 7.9 mph E12.7 kmh E 9.0 mph14.5 kmh 30.53 in1033.9 mb 0.00 in0.0 mm 0.00 in0.0 mm 0.00 in0.0 mm
05:47 AM 27.5°F-2.5°C 18.7°F-7.4°C 69% 5.1 mph E8.2 kmh E 9.0 mph14.5 kmh 30.54 in1034.2 mb 0.00 in0.0 mm 0.00 in0.0 mm 0.00 in0.0 mm
05:48 AM 27.6°F-2.4°C 18.8°F-7.3°C 69% 3.4 mph E5.5 kmh E 7.0 mph11.3 kmh 30.54 in1034.2 mb 0.00 in0.0 mm 0.00 in0.0 mm 0.00 in0.0 mm
05:49 AM 27.6°F-2.4°C 19.1°F-7.2°C 70% 3.5 mph E5.6 kmh E 6.0 mph9.7 kmh 30.54 in1034.2 mb 0.00 in0.0 mm 0.00 in0.0 mm 0.00 in0.0 mm
05:50 AM 27.6°F-2.4°C 19.1°F-7.2°C 70% 5.0 mph E8.0 kmh E 7.0 mph11.3 kmh 30.54 in1034.2 mb 0.00 in0.0 mm 0.00 in0.0 mm 0.00 in0.0 mm
05:51 AM 27.6°F-2.4°C 19.1°F-7.2°C 70% 4.5 mph E7.2 kmh E 7.0 mph11.3 kmh 30.54 in1034.2 mb 0.00 in0.0 mm 0.00 in0.0 mm 0.00 in0.0 mm
05:52 AM 27.6°F-2.4°C 19.1°F-7.2°C 70% 2.6 mph E4.2 kmh E 7.0 mph11.3 kmh 30.54 in1034.2 mb 0.00 in0.0 mm 0.00 in0.0 mm 0.00 in0.0 mm
05:53 AM 27.5°F-2.5°C 19.0°F-7.2°C 70% 2.8 mph E4.5 kmh E 4.0 mph6.4 kmh 30.54 in1034.2 mb 0.00 in0.0 mm 0.00 in0.0 mm 0.00 in0.0 mm
05:54 AM 27.6°F-2.4°C 19.1°F-7.2°C 70% 5.6 mph E9.0 kmh E 7.0 mph11.3 kmh 30.54 in1034.2 mb 0.00 in0.0 mm 0.00 in0.0 mm 0.00 in0.0 mm
05:55 AM 27.6°F-2.4°C 19.1°F-7.2°C 70% 4.8 mph E7.7 kmh E 7.0 mph11.3 kmh 30.54 in1034.2 mb 0.00 in0.0 mm 0.00 in0.0 mm 0.00 in0.0 mm
05:56 AM 27.5°F-2.5°C 19.0°F-7.2°C 70% 9.3 mph E15.0 kmh E 12.0 mph19.3 kmh 30.54 in1034.2 mb 0.00 in0.0 mm 0.00 in0.0 mm 0.00 in0.0 mm
05:57 AM 27.5°F-2.5°C 19.0°F-7.2°C 70% 7.8 mph E12.6 kmh E 12.0 mph19.3 kmh 30.54 in1034.2 mb 0.00 in0.0 mm 0.00 in0.0 mm 0.00 in0.0 mm
05:58 AM 27.6°F-2.4°C 19.1°F-7.2°C 70% 8.3 mph E13.4 kmh E 10.0 mph16.1 kmh 30.54 in1034.2 mb 0.00 in0.0 mm 0.00 in0.0 mm 0.00 in0.0 mm
05:59 AM 27.6°F-2.4°C 18.8°F-7.3°C 69% 7.5 mph E12.1 kmh E 10.0 mph16.1 kmh 30.54 in1034.2 mb 0.00 in0.0 mm 0.00 in0.0 mm 0.00 in0.0 mm
06:00 AM 27.6°F-2.4°C 18.8°F-7.3°C 69% 5.9 mph E9.5 kmh E 9.0 mph14.5 kmh 30.54 in1034.2 mb 0.00 in0.0 mm 0.00 in0.0 mm 0.00 in0.0 mm
06:01 AM 27.6°F-2.4°C 19.1°F-7.2°C 70% 6.7 mph E10.8 kmh E 11.0 mph17.7 kmh 30.54 in1034.2 mb 0.00 in0.0 mm 0.00 in0.0 mm 0.00 in0.0 mm
06:02 AM 27.6°F-2.4°C 18.8°F-7.3°C 69% 8.9 mph E14.3 kmh E 11.0 mph17.7 kmh 30.54 in1034.2 mb 0.00 in0.0 mm 0.00 in0.0 mm 0.00 in0.0 mm
06:03 AM 27.6°F-2.4°C 18.8°F-7.3°C 69% 7.3 mph E11.7 kmh E 11.0 mph17.7 kmh 30.54 in1034.2 mb 0.00 in0.0 mm 0.00 in0.0 mm 0.00 in0.0 mm
06:04 AM 27.6°F-2.4°C 18.8°F-7.3°C 69% 5.1 mph E8.2 kmh E 8.0 mph12.9 kmh 30.54 in1034.2 mb 0.00 in0.0 mm 0.00 in0.0 mm 0.00 in0.0 mm
06:05 AM 27.6°F-2.4°C 18.8°F-7.3°C 69% 6.4 mph E10.3 kmh E 9.0 mph14.5 kmh 30.54 in1034.2 mb 0.00 in0.0 mm 0.00 in0.0 mm 0.00 in0.0 mm
06:06 AM 27.6°F-2.4°C 18.8°F-7.3°C 69% 6.0 mph E9.7 kmh E 9.0 mph14.5 kmh 30.54 in1034.2 mb 0.00 in0.0 mm 0.00 in0.0 mm 0.00 in0.0 mm
06:07 AM 27.6°F-2.4°C 18.8°F-7.3°C 69% 5.0 mph E8.0 kmh E 7.0 mph11.3 kmh 30.54 in1034.2 mb 0.00 in0.0 mm 0.00 in0.0 mm 0.00 in0.0 mm
06:08 AM 27.6°F-2.4°C 18.8°F-7.3°C 69% 6.1 mph E9.8 kmh E 9.0 mph14.5 kmh 30.54 in1034.2 mb 0.00 in0.0 mm 0.00 in0.0 mm 0.00 in0.0 mm
06:09 AM 27.6°F-2.4°C 18.8°F-7.3°C 69% 6.5 mph E10.5 kmh E 9.0 mph14.5 kmh 30.54 in1034.2 mb 0.00 in0.0 mm 0.00 in0.0 mm 0.00 in0.0 mm
06:10 AM 27.6°F-2.4°C 18.8°F-7.3°C 69% 5.9 mph E9.5 kmh E 9.0 mph14.5 kmh 30.54 in1034.2 mb 0.00 in0.0 mm 0.00 in0.0 mm 0.00 in0.0 mm
06:11 AM 27.6°F-2.4°C 19.1°F-7.2°C 70% 6.0 mph E9.7 kmh E 8.0 mph12.9 kmh 30.54 in1034.2 mb 0.00 in0.0 mm 0.00 in0.0 mm 0.00 in0.0 mm
06:12 AM 27.6°F-2.4°C 19.1°F-7.2°C 70% 4.3 mph ENE6.9 kmh ENE 8.0 mph12.9 kmh 30.54 in1034.2 mb 0.00 in0.0 mm 0.00 in0.0 mm 0.00 in0.0 mm
06:13 AM 27.6°F-2.4°C 19.1°F-7.2°C 70% 4.7 mph E7.6 kmh E 7.0 mph11.3 kmh 30.54 in1034.2 mb 0.00 in0.0 mm 0.00 in0.0 mm 0.00 in0.0 mm
06:14 AM 27.6°F-2.4°C 19.1°F-7.2°C 70% 3.9 mph E6.3 kmh E 7.0 mph11.3 kmh 30.54 in1034.2 mb 0.00 in0.0 mm 0.00 in0.0 mm 0.00 in0.0 mm
06:15 AM 27.6°F-2.4°C 19.1°F-7.2°C 70% 5.2 mph ENE8.4 kmh ENE 7.0 mph11.3 kmh 30.54 in1034.2 mb 0.00 in0.0 mm 0.00 in0.0 mm 0.00 in0.0 mm
06:16 AM 27.6°F-2.4°C 19.1°F-7.2°C 70% 5.0 mph NE8.0 kmh NE 7.0 mph11.3 kmh 30.53 in1033.9 mb 0.00 in0.0 mm 0.00 in0.0 mm 0.00 in0.0 mm
06:17 AM 27.6°F-2.4°C 19.1°F-7.2°C 70% 4.1 mph ENE6.6 kmh ENE 6.0 mph9.7 kmh 30.54 in1034.2 mb 0.00 in0.0 mm 0.00 in0.0 mm 0.00 in0.0 mm
06:18 AM 27.6°F-2.4°C 19.1°F-7.2°C 70% 5.3 mph ENE8.5 kmh ENE 8.0 mph12.9 kmh 30.54 in1034.2 mb 0.00 in0.0 mm 0.00 in0.0 mm 0.00 in0.0 mm
06:19 AM 27.6°F-2.4°C 19.1°F-7.2°C 70% 6.9 mph E11.1 kmh E 9.0 mph14.5 kmh 30.54 in1034.2 mb 0.00 in0.0 mm 0.00 in0.0 mm 0.00 in0.0 mm
06:20 AM 27.6°F-2.4°C 19.1°F-7.2°C 70% 6.2 mph E10.0 kmh E 9.0 mph14.5 kmh 30.54 in1034.2 mb 0.00 in0.0 mm 0.00 in0.0 mm 0.00 in0.0 mm
06:21 AM 27.5°F-2.5°C 19.0°F-7.2°C 70% 5.5 mph E8.9 kmh E 8.0 mph12.9 kmh 30.54 in1034.2 mb 0.00 in0.0 mm 0.00 in0.0 mm 0.00 in0.0 mm
06:22 AM 27.5°F-2.5°C 19.0°F-7.2°C 70% 4.1 mph E6.6 kmh E 7.0 mph11.3 kmh 30.54 in1034.2 mb 0.00 in0.0 mm 0.00 in0.0 mm 0.00 in0.0 mm
06:23 AM 27.6°F-2.4°C 19.1°F-7.2°C 70% 5.1 mph E8.2 kmh E 7.0 mph11.3 kmh 30.54 in1034.2 mb 0.00 in0.0 mm 0.00 in0.0 mm 0.00 in0.0 mm
06:24 AM 27.5°F-2.5°C 19.0°F-7.2°C 70% 7.1 mph E11.4 kmh E 8.0 mph12.9 kmh 30.54 in1034.2 mb 0.00 in0.0 mm 0.00 in0.0 mm 0.00 in0.0 mm
06:25 AM 27.5°F-2.5°C 18.7°F-7.4°C 69% 5.4 mph E8.7 kmh E 9.0 mph14.5 kmh 30.54 in1034.2 mb 0.00 in0.0 mm 0.00 in0.0 mm 0.00 in0.0 mm
06:26 AM 27.5°F-2.5°C 18.7°F-7.4°C 69% 6.1 mph ENE9.8 kmh ENE 9.0 mph14.5 kmh 30.54 in1034.2 mb 0.00 in0.0 mm 0.00 in0.0 mm 0.00 in0.0 mm
06:27 AM 27.6°F-2.4°C 18.8°F-7.3°C 69% 7.4 mph ENE11.9 kmh ENE 9.0 mph14.5 kmh 30.54 in1034.2 mb 0.00 in0.0 mm 0.00 in0.0 mm 0.00 in0.0 mm
06:28 AM 27.5°F-2.5°C 18.7°F-7.4°C 69% 5.4 mph E8.7 kmh E 9.0 mph14.5 kmh 30.54 in1034.2 mb 0.00 in0.0 mm 0.00 in0.0 mm 0.00 in0.0 mm
06:29 AM 27.6°F-2.4°C 18.8°F-7.3°C 69% 7.6 mph E12.2 kmh E 10.0 mph16.1 kmh 30.54 in1034.2 mb 0.00 in0.0 mm 0.00 in0.0 mm 0.00 in0.0 mm
06:30 AM 27.6°F-2.4°C 18.4°F-7.6°C 68% 7.6 mph E12.2 kmh E 10.0 mph16.1 kmh 30.54 in1034.2 mb 0.00 in0.0 mm 0.00 in0.0 mm 0.00 in0.0 mm
06:31 AM 27.5°F-2.5°C 18.3°F-7.6°C 68% 6.2 mph E10.0 kmh E 9.0 mph14.5 kmh 30.54 in1034.2 mb 0.00 in0.0 mm 0.00 in0.0 mm 0.00 in0.0 mm
06:32 AM 27.6°F-2.4°C 18.4°F-7.6°C 68% 5.7 mph E9.2 kmh E 8.0 mph12.9 kmh 30.54 in1034.2 mb 0.00 in0.0 mm 0.00 in0.0 mm 0.00 in0.0 mm
06:33 AM 27.6°F-2.4°C 18.4°F-7.6°C 68% 4.5 mph E7.2 kmh E 8.0 mph12.9 kmh 30.54 in1034.2 mb 0.00 in0.0 mm 0.00 in0.0 mm 0.00 in0.0 mm
06:34 AM 27.6°F-2.4°C 18.4°F-7.6°C 68% 7.0 mph E11.3 kmh E 9.0 mph14.5 kmh 30.54 in1034.2 mb 0.00 in0.0 mm 0.00 in0.0 mm 0.00 in0.0 mm
06:35 AM 27.6°F-2.4°C 18.4°F-7.6°C 68% 7.3 mph ESE11.7 kmh ESE 9.0 mph14.5 kmh 30.54 in1034.2 mb 0.00 in0.0 mm 0.00 in0.0 mm 0.00 in0.0 mm
06:36 AM 27.6°F-2.4°C 18.8°F-7.3°C 69% 4.1 mph ESE6.6 kmh ESE 9.0 mph14.5 kmh 30.54 in1034.2 mb 0.00 in0.0 mm 0.00 in0.0 mm 0.00 in0.0 mm
06:37 AM 27.6°F-2.4°C 18.8°F-7.3°C 69% 2.6 mph ESE4.2 kmh ESE 7.0 mph11.3 kmh 30.54 in1034.2 mb 0.00 in0.0 mm 0.00 in0.0 mm 0.00 in0.0 mm
06:38 AM 27.6°F-2.4°C 18.8°F-7.3°C 69% 5.3 mph E8.5 kmh E 9.0 mph14.5 kmh 30.54 in1034.2 mb 0.00 in0.0 mm 0.00 in0.0 mm 0.00 in0.0 mm
06:39 AM 27.6°F-2.4°C 18.8°F-7.3°C 69% 5.0 mph E8.0 kmh E 9.0 mph14.5 kmh 30.54 in1034.2 mb 0.00 in0.0 mm 0.00 in0.0 mm 0.00 in0.0 mm
06:40 AM 27.6°F-2.4°C 18.8°F-7.3°C 69% 5.4 mph E8.7 kmh E 7.0 mph11.3 kmh 30.54 in1034.2 mb 0.00 in0.0 mm 0.00 in0.0 mm 0.00 in0.0 mm
06:41 AM 27.6°F-2.4°C 18.8°F-7.3°C 69% 5.6 mph E9.0 kmh E 8.0 mph12.9 kmh 30.54 in1034.2 mb 0.00 in0.0 mm 0.00 in0.0 mm 0.00 in0.0 mm
06:42 AM 27.6°F-2.4°C 18.8°F-7.3°C 69% 7.7 mph E12.4 kmh E 11.0 mph17.7 kmh 30.54 in1034.2 mb 0.00 in0.0 mm 0.00 in0.0 mm 0.00 in0.0 mm
06:43 AM 27.6°F-2.4°C 18.8°F-7.3°C 69% 4.2 mph E6.8 kmh E 11.0 mph17.7 kmh 30.54 in1034.2 mb 0.00 in0.0 mm 0.00 in0.0 mm 0.00 in0.0 mm
06:44 AM 27.6°F-2.4°C 18.8°F-7.3°C 69% 3.5 mph E5.6 kmh E 6.0 mph9.7 kmh 30.54 in1034.2 mb 0.00 in0.0 mm 0.00 in0.0 mm 0.00 in0.0 mm
06:45 AM 27.6°F-2.4°C 18.8°F-7.3°C 69% 3.1 mph E5.0 kmh E 6.0 mph9.7 kmh 30.54 in1034.2 mb 0.00 in0.0 mm 0.00 in0.0 mm 0.00 in0.0 mm
06:46 AM 27.6°F-2.4°C 18.8°F-7.3°C 69% 3.5 mph E5.6 kmh E 6.0 mph9.7 kmh 30.54 in1034.2 mb 0.00 in0.0 mm 0.00 in0.0 mm 0.00 in0.0 mm
06:47 AM 27.6°F-2.4°C 18.8°F-7.3°C 69% 4.1 mph E6.6 kmh E 6.0 mph9.7 kmh 30.54 in1034.2 mb 0.00 in0.0 mm 0.00 in0.0 mm 0.00 in0.0 mm
06:48 AM 27.6°F-2.4°C 18.8°F-7.3°C 69% 4.1 mph ENE6.6 kmh ENE 6.0 mph9.7 kmh 30.54 in1034.2 mb 0.00 in0.0 mm 0.00 in0.0 mm 0.00 in0.0 mm
06:49 AM 27.5°F-2.5°C 18.7°F-7.4°C 69% 3.0 mph ENE4.8 kmh ENE 5.0 mph8.0 kmh 30.54 in1034.2 mb 0.00 in0.0 mm 0.00 in0.0 mm 0.00 in0.0 mm
06:50 AM 27.6°F-2.4°C 18.8°F-7.3°C 69% 3.5 mph ENE5.6 kmh ENE 5.0 mph8.0 kmh 30.54 in1034.2 mb 0.00 in0.0 mm 0.00 in0.0 mm 0.00 in0.0 mm
06:51 AM 27.5°F-2.5°C 19.0°F-7.2°C 70% 3.8 mph ENE6.1 kmh ENE 5.0 mph8.0 kmh 30.54 in1034.2 mb 0.00 in0.0 mm 0.00 in0.0 mm 0.00 in0.0 mm
06:52 AM 27.6°F-2.4°C 19.1°F-7.2°C 70% 2.9 mph E4.7 kmh E 5.0 mph8.0 kmh 30.54 in1034.2 mb 0.00 in0.0 mm 0.00 in0.0 mm 0.00 in0.0 mm
06:53 AM 27.6°F-2.4°C 19.1°F-7.2°C 70% 4.5 mph NE7.2 kmh NE 6.0 mph9.7 kmh 30.53 in1033.9 mb 0.00 in0.0 mm 0.00 in0.0 mm 0.00 in0.0 mm
06:54 AM 27.6°F-2.4°C 19.1°F-7.2°C 70% 4.2 mph NE6.8 kmh NE 6.0 mph9.7 kmh 30.54 in1034.2 mb 0.00 in0.0 mm 0.00 in0.0 mm 0.00 in0.0 mm
06:55 AM 27.5°F-2.5°C 19.0°F-7.2°C 70% 6.9 mph ENE11.1 kmh ENE 9.0 mph14.5 kmh 30.54 in1034.2 mb 0.00 in0.0 mm 0.00 in0.0 mm 0.00 in0.0 mm
06:56 AM 27.5°F-2.5°C 19.0°F-7.2°C 70% 6.7 mph ENE10.8 kmh ENE 9.0 mph14.5 kmh 30.54 in1034.2 mb 0.00 in0.0 mm 0.00 in0.0 mm 0.00 in0.0 mm
06:57 AM 27.6°F-2.4°C 19.1°F-7.2°C 70% 5.8 mph ENE9.3 kmh ENE 9.0 mph14.5 kmh 30.54 in1034.2 mb 0.00 in0.0 mm 0.00 in0.0 mm 0.00 in0.0 mm
06:58 AM 27.5°F-2.5°C 19.0°F-7.2°C 70% 5.0 mph ENE8.0 kmh ENE 9.0 mph14.5 kmh 30.54 in1034.2 mb 0.00 in0.0 mm 0.00 in0.0 mm 0.00 in0.0 mm
06:59 AM 27.6°F-2.4°C 19.1°F-7.2°C 70% 5.0 mph E8.0 kmh E 7.0 mph11.3 kmh 30.54 in1034.2 mb 0.00 in0.0 mm 0.00 in0.0 mm 0.00 in0.0 mm
07:00 AM 27.5°F-2.5°C 19.0°F-7.2°C 70% 4.1 mph ENE6.6 kmh ENE 7.0 mph11.3 kmh 30.54 in1034.2 mb 0.00 in0.0 mm 0.00 in0.0 mm 0.00 in0.0 mm
07:01 AM 27.5°F-2.5°C 19.0°F-7.2°C 70% 2.4 mph NE3.9 kmh NE 5.0 mph8.0 kmh 30.53 in1033.9 mb 0.00 in0.0 mm 0.00 in0.0 mm 0.00 in0.0 mm
07:02 AM 27.5°F-2.5°C 19.4°F-7.0°C 71% 4.4 mph NE7.1 kmh NE 6.0 mph9.7 kmh 30.53 in1033.9 mb 0.00 in0.0 mm 0.00 in0.0 mm 0.00 in0.0 mm
07:03 AM 27.5°F-2.5°C 19.4°F-7.0°C 71% 4.9 mph NE7.9 kmh NE 6.0 mph9.7 kmh 30.53 in1033.9 mb 0.00 in0.0 mm 0.00 in0.0 mm 0.00 in0.0 mm
07:04 AM 27.5°F-2.5°C 19.4°F-7.0°C 71% 4.5 mph NE7.2 kmh NE 6.0 mph9.7 kmh 30.53 in1033.9 mb 0.00 in0.0 mm 0.00 in0.0 mm 0.00 in0.0 mm
07:05 AM 27.4°F-2.6°C 19.3°F-7.1°C 71% 5.4 mph ENE8.7 kmh ENE 7.0 mph11.3 kmh 30.53 in1033.9 mb 0.00 in0.0 mm 0.00 in0.0 mm 0.00 in0.0 mm
07:06 AM 27.4°F-2.6°C 18.9°F-7.3°C 70% 4.0 mph ENE6.4 kmh ENE 7.0 mph11.3 kmh 30.53 in1033.9 mb 0.00 in0.0 mm 0.00 in0.0 mm 0.00 in0.0 mm
07:07 AM 27.4°F-2.6°C 18.9°F-7.3°C 70% 4.4 mph ENE7.1 kmh ENE 7.0 mph11.3 kmh 30.53 in1033.9 mb 0.00 in0.0 mm 0.00 in0.0 mm 0.00 in0.0 mm
07:08 AM 27.4°F-2.6°C 19.3°F-7.1°C 71% 4.3 mph ENE6.9 kmh ENE 6.0 mph9.7 kmh 30.53 in1033.9 mb 0.00 in0.0 mm 0.00 in0.0 mm 0.00 in0.0 mm
07:09 AM 27.4°F-2.6°C 19.3°F-7.1°C 71% 4.7 mph ENE7.6 kmh ENE 8.0 mph12.9 kmh 30.53 in1033.9 mb 0.00 in0.0 mm 0.00 in0.0 mm 0.00 in0.0 mm
07:10 AM 27.4°F-2.6°C 19.3°F-7.1°C 71% 5.2 mph E8.4 kmh E 8.0 mph12.9 kmh 30.53 in1033.9 mb 0.00 in0.0 mm 0.00 in0.0 mm 0.00 in0.0 mm
07:11 AM 27.4°F-2.6°C 19.3°F-7.1°C 71% 5.0 mph ENE8.0 kmh ENE 7.0 mph11.3 kmh 30.53 in1033.9 mb 0.00 in0.0 mm 0.00 in0.0 mm 0.00 in0.0 mm
07:12 AM 27.4°F-2.6°C 19.3°F-7.1°C 71% 3.7 mph NE6.0 kmh NE 7.0 mph11.3 kmh 30.53 in1033.9 mb 0.00 in0.0 mm 0.00 in0.0 mm 0.00 in0.0 mm
07:13 AM 27.4°F-2.6°C 19.3°F-7.1°C 71% 3.4 mph NE5.5 kmh NE 5.0 mph8.0 kmh 30.53 in1033.9 mb 0.00 in0.0 mm 0.00 in0.0 mm 0.00 in0.0 mm
07:14 AM 27.4°F-2.6°C 19.3°F-7.1°C 71% 2.9 mph NE4.7 kmh NE 5.0 mph8.0 kmh 30.53 in1033.9 mb 0.00 in0.0 mm 0.00 in0.0 mm 0.00 in0.0 mm
07:15 AM 27.4°F-2.6°C 19.3°F-7.1°C 71% 3.8 mph NE6.1 kmh NE 7.0 mph11.3 kmh 30.53 in1033.9 mb 0.00 in0.0 mm 0.00 in0.0 mm 0.00 in0.0 mm
07:16 AM 27.4°F-2.6°C 19.3°F-7.1°C 71% 6.5 mph ENE10.5 kmh ENE 8.0 mph12.9 kmh 30.53 in1033.9 mb 0.00 in0.0 mm 0.00 in0.0 mm 0.00 in0.0 mm
07:17 AM 27.4°F-2.6°C 19.3°F-7.1°C 71% 5.6 mph ENE9.0 kmh ENE 8.0 mph12.9 kmh 30.53 in1033.9 mb 0.00 in0.0 mm 0.00 in0.0 mm 0.00 in0.0 mm
07:18 AM 27.4°F-2.6°C 19.3°F-7.1°C 71% 5.2 mph ENE8.4 kmh ENE 8.0 mph12.9 kmh 30.53 in1033.9 mb 0.00 in0.0 mm 0.00 in0.0 mm 0.00 in0.0 mm
07:19 AM 27.3°F-2.6°C 19.2°F-7.1°C 71% 5.7 mph ENE9.2 kmh ENE 8.0 mph12.9 kmh 30.53 in1033.9 mb 0.00 in0.0 mm 0.00 in0.0 mm 0.00 in0.0 mm
07:20 AM 27.4°F-2.6°C 19.3°F-7.1°C 71% 4.4 mph ENE7.1 kmh ENE 8.0 mph12.9 kmh 30.53 in1033.9 mb 0.00 in0.0 mm 0.00 in0.0 mm 0.00 in0.0 mm
07:21 AM 27.4°F-2.6°C 19.3°F-7.1°C 71% 3.3 mph NE5.3 kmh NE 6.0 mph9.7 kmh 30.53 in1033.9 mb 0.00 in0.0 mm 0.00 in0.0 mm 0.00 in0.0 mm
07:22 AM 27.4°F-2.6°C 19.3°F-7.1°C 71% 4.3 mph NE6.9 kmh NE 6.0 mph9.7 kmh 30.53 in1033.9 mb 0.00 in0.0 mm 0.00 in0.0 mm 0.00 in0.0 mm
07:23 AM 27.4°F-2.6°C 19.3°F-7.1°C 71% 4.3 mph ENE6.9 kmh ENE 6.0 mph9.7 kmh 30.53 in1033.9 mb 0.00 in0.0 mm 0.00 in0.0 mm 0.00 in0.0 mm
07:24 AM 27.4°F-2.6°C 19.3°F-7.1°C 71% 4.0 mph ENE6.4 kmh ENE 6.0 mph9.7 kmh 30.53 in1033.9 mb 0.00 in0.0 mm 0.00 in0.0 mm 0.00 in0.0 mm
07:25 AM 27.3°F-2.6°C 19.2°F-7.1°C 71% 4.6 mph ENE7.4 kmh ENE 5.0 mph8.0 kmh 30.53 in1033.9 mb 0.00 in0.0 mm 0.00 in0.0 mm 0.00 in0.0 mm
07:26 AM 27.4°F-2.6°C 19.3°F-7.1°C 71% 3.9 mph ENE6.3 kmh ENE 5.0 mph8.0 kmh 30.53 in1033.9 mb 0.00 in0.0 mm 0.00 in0.0 mm 0.00 in0.0 mm
07:27 AM 27.3°F-2.6°C 19.2°F-7.1°C 71% 4.5 mph ENE7.2 kmh ENE 8.0 mph12.9 kmh 30.53 in1033.9 mb 0.00 in0.0 mm 0.00 in0.0 mm 0.00 in0.0 mm
07:28 AM 27.4°F-2.6°C 19.3°F-7.1°C 71% 6.6 mph ENE10.6 kmh ENE 9.0 mph14.5 kmh 30.53 in1033.9 mb 0.00 in0.0 mm 0.00 in0.0 mm 0.00 in0.0 mm
07:29 AM 27.4°F-2.6°C 19.3°F-7.1°C 71% 5.7 mph ENE9.2 kmh ENE 9.0 mph14.5 kmh 30.53 in1033.9 mb 0.00 in0.0 mm 0.00 in0.0 mm 0.00 in0.0 mm
07:30 AM 27.3°F-2.6°C 19.2°F-7.1°C 71% 5.2 mph ENE8.4 kmh ENE 8.0 mph12.9 kmh 30.53 in1033.9 mb 0.00 in0.0 mm 0.00 in0.0 mm 0.00 in0.0 mm
07:31 AM 27.4°F-2.6°C 19.3°F-7.1°C 71% 5.0 mph E8.0 kmh E 8.0 mph12.9 kmh 30.53 in1033.9 mb 0.00 in0.0 mm 0.00 in0.0 mm 0.00 in0.0 mm
07:32 AM 27.4°F-2.6°C 19.3°F-7.1°C 71% 4.4 mph ENE7.1 kmh ENE 7.0 mph11.3 kmh 30.53 in1033.9 mb 0.00 in0.0 mm 0.00 in0.0 mm 0.00 in0.0 mm
07:33 AM 27.4°F-2.6°C 19.3°F-7.1°C 71% 3.4 mph NE5.5 kmh NE 5.0 mph8.0 kmh 30.53 in1033.9 mb 0.00 in0.0 mm 0.00 in0.0 mm 0.00 in0.0 mm
07:34 AM 27.4°F-2.6°C 19.3°F-7.1°C 71% 4.0 mph NE6.4 kmh NE 5.0 mph8.0 kmh 30.53 in1033.9 mb 0.00 in0.0 mm 0.00 in0.0 mm 0.00 in0.0 mm
07:35 AM 27.4°F-2.6°C 19.3°F-7.1°C 71% 2.9 mph ENE4.7 kmh ENE 5.0 mph8.0 kmh 30.53 in1033.9 mb 0.00 in0.0 mm 0.00 in0.0 mm 0.00 in0.0 mm
07:36 AM 27.3°F-2.6°C 19.2°F-7.1°C 71% 2.9 mph ENE4.7 kmh ENE 5.0 mph8.0 kmh 30.53 in1033.9 mb 0.00 in0.0 mm 0.00 in0.0 mm 0.00 in0.0 mm
07:37 AM 27.4°F-2.6°C 19.6°F-6.9°C 72% 5.1 mph NE8.2 kmh NE 6.0 mph9.7 kmh 30.53 in1033.9 mb 0.00 in0.0 mm 0.00 in0.0 mm 0.00 in0.0 mm
07:38 AM 27.3°F-2.6°C 19.5°F-6.9°C 72% 4.8 mph ENE7.7 kmh ENE 6.0 mph9.7 kmh 30.53 in1033.9 mb 0.00 in0.0 mm 0.00 in0.0 mm 0.00 in0.0 mm
07:39 AM 27.3°F-2.6°C 19.5°F-6.9°C 72% 4.9 mph NE7.9 kmh NE 6.0 mph9.7 kmh 30.53 in1033.9 mb 0.00 in0.0 mm 0.00 in0.0 mm 0.00 in0.0 mm
07:40 AM 27.3°F-2.6°C 19.5°F-6.9°C 72% 4.5 mph NE7.2 kmh NE 6.0 mph9.7 kmh 30.54 in1034.2 mb 0.00 in0.0 mm 0.00 in0.0 mm 0.00 in0.0 mm
07:41 AM 27.3°F-2.6°C 19.5°F-6.9°C 72% 4.4 mph NE7.1 kmh NE 6.0 mph9.7 kmh 30.53 in1033.9 mb 0.00 in0.0 mm 0.00 in0.0 mm 0.00 in0.0 mm
07:42 AM 27.3°F-2.6°C 19.5°F-6.9°C 72% 4.3 mph NE6.9 kmh NE 7.0 mph11.3 kmh 30.53 in1033.9 mb 0.00 in0.0 mm 0.00 in0.0 mm 0.00 in0.0 mm
07:43 AM 27.3°F-2.6°C 19.5°F-6.9°C 72% 4.6 mph NE7.4 kmh NE 7.0 mph11.3 kmh 30.53 in1033.9 mb 0.00 in0.0 mm 0.00 in0.0 mm 0.00 in0.0 mm
07:44 AM 27.2°F-2.7°C 19.4°F-7.0°C 72% 4.0 mph NE6.4 kmh NE 5.0 mph8.0 kmh 30.53 in1033.9 mb 0.00 in0.0 mm 0.00 in0.0 mm 0.00 in0.0 mm
07:45 AM 27.3°F-2.6°C 19.5°F-6.9°C 72% 3.7 mph NE6.0 kmh NE 5.0 mph8.0 kmh 30.53 in1033.9 mb 0.00 in0.0 mm 0.00 in0.0 mm 0.00 in0.0 mm
07:46 AM 27.2°F-2.7°C 19.4°F-7.0°C 72% 4.5 mph ENE7.2 kmh ENE 5.0 mph8.0 kmh 30.53 in1033.9 mb 0.00 in0.0 mm 0.00 in0.0 mm 0.00 in0.0 mm
07:47 AM 27.3°F-2.6°C 19.5°F-6.9°C 72% 5.7 mph ENE9.2 kmh ENE 8.0 mph12.9 kmh 30.53 in1033.9 mb 0.00 in0.0 mm 0.00 in0.0 mm 0.00 in0.0 mm
07:48 AM 27.3°F-2.6°C 19.5°F-6.9°C 72% 5.4 mph NE8.7 kmh NE 8.0 mph12.9 kmh 30.53 in1033.9 mb 0.00 in0.0 mm 0.00 in0.0 mm 0.00 in0.0 mm
07:49 AM 27.2°F-2.7°C 19.7°F-6.8°C 73% 5.2 mph NE8.4 kmh NE 6.0 mph9.7 kmh 30.53 in1033.9 mb 0.00 in0.0 mm 0.00 in0.0 mm 0.00 in0.0 mm
07:50 AM 27.2°F-2.7°C 19.7°F-6.8°C 73% 4.7 mph NE7.6 kmh NE 6.0 mph9.7 kmh 30.53 in1033.9 mb 0.00 in0.0 mm 0.00 in0.0 mm 0.00 in0.0 mm
07:51 AM 27.2°F-2.7°C 19.7°F-6.8°C 73% 5.0 mph NE8.0 kmh NE 6.0 mph9.7 kmh 30.53 in1033.9 mb 0.00 in0.0 mm 0.00 in0.0 mm 0.00 in0.0 mm
07:52 AM 27.2°F-2.7°C 19.7°F-6.8°C 73% 4.9 mph NE7.9 kmh NE 6.0 mph9.7 kmh 30.53 in1033.9 mb 0.00 in0.0 mm 0.00 in0.0 mm 0.00 in0.0 mm
07:53 AM 27.2°F-2.7°C 19.7°F-6.8°C 73% 4.9 mph NE7.9 kmh NE 7.0 mph11.3 kmh 30.53 in1033.9 mb 0.00 in0.0 mm 0.00 in0.0 mm 0.00 in0.0 mm
07:54 AM 27.2°F-2.7°C 19.7°F-6.8°C 73% 5.3 mph NE8.5 kmh NE 7.0 mph11.3 kmh 30.53 in1033.9 mb 0.00 in0.0 mm 0.00 in0.0 mm 0.00 in0.0 mm
07:55 AM 27.2°F-2.7°C 19.7°F-6.8°C 73% 4.5 mph NE7.2 kmh NE 7.0 mph11.3 kmh 30.53 in1033.9 mb 0.00 in0.0 mm 0.00 in0.0 mm 0.00 in0.0 mm
07:56 AM 27.2°F-2.7°C 19.7°F-6.8°C 73% 3.9 mph NE6.3 kmh NE 6.0 mph9.7 kmh 30.53 in1033.9 mb 0.00 in0.0 mm 0.00 in0.0 mm 0.00 in0.0 mm
07:57 AM 27.2°F-2.7°C 19.7°F-6.8°C 73% 4.6 mph NE7.4 kmh NE 7.0 mph11.3 kmh 30.54 in1034.2 mb 0.00 in0.0 mm 0.00 in0.0 mm 0.00 in0.0 mm
07:58 AM 27.1°F-2.7°C 19.6°F-6.9°C 73% 5.0 mph NE8.0 kmh NE 7.0 mph11.3 kmh 30.53 in1033.9 mb 0.00 in0.0 mm 0.00 in0.0 mm 0.00 in0.0 mm
07:59 AM 27.2°F-2.7°C 19.7°F-6.8°C 73% 5.1 mph NE8.2 kmh NE 7.0 mph11.3 kmh 30.53 in1033.9 mb 0.00 in0.0 mm 0.00 in0.0 mm 0.00 in0.0 mm
08:00 AM 27.1°F-2.7°C 19.9°F-6.7°C 74% 4.5 mph NE7.2 kmh NE 7.0 mph11.3 kmh 30.53 in1033.9 mb 0.00 in0.0 mm 0.00 in0.0 mm 0.00 in0.0 mm
08:01 AM 27.1°F-2.7°C 19.9°F-6.7°C 74% 5.2 mph NE8.4 kmh NE 8.0 mph12.9 kmh 30.53 in1033.9 mb 0.00 in0.0 mm 0.00 in0.0 mm 0.00 in0.0 mm
08:02 AM 27.1°F-2.7°C 19.9°F-6.7°C 74% 4.7 mph NE7.6 kmh NE 8.0 mph12.9 kmh 30.54 in1034.2 mb 0.00 in0.0 mm 0.00 in0.0 mm 0.00 in0.0 mm
08:03 AM 27.2°F-2.7°C 20.0°F-6.7°C 74% 4.7 mph NE7.6 kmh NE 7.0 mph11.3 kmh 30.54 in1034.2 mb 0.00 in0.0 mm 0.00 in0.0 mm 0.00 in0.0 mm
08:04 AM 27.2°F-2.7°C 20.0°F-6.7°C 74% 6.0 mph NE9.7 kmh NE 9.0 mph14.5 kmh 30.54 in1034.2 mb 0.00 in0.0 mm 0.00 in0.0 mm 0.00 in0.0 mm
08:05 AM 27.1°F-2.7°C 19.9°F-6.7°C 74% 6.0 mph NE9.7 kmh NE 9.0 mph14.5 kmh 30.54 in1034.2 mb 0.00 in0.0 mm 0.00 in0.0 mm 0.00 in0.0 mm
08:06 AM 27.1°F-2.7°C 19.9°F-6.7°C 74% 4.7 mph NE7.6 kmh NE 9.0 mph14.5 kmh 30.54 in1034.2 mb 0.00 in0.0 mm 0.00 in0.0 mm 0.00 in0.0 mm
08:07 AM 27.1°F-2.7°C 19.9°F-6.7°C 74% 4.2 mph NE6.8 kmh NE 8.0 mph12.9 kmh 30.54 in1034.2 mb 0.00 in0.0 mm 0.00 in0.0 mm 0.00 in0.0 mm
08:08 AM 27.1°F-2.7°C 19.9°F-6.7°C 74% 4.8 mph NE7.7 kmh NE 7.0 mph11.3 kmh 30.54 in1034.2 mb 0.00 in0.0 mm 0.00 in0.0 mm 0.00 in0.0 mm
08:09 AM 27.1°F-2.7°C 19.9°F-6.7°C 74% 3.9 mph NE6.3 kmh NE 7.0 mph11.3 kmh 30.54 in1034.2 mb 0.00 in0.0 mm 0.00 in0.0 mm 0.00 in0.0 mm
08:10 AM 27.1°F-2.7°C 19.9°F-6.7°C 74% 2.5 mph NE4.0 kmh NE 5.0 mph8.0 kmh 30.54 in1034.2 mb 0.00 in0.0 mm 0.00 in0.0 mm 0.00 in0.0 mm
08:11 AM 27.1°F-2.7°C 19.9°F-6.7°C 74% 2.7 mph NE4.3 kmh NE 4.0 mph6.4 kmh 30.54 in1034.2 mb 0.00 in0.0 mm 0.00 in0.0 mm 0.00 in0.0 mm
08:12 AM 27.1°F-2.7°C 19.9°F-6.7°C 74% 2.9 mph NE4.7 kmh NE 5.0 mph8.0 kmh 30.54 in1034.2 mb 0.00 in0.0 mm 0.00 in0.0 mm 0.00 in0.0 mm
08:13 AM 27.1°F-2.7°C 19.9°F-6.7°C 74% 4.3 mph NE6.9 kmh NE 6.0 mph9.7 kmh 30.54 in1034.2 mb 0.00 in0.0 mm 0.00 in0.0 mm 0.00 in0.0 mm
08:14 AM 27.1°F-2.7°C 19.9°F-6.7°C 74% 3.5 mph NE5.6 kmh NE 7.0 mph11.3 kmh 30.54 in1034.2 mb 0.00 in0.0 mm 0.00 in0.0 mm 0.00 in0.0 mm
08:15 AM 27.1°F-2.7°C 19.9°F-6.7°C 74% 4.9 mph NE7.9 kmh NE 7.0 mph11.3 kmh 30.54 in1034.2 mb 0.00 in0.0 mm 0.00 in0.0 mm 0.00 in0.0 mm
08:16 AM 27.1°F-2.7°C 19.9°F-6.7°C 74% 5.8 mph NE9.3 kmh NE 7.0 mph11.3 kmh 30.54 in1034.2 mb 0.00 in0.0 mm 0.00 in0.0 mm 0.00 in0.0 mm
08:17 AM 27.0°F-2.8°C 19.8°F-6.8°C 74% 5.2 mph ENE8.4 kmh ENE 8.0 mph12.9 kmh 30.54 in1034.2 mb 0.00 in0.0 mm 0.00 in0.0 mm 0.00 in0.0 mm
08:18 AM 27.1°F-2.7°C 19.9°F-6.7°C 74% 4.0 mph ENE6.4 kmh ENE 8.0 mph12.9 kmh 30.54 in1034.2 mb 0.00 in0.0 mm 0.00 in0.0 mm 0.00 in0.0 mm
08:19 AM 27.0°F-2.8°C 19.8°F-6.8°C 74% 4.1 mph NE6.6 kmh NE 6.0 mph9.7 kmh 30.54 in1034.2 mb 0.00 in0.0 mm 0.00 in0.0 mm 0.00 in0.0 mm
08:20 AM 27.0°F-2.8°C 19.8°F-6.8°C 74% 3.9 mph NE6.3 kmh NE 6.0 mph9.7 kmh 30.54 in1034.2 mb 0.00 in0.0 mm 0.00 in0.0 mm 0.00 in0.0 mm
08:21 AM 27.0°F-2.8°C 19.8°F-6.8°C 74% 4.0 mph NE6.4 kmh NE 6.0 mph9.7 kmh 30.54 in1034.2 mb 0.00 in0.0 mm 0.00 in0.0 mm 0.00 in0.0 mm
08:22 AM 27.0°F-2.8°C 19.8°F-6.8°C 74% 3.9 mph NE6.3 kmh NE 6.0 mph9.7 kmh 30.54 in1034.2 mb 0.00 in0.0 mm 0.00 in0.0 mm 0.00 in0.0 mm
08:23 AM 27.0°F-2.8°C 19.8°F-6.8°C 74% 3.5 mph NE5.6 kmh NE 6.0 mph9.7 kmh 30.54 in1034.2 mb 0.00 in0.0 mm 0.00 in0.0 mm 0.00 in0.0 mm
08:24 AM 27.0°F-2.8°C 19.8°F-6.8°C 74% 5.1 mph NE8.2 kmh NE 8.0 mph12.9 kmh 30.54 in1034.2 mb 0.00 in0.0 mm 0.00 in0.0 mm 0.00 in0.0 mm
08:25 AM 27.0°F-2.8°C 19.8°F-6.8°C 74% 5.0 mph NE8.0 kmh NE 8.0 mph12.9 kmh 30.54 in1034.2 mb 0.00 in0.0 mm 0.00 in0.0 mm 0.00 in0.0 mm
08:26 AM 27.0°F-2.8°C 19.8°F-6.8°C 74% 4.8 mph NE7.7 kmh NE 7.0 mph11.3 kmh 30.54 in1034.2 mb 0.00 in0.0 mm 0.00 in0.0 mm 0.00 in0.0 mm
08:27 AM 27.0°F-2.8°C 19.8°F-6.8°C 74% 5.5 mph NE8.9 kmh NE 9.0 mph14.5 kmh 30.54 in1034.2 mb 0.00 in0.0 mm 0.00 in0.0 mm 0.00 in0.0 mm
08:28 AM 27.0°F-2.8°C 19.8°F-6.8°C 74% 4.9 mph NE7.9 kmh NE 9.0 mph14.5 kmh 30.54 in1034.2 mb 0.00 in0.0 mm 0.00 in0.0 mm 0.00 in0.0 mm
08:29 AM 27.0°F-2.8°C 19.8°F-6.8°C 74% 6.3 mph NE10.1 kmh NE 9.0 mph14.5 kmh 30.54 in1034.2 mb 0.00 in0.0 mm 0.00 in0.0 mm 0.00 in0.0 mm
08:30 AM 27.0°F-2.8°C 19.8°F-6.8°C 74% 6.1 mph NE9.8 kmh NE 10.0 mph16.1 kmh 30.54 in1034.2 mb 0.00 in0.0 mm 0.00 in0.0 mm 0.00 in0.0 mm
08:31 AM 27.0°F-2.8°C 19.8°F-6.8°C 74% 7.2 mph NE11.6 kmh NE 10.0 mph16.1 kmh 30.54 in1034.2 mb 0.00 in0.0 mm 0.00 in0.0 mm 0.00 in0.0 mm
08:32 AM 27.0°F-2.8°C 19.8°F-6.8°C 74% 7.3 mph NE11.7 kmh NE 11.0 mph17.7 kmh 30.54 in1034.2 mb 0.00 in0.0 mm 0.00 in0.0 mm 0.00 in0.0 mm
08:33 AM 27.0°F-2.8°C 19.5°F-6.9°C 73% 8.6 mph NE13.8 kmh NE 11.0 mph17.7 kmh 30.54 in1034.2 mb 0.00 in0.0 mm 0.00 in0.0 mm 0.00 in0.0 mm
08:34 AM 26.9°F-2.8°C 19.4°F-7.0°C 73% 8.0 mph NE12.9 kmh NE 11.0 mph17.7 kmh 30.54 in1034.2 mb 0.00 in0.0 mm 0.00 in0.0 mm 0.00 in0.0 mm
08:35 AM 26.9°F-2.8°C 19.4°F-7.0°C 73% 6.4 mph NE10.3 kmh NE 10.0 mph16.1 kmh 30.54 in1034.2 mb 0.00 in0.0 mm 0.00 in0.0 mm 0.00 in0.0 mm
08:36 AM 26.9°F-2.8°C 19.4°F-7.0°C 73% 5.0 mph NE8.0 kmh NE 9.0 mph14.5 kmh 30.54 in1034.2 mb 0.00 in0.0 mm 0.00 in0.0 mm 0.00 in0.0 mm
08:37 AM 26.9°F-2.8°C 19.4°F-7.0°C 73% 4.3 mph NE6.9 kmh NE 7.0 mph11.3 kmh 30.54 in1034.2 mb 0.00 in0.0 mm 0.00 in0.0 mm 0.00 in0.0 mm
08:38 AM 26.9°F-2.8°C 19.4°F-7.0°C 73% 6.1 mph NE9.8 kmh NE 7.0 mph11.3 kmh 30.54 in1034.2 mb 0.00 in0.0 mm 0.00 in0.0 mm 0.00 in0.0 mm
08:39 AM 26.9°F-2.8°C 19.4°F-7.0°C 73% 4.8 mph NE7.7 kmh NE 7.0 mph11.3 kmh 30.54 in1034.2 mb 0.00 in0.0 mm 0.00 in0.0 mm 0.00 in0.0 mm
08:40 AM 26.9°F-2.8°C 19.4°F-7.0°C 73% 4.2 mph NE6.8 kmh NE 6.0 mph9.7 kmh 30.54 in1034.2 mb 0.00 in0.0 mm 0.00 in0.0 mm 0.00 in0.0 mm
08:41 AM 26.9°F-2.8°C 19.4°F-7.0°C 73% 4.3 mph NE6.9 kmh NE 6.0 mph9.7 kmh 30.54 in1034.2 mb 0.00 in0.0 mm 0.00 in0.0 mm 0.00 in0.0 mm
08:42 AM 26.9°F-2.8°C 19.4°F-7.0°C 73% 5.3 mph NE8.5 kmh NE 7.0 mph11.3 kmh 30.54 in1034.2 mb 0.00 in0.0 mm 0.00 in0.0 mm 0.00 in0.0 mm
08:43 AM 26.9°F-2.8°C 19.7°F-6.8°C 74% 4.3 mph NE6.9 kmh NE 7.0 mph11.3 kmh 30.54 in1034.2 mb 0.00 in0.0 mm 0.00 in0.0 mm 0.00 in0.0 mm
08:44 AM 26.9°F-2.8°C 19.7°F-6.8°C 74% 5.5 mph NE8.9 kmh NE 8.0 mph12.9 kmh 30.54 in1034.2 mb 0.00 in0.0 mm 0.00 in0.0 mm 0.00 in0.0 mm
08:45 AM 26.9°F-2.8°C 19.4°F-7.0°C 73% 5.6 mph NE9.0 kmh NE 8.0 mph12.9 kmh 30.54 in1034.2 mb 0.00 in0.0 mm 0.00 in0.0 mm 0.00 in0.0 mm
08:46 AM 26.9°F-2.8°C 19.4°F-7.0°C 73% 4.8 mph NE7.7 kmh NE 7.0 mph11.3 kmh 30.54 in1034.2 mb 0.00 in0.0 mm 0.00 in0.0 mm 0.00 in0.0 mm
08:47 AM 26.9°F-2.8°C 19.4°F-7.0°C 73% 4.5 mph NE7.2 kmh NE 6.0 mph9.7 kmh 30.54 in1034.2 mb 0.00 in0.0 mm 0.00 in0.0 mm 0.00 in0.0 mm
08:48 AM 26.8°F-2.9°C 19.3°F-7.1°C 73% 4.5 mph ENE7.2 kmh ENE 6.0 mph9.7 kmh 30.54 in1034.2 mb 0.00 in0.0 mm 0.00 in0.0 mm 0.00 in0.0 mm
08:49 AM 26.8°F-2.9°C 19.3°F-7.1°C 73% 5.3 mph NE8.5 kmh NE 7.0 mph11.3 kmh 30.54 in1034.2 mb 0.00 in0.0 mm 0.00 in0.0 mm 0.00 in0.0 mm
08:50 AM 26.9°F-2.8°C 19.4°F-7.0°C 73% 4.3 mph ENE6.9 kmh ENE 7.0 mph11.3 kmh 30.54 in1034.2 mb 0.00 in0.0 mm 0.00 in0.0 mm 0.00 in0.0 mm
08:51 AM 26.8°F-2.9°C 19.3°F-7.1°C 73% 4.7 mph ENE7.6 kmh ENE 6.0 mph9.7 kmh 30.54 in1034.2 mb 0.00 in0.0 mm 0.00 in0.0 mm 0.00 in0.0 mm
08:52 AM 26.8°F-2.9°C 19.3°F-7.1°C 73% 5.0 mph NE8.0 kmh NE 7.0 mph11.3 kmh 30.54 in1034.2 mb 0.00 in0.0 mm 0.00 in0.0 mm 0.00 in0.0 mm
08:53 AM 26.8°F-2.9°C 19.3°F-7.1°C 73% 5.9 mph NE9.5 kmh NE 7.0 mph11.3 kmh 30.54 in1034.2 mb 0.00 in0.0 mm 0.00 in0.0 mm 0.00 in0.0 mm
08:54 AM 26.8°F-2.9°C 19.3°F-7.1°C 73% 5.3 mph NE8.5 kmh NE 8.0 mph12.9 kmh 30.54 in1034.2 mb 0.00 in0.0 mm 0.00 in0.0 mm 0.00 in0.0 mm
08:55 AM 26.8°F-2.9°C 19.3°F-7.1°C 73% 5.6 mph NE9.0 kmh NE 8.0 mph12.9 kmh 30.54 in1034.2 mb 0.00 in0.0 mm 0.00 in0.0 mm 0.00 in0.0 mm
08:56 AM 26.8°F-2.9°C 19.3°F-7.1°C 73% 3.8 mph NE6.1 kmh NE 7.0 mph11.3 kmh 30.54 in1034.2 mb 0.00 in0.0 mm 0.00 in0.0 mm 0.00 in0.0 mm
08:57 AM 26.8°F-2.9°C 19.3°F-7.1°C 73% 5.5 mph NE8.9 kmh NE 8.0 mph12.9 kmh 30.54 in1034.2 mb 0.00 in0.0 mm 0.00 in0.0 mm 0.00 in0.0 mm
08:58 AM 26.9°F-2.8°C 19.4°F-7.0°C 73% 4.7 mph NE7.6 kmh NE 8.0 mph12.9 kmh 30.54 in1034.2 mb 0.00 in0.0 mm 0.00 in0.0 mm 0.00 in0.0 mm
08:59 AM 26.8°F-2.9°C 19.3°F-7.1°C 73% 5.3 mph NE8.5 kmh NE 7.0 mph11.3 kmh 30.54 in1034.2 mb 0.00 in0.0 mm 0.00 in0.0 mm 0.00 in0.0 mm
09:00 AM 26.8°F-2.9°C 19.3°F-7.1°C 73% 5.4 mph NE8.7 kmh NE 8.0 mph12.9 kmh 30.54 in1034.2 mb 0.00 in0.0 mm 0.00 in0.0 mm 0.00 in0.0 mm
09:01 AM 26.8°F-2.9°C 19.3°F-7.1°C 73% 4.3 mph NE6.9 kmh NE 8.0 mph12.9 kmh 30.53 in1033.9 mb 0.00 in0.0 mm 0.00 in0.0 mm 0.00 in0.0 mm
09:02 AM 26.8°F-2.9°C 19.3°F-7.1°C 73% 3.8 mph NE6.1 kmh NE 6.0 mph9.7 kmh 30.53 in1033.9 mb 0.00 in0.0 mm 0.00 in0.0 mm 0.00 in0.0 mm
09:03 AM 26.8°F-2.9°C 19.3°F-7.1°C 73% 4.5 mph NE7.2 kmh NE 6.0 mph9.7 kmh 30.53 in1033.9 mb 0.00 in0.0 mm 0.00 in0.0 mm 0.00 in0.0 mm
09:04 AM 26.9°F-2.8°C 19.4°F-7.0°C 73% 4.3 mph NE6.9 kmh NE 6.0 mph9.7 kmh 30.54 in1034.2 mb 0.00 in0.0 mm 0.00 in0.0 mm 0.00 in0.0 mm
09:05 AM 26.8°F-2.9°C 19.3°F-7.1°C 73% 4.4 mph NE7.1 kmh NE 6.0 mph9.7 kmh 30.54 in1034.2 mb 0.00 in0.0 mm 0.00 in0.0 mm 0.00 in0.0 mm
09:06 AM 26.8°F-2.9°C 19.3°F-7.1°C 73% 4.7 mph NE7.6 kmh NE 6.0 mph9.7 kmh 30.54 in1034.2 mb 0.00 in0.0 mm 0.00 in0.0 mm 0.00 in0.0 mm
09:07 AM 26.9°F-2.8°C 19.4°F-7.0°C 73% 4.6 mph NE7.4 kmh NE 8.0 mph12.9 kmh 30.54 in1034.2 mb 0.00 in0.0 mm 0.00 in0.0 mm 0.00 in0.0 mm
09:08 AM 26.9°F-2.8°C 19.4°F-7.0°C 73% 6.0 mph ENE9.7 kmh ENE 8.0 mph12.9 kmh 30.54 in1034.2 mb 0.00 in0.0 mm 0.00 in0.0 mm 0.00 in0.0 mm
09:09 AM 26.9°F-2.8°C 19.4°F-7.0°C 73% 5.2 mph NE8.4 kmh NE 8.0 mph12.9 kmh 30.54 in1034.2 mb 0.00 in0.0 mm 0.00 in0.0 mm 0.00 in0.0 mm
09:10 AM 26.8°F-2.9°C 19.3°F-7.1°C 73% 4.6 mph NE7.4 kmh NE 6.0 mph9.7 kmh 30.54 in1034.2 mb 0.00 in0.0 mm 0.00 in0.0 mm 0.00 in0.0 mm
09:11 AM 26.8°F-2.9°C 19.3°F-7.1°C 73% 4.4 mph NE7.1 kmh NE 6.0 mph9.7 kmh 30.54 in1034.2 mb 0.00 in0.0 mm 0.00 in0.0 mm 0.00 in0.0 mm
09:12 AM 26.9°F-2.8°C 19.4°F-7.0°C 73% 5.4 mph NE8.7 kmh NE 9.0 mph14.5 kmh 30.54 in1034.2 mb 0.00 in0.0 mm 0.00 in0.0 mm 0.00 in0.0 mm
09:13 AM 26.9°F-2.8°C 19.4°F-7.0°C 73% 5.3 mph ENE8.5 kmh ENE 9.0 mph14.5 kmh 30.54 in1034.2 mb 0.00 in0.0 mm 0.00 in0.0 mm 0.00 in0.0 mm
09:14 AM 26.9°F-2.8°C 19.4°F-7.0°C 73% 3.8 mph NE6.1 kmh NE 8.0 mph12.9 kmh 30.54 in1034.2 mb 0.00 in0.0 mm 0.00 in0.0 mm 0.00 in0.0 mm
09:15 AM 26.8°F-2.9°C 19.3°F-7.1°C 73% 5.1 mph NE8.2 kmh NE 6.0 mph9.7 kmh 30.54 in1034.2 mb 0.00 in0.0 mm 0.00 in0.0 mm 0.00 in0.0 mm
09:16 AM 26.9°F-2.8°C 19.4°F-7.0°C 73% 5.8 mph NE9.3 kmh NE 9.0 mph14.5 kmh 30.53 in1033.9 mb 0.00 in0.0 mm 0.00 in0.0 mm 0.00 in0.0 mm
09:17 AM 26.9°F-2.8°C 19.4°F-7.0°C 73% 6.2 mph NE10.0 kmh NE 9.0 mph14.5 kmh 30.53 in1033.9 mb 0.00 in0.0 mm 0.00 in0.0 mm 0.00 in0.0 mm
09:18 AM 26.9°F-2.8°C 19.4°F-7.0°C 73% 5.9 mph NE9.5 kmh NE 9.0 mph14.5 kmh 30.53 in1033.9 mb 0.00 in0.0 mm 0.00 in0.0 mm 0.00 in0.0 mm
09:19 AM 26.9°F-2.8°C 19.4°F-7.0°C 73% 5.1 mph NE8.2 kmh NE 7.0 mph11.3 kmh 30.53 in1033.9 mb 0.00 in0.0 mm 0.00 in0.0 mm 0.00 in0.0 mm
09:20 AM 26.9°F-2.8°C 19.4°F-7.0°C 73% 4.9 mph NE7.9 kmh NE 7.0 mph11.3 kmh 30.53 in1033.9 mb 0.00 in0.0 mm 0.00 in0.0 mm 0.00 in0.0 mm
09:21 AM 26.9°F-2.8°C 19.4°F-7.0°C 73% 5.7 mph ENE9.2 kmh ENE 8.0 mph12.9 kmh 30.53 in1033.9 mb 0.00 in0.0 mm 0.00 in0.0 mm 0.00 in0.0 mm
09:22 AM 26.9°F-2.8°C 19.4°F-7.0°C 73% 5.2 mph ENE8.4 kmh ENE 8.0 mph12.9 kmh 30.53 in1033.9 mb 0.00 in0.0 mm 0.00 in0.0 mm 0.00 in0.0 mm
09:23 AM 26.9°F-2.8°C 19.4°F-7.0°C 73% 5.0 mph ENE8.0 kmh ENE 8.0 mph12.9 kmh 30.53 in1033.9 mb 0.00 in0.0 mm 0.00 in0.0 mm 0.00 in0.0 mm
09:24 AM 26.9°F-2.8°C 19.4°F-7.0°C 73% 6.6 mph NE10.6 kmh NE 9.0 mph14.5 kmh 30.53 in1033.9 mb 0.00 in0.0 mm 0.00 in0.0 mm 0.00 in0.0 mm
09:25 AM 26.9°F-2.8°C 19.4°F-7.0°C 73% 6.8 mph NE10.9 kmh NE 9.0 mph14.5 kmh 30.53 in1033.9 mb 0.00 in0.0 mm 0.00 in0.0 mm 0.00 in0.0 mm
09:26 AM 26.9°F-2.8°C 19.4°F-7.0°C 73% 5.0 mph NE8.0 kmh NE 9.0 mph14.5 kmh 30.53 in1033.9 mb 0.00 in0.0 mm 0.00 in0.0 mm 0.00 in0.0 mm
09:27 AM 26.9°F-2.8°C 19.4°F-7.0°C 73% 5.1 mph ENE8.2 kmh ENE 7.0 mph11.3 kmh 30.53 in1033.9 mb 0.00 in0.0 mm 0.00 in0.0 mm 0.00 in0.0 mm
09:28 AM 26.9°F-2.8°C 19.4°F-7.0°C 73% 4.5 mph NE7.2 kmh NE 7.0 mph11.3 kmh 30.53 in1033.9 mb 0.00 in0.0 mm 0.00 in0.0 mm 0.00 in0.0 mm
09:29 AM 26.9°F-2.8°C 19.4°F-7.0°C 73% 4.9 mph ENE7.9 kmh ENE 8.0 mph12.9 kmh 30.53 in1033.9 mb 0.00 in0.0 mm 0.00 in0.0 mm 0.00 in0.0 mm
09:30 AM 26.9°F-2.8°C 19.4°F-7.0°C 73% 4.2 mph NE6.8 kmh NE 8.0 mph12.9 kmh 30.53 in1033.9 mb 0.00 in0.0 mm 0.00 in0.0 mm 0.00 in0.0 mm
09:31 AM 26.9°F-2.8°C 19.4°F-7.0°C 73% 3.8 mph NE6.1 kmh NE 7.0 mph11.3 kmh 30.53 in1033.9 mb 0.00 in0.0 mm 0.00 in0.0 mm 0.00 in0.0 mm
09:32 AM 26.9°F-2.8°C 19.4°F-7.0°C 73% 4.4 mph NE7.1 kmh NE 6.0 mph9.7 kmh 30.53 in1033.9 mb 0.00 in0.0 mm 0.00 in0.0 mm 0.00 in0.0 mm
09:33 AM 26.9°F-2.8°C 19.4°F-7.0°C 73% 4.5 mph NE7.2 kmh NE 6.0 mph9.7 kmh 30.53 in1033.9 mb 0.00 in0.0 mm 0.00 in0.0 mm 0.00 in0.0 mm
09:34 AM 26.9°F-2.8°C 19.4°F-7.0°C 73% 4.1 mph NE6.6 kmh NE 6.0 mph9.7 kmh 30.53 in1033.9 mb 0.00 in0.0 mm 0.00 in0.0 mm 0.00 in0.0 mm
09:35 AM 26.9°F-2.8°C 19.4°F-7.0°C 73% 5.4 mph ENE8.7 kmh ENE 7.0 mph11.3 kmh 30.53 in1033.9 mb 0.00 in0.0 mm 0.00 in0.0 mm 0.00 in0.0 mm
09:36 AM 27.0°F-2.8°C 19.5°F-6.9°C 73% 5.8 mph NE9.3 kmh NE 7.0 mph11.3 kmh 30.53 in1033.9 mb 0.00 in0.0 mm 0.00 in0.0 mm 0.00 in0.0 mm
09:37 AM 27.0°F-2.8°C 19.5°F-6.9°C 73% 5.5 mph NE8.9 kmh NE 7.0 mph11.3 kmh 30.53 in1033.9 mb 0.00 in0.0 mm 0.00 in0.0 mm 0.00 in0.0 mm
09:38 AM 27.0°F-2.8°C 19.5°F-6.9°C 73% 4.6 mph NE7.4 kmh NE 7.0 mph11.3 kmh 30.53 in1033.9 mb 0.00 in0.0 mm 0.00 in0.0 mm 0.00 in0.0 mm
09:39 AM 26.9°F-2.8°C 19.4°F-7.0°C 73% 4.0 mph NE6.4 kmh NE 6.0 mph9.7 kmh 30.53 in1033.9 mb 0.00 in0.0 mm 0.00 in0.0 mm 0.00 in0.0 mm
09:40 AM 27.0°F-2.8°C 19.5°F-6.9°C 73% 6.3 mph NE10.1 kmh NE 9.0 mph14.5 kmh 30.53 in1033.9 mb 0.00 in0.0 mm 0.00 in0.0 mm 0.00 in0.0 mm
09:41 AM 27.0°F-2.8°C 19.5°F-6.9°C 73% 4.0 mph ENE6.4 kmh ENE 9.0 mph14.5 kmh 30.53 in1033.9 mb 0.00 in0.0 mm 0.00 in0.0 mm 0.00 in0.0 mm
09:42 AM 27.0°F-2.8°C 19.5°F-6.9°C 73% 4.2 mph ENE6.8 kmh ENE 6.0 mph9.7 kmh 30.53 in1033.9 mb 0.00 in0.0 mm 0.00 in0.0 mm 0.00 in0.0 mm
09:43 AM 27.0°F-2.8°C 19.5°F-6.9°C 73% 5.4 mph NE8.7 kmh NE 6.0 mph9.7 kmh 30.53 in1033.9 mb 0.00 in0.0 mm 0.00 in0.0 mm 0.00 in0.0 mm
09:44 AM 27.0°F-2.8°C 19.5°F-6.9°C 73% 4.3 mph NE6.9 kmh NE 6.0 mph9.7 kmh 30.53 in1033.9 mb 0.00 in0.0 mm 0.00 in0.0 mm 0.00 in0.0 mm
09:45 AM 27.0°F-2.8°C 19.5°F-6.9°C 73% 4.3 mph NE6.9 kmh NE 6.0 mph9.7 kmh 30.53 in1033.9 mb 0.00 in0.0 mm 0.00 in0.0 mm 0.00 in0.0 mm
09:46 AM 27.0°F-2.8°C 19.2°F-7.1°C 72% 3.5 mph NE5.6 kmh NE 5.0 mph8.0 kmh 30.53 in1033.9 mb 0.00 in0.0 mm 0.00 in0.0 mm 0.00 in0.0 mm
09:47 AM 27.0°F-2.8°C 19.5°F-6.9°C 73% 2.6 mph NE4.2 kmh NE 5.0 mph8.0 kmh 30.53 in1033.9 mb 0.00 in0.0 mm 0.00 in0.0 mm 0.00 in0.0 mm
09:48 AM 27.0°F-2.8°C 19.5°F-6.9°C 73% 3.4 mph ENE5.5 kmh ENE 4.0 mph6.4 kmh 30.53 in1033.9 mb 0.00 in0.0 mm 0.00 in0.0 mm 0.00 in0.0 mm
09:49 AM 27.0°F-2.8°C 19.5°F-6.9°C 73% 3.5 mph E5.6 kmh E 4.0 mph6.4 kmh 30.53 in1033.9 mb 0.00 in0.0 mm 0.00 in0.0 mm 0.00 in0.0 mm
09:50 AM 27.1°F-2.7°C 19.6°F-6.9°C 73% 2.4 mph E3.9 kmh E 4.0 mph6.4 kmh 30.53 in1033.9 mb 0.00 in0.0 mm 0.00 in0.0 mm 0.00 in0.0 mm
09:51 AM 27.0°F-2.8°C 19.5°F-6.9°C 73% 3.9 mph E6.3 kmh E 7.0 mph11.3 kmh 30.53 in1033.9 mb 0.00 in0.0 mm 0.00 in0.0 mm 0.00 in0.0 mm
09:52 AM 27.0°F-2.8°C 19.5°F-6.9°C 73% 3.9 mph E6.3 kmh E 7.0 mph11.3 kmh 30.53 in1033.9 mb 0.00 in0.0 mm 0.00 in0.0 mm 0.00 in0.0 mm
09:53 AM 27.1°F-2.7°C 19.6°F-6.9°C 73% 4.9 mph E7.9 kmh E 8.0 mph12.9 kmh 30.53 in1033.9 mb 0.00 in0.0 mm 0.00 in0.0 mm 0.00 in0.0 mm
09:54 AM 27.1°F-2.7°C 19.6°F-6.9°C 73% 5.5 mph E8.9 kmh E 8.0 mph12.9 kmh 30.53 in1033.9 mb 0.00 in0.0 mm 0.00 in0.0 mm 0.00 in0.0 mm
09:55 AM 27.1°F-2.7°C 19.6°F-6.9°C 73% 3.9 mph E6.3 kmh E 7.0 mph11.3 kmh 30.53 in1033.9 mb 0.00 in0.0 mm 0.00 in0.0 mm 0.00 in0.0 mm
09:56 AM 27.1°F-2.7°C 19.6°F-6.9°C 73% 2.8 mph E4.5 kmh E 6.0 mph9.7 kmh 30.53 in1033.9 mb 0.00 in0.0 mm 0.00 in0.0 mm 0.00 in0.0 mm
09:57 AM 27.1°F-2.7°C 19.6°F-6.9°C 73% 2.8 mph E4.5 kmh E 4.0 mph6.4 kmh 30.54 in1034.2 mb 0.00 in0.0 mm 0.00 in0.0 mm 0.00 in0.0 mm
09:58 AM 27.1°F-2.7°C 19.6°F-6.9°C 73% 3.0 mph E4.8 kmh E 4.0 mph6.4 kmh 30.54 in1034.2 mb 0.00 in0.0 mm 0.00 in0.0 mm 0.00 in0.0 mm
09:59 AM 27.1°F-2.7°C 19.6°F-6.9°C 73% 2.5 mph E4.0 kmh E 4.0 mph6.4 kmh 30.54 in1034.2 mb 0.00 in0.0 mm 0.00 in0.0 mm 0.00 in0.0 mm
10:00 AM 27.1°F-2.7°C 19.6°F-6.9°C 73% 3.7 mph E6.0 kmh E 6.0 mph9.7 kmh 30.54 in1034.2 mb 0.00 in0.0 mm 0.00 in0.0 mm 0.00 in0.0 mm
10:01 AM 27.1°F-2.7°C 19.6°F-6.9°C 73% 3.5 mph E5.6 kmh E 6.0 mph9.7 kmh 30.54 in1034.2 mb 0.00 in0.0 mm 0.00 in0.0 mm 0.00 in0.0 mm
10:02 AM 27.1°F-2.7°C 19.6°F-6.9°C 73% 4.9 mph E7.9 kmh E 7.0 mph11.3 kmh 30.54 in1034.2 mb 0.00 in0.0 mm 0.00 in0.0 mm 0.00 in0.0 mm
10:03 AM 27.2°F-2.7°C 19.7°F-6.8°C 73% 4.5 mph ENE7.2 kmh ENE 7.0 mph11.3 kmh 30.54 in1034.2 mb 0.00 in0.0 mm 0.00 in0.0 mm 0.00 in0.0 mm
10:04 AM 27.2°F-2.7°C 19.7°F-6.8°C 73% 4.8 mph NE7.7 kmh NE 6.0 mph9.7 kmh 30.54 in1034.2 mb 0.00 in0.0 mm 0.00 in0.0 mm 0.00 in0.0 mm
10:05 AM 27.1°F-2.7°C 19.6°F-6.9°C 73% 4.8 mph E7.7 kmh E 7.0 mph11.3 kmh 30.54 in1034.2 mb 0.00 in0.0 mm 0.00 in0.0 mm 0.00 in0.0 mm
10:06 AM 27.2°F-2.7°C 19.7°F-6.8°C 73% 6.0 mph E9.7 kmh E 7.0 mph11.3 kmh 30.53 in1033.9 mb 0.00 in0.0 mm 0.00 in0.0 mm 0.00 in0.0 mm
10:07 AM 27.2°F-2.7°C 19.4°F-7.0°C 72% 3.5 mph E5.6 kmh E 7.0 mph11.3 kmh 30.54 in1034.2 mb 0.00 in0.0 mm 0.00 in0.0 mm 0.00 in0.0 mm
10:08 AM 27.2°F-2.7°C 19.4°F-7.0°C 72% 3.8 mph ENE6.1 kmh ENE 6.0 mph9.7 kmh 30.53 in1033.9 mb 0.00 in0.0 mm 0.00 in0.0 mm 0.00 in0.0 mm
10:09 AM 27.2°F-2.7°C 19.7°F-6.8°C 73% 3.5 mph ENE5.6 kmh ENE 6.0 mph9.7 kmh 30.53 in1033.9 mb 0.00 in0.0 mm 0.00 in0.0 mm 0.00 in0.0 mm
10:10 AM 27.2°F-2.7°C 19.4°F-7.0°C 72% 3.5 mph ENE5.6 kmh ENE 5.0 mph8.0 kmh 30.53 in1033.9 mb 0.00 in0.0 mm 0.00 in0.0 mm 0.00 in0.0 mm
10:11 AM 27.2°F-2.7°C 19.4°F-7.0°C 72% 4.1 mph ENE6.6 kmh ENE 6.0 mph9.7 kmh 30.53 in1033.9 mb 0.00 in0.0 mm 0.00 in0.0 mm 0.00 in0.0 mm
10:12 AM 27.3°F-2.6°C 19.8°F-6.8°C 73% 5.4 mph ENE8.7 kmh ENE 8.0 mph12.9 kmh 30.53 in1033.9 mb 0.00 in0.0 mm 0.00 in0.0 mm 0.00 in0.0 mm
10:13 AM 27.3°F-2.6°C 19.5°F-6.9°C 72% 5.2 mph ENE8.4 kmh ENE 8.0 mph12.9 kmh 30.53 in1033.9 mb 0.00 in0.0 mm 0.00 in0.0 mm 0.00 in0.0 mm
10:14 AM 27.3°F-2.6°C 19.5°F-6.9°C 72% 4.6 mph ENE7.4 kmh ENE 6.0 mph9.7 kmh 30.53 in1033.9 mb 0.00 in0.0 mm 0.00 in0.0 mm 0.00 in0.0 mm
10:15 AM 27.3°F-2.6°C 19.5°F-6.9°C 72% 4.0 mph E6.4 kmh E 6.0 mph9.7 kmh 30.54 in1034.2 mb 0.00 in0.0 mm 0.00 in0.0 mm 0.00 in0.0 mm
10:16 AM 27.2°F-2.7°C 19.4°F-7.0°C 72% 2.6 mph E4.2 kmh E 5.0 mph8.0 kmh 30.53 in1033.9 mb 0.00 in0.0 mm 0.00 in0.0 mm 0.00 in0.0 mm
10:17 AM 27.3°F-2.6°C 19.5°F-6.9°C 72% 4.3 mph ENE6.9 kmh ENE 6.0 mph9.7 kmh 30.53 in1033.9 mb 0.00 in0.0 mm 0.00 in0.0 mm 0.00 in0.0 mm
10:18 AM 27.3°F-2.6°C 19.5°F-6.9°C 72% 4.3 mph E6.9 kmh E 7.0 mph11.3 kmh 30.53 in1033.9 mb 0.00 in0.0 mm 0.00 in0.0 mm 0.00 in0.0 mm
10:19 AM 27.4°F-2.6°C 19.6°F-6.9°C 72% 6.0 mph ENE9.7 kmh ENE 8.0 mph12.9 kmh 30.53 in1033.9 mb 0.00 in0.0 mm 0.00 in0.0 mm 0.00 in0.0 mm
10:20 AM 27.3°F-2.6°C 19.5°F-6.9°C 72% 5.1 mph ENE8.2 kmh ENE 8.0 mph12.9 kmh 30.53 in1033.9 mb 0.00 in0.0 mm 0.00 in0.0 mm 0.00 in0.0 mm
10:21 AM 27.3°F-2.6°C 19.5°F-6.9°C 72% 5.3 mph ENE8.5 kmh ENE 8.0 mph12.9 kmh 30.53 in1033.9 mb 0.00 in0.0 mm 0.00 in0.0 mm 0.00 in0.0 mm
10:22 AM 27.3°F-2.6°C 19.5°F-6.9°C 72% 2.7 mph NE4.3 kmh NE 8.0 mph12.9 kmh 30.53 in1033.9 mb 0.00 in0.0 mm 0.00 in0.0 mm 0.00 in0.0 mm
10:23 AM 27.3°F-2.6°C 19.5°F-6.9°C 72% 5.5 mph NE8.9 kmh NE 8.0 mph12.9 kmh 30.53 in1033.9 mb 0.00 in0.0 mm 0.00 in0.0 mm 0.00 in0.0 mm
10:24 AM 27.3°F-2.6°C 19.5°F-6.9°C 72% 5.5 mph NE8.9 kmh NE 9.0 mph14.5 kmh 30.54 in1034.2 mb 0.00 in0.0 mm 0.00 in0.0 mm 0.00 in0.0 mm
10:25 AM 27.3°F-2.6°C 19.5°F-6.9°C 72% 2.6 mph ENE4.2 kmh ENE 7.0 mph11.3 kmh 30.53 in1033.9 mb 0.00 in0.0 mm 0.00 in0.0 mm 0.00 in0.0 mm
10:26 AM 27.4°F-2.6°C 19.6°F-6.9°C 72% 3.5 mph ENE5.6 kmh ENE 6.0 mph9.7 kmh 30.53 in1033.9 mb 0.00 in0.0 mm 0.00 in0.0 mm 0.00 in0.0 mm
10:27 AM 27.4°F-2.6°C 19.6°F-6.9°C 72% 2.6 mph ENE4.2 kmh ENE 6.0 mph9.7 kmh 30.53 in1033.9 mb 0.00 in0.0 mm 0.00 in0.0 mm 0.00 in0.0 mm
10:28 AM 27.4°F-2.6°C 19.6°F-6.9°C 72% 2.0 mph ENE3.2 kmh ENE 4.0 mph6.4 kmh 30.53 in1033.9 mb 0.00 in0.0 mm 0.00 in0.0 mm 0.00 in0.0 mm
10:29 AM 27.4°F-2.6°C 19.6°F-6.9°C 72% 2.6 mph ENE4.2 kmh ENE 3.0 mph4.8 kmh 30.53 in1033.9 mb 0.00 in0.0 mm 0.00 in0.0 mm 0.00 in0.0 mm
10:30 AM 27.5°F-2.5°C 19.7°F-6.8°C 72% 3.1 mph ENE5.0 kmh ENE 4.0 mph6.4 kmh 30.53 in1033.9 mb 0.00 in0.0 mm 0.00 in0.0 mm 0.00 in0.0 mm
10:31 AM 27.5°F-2.5°C 19.7°F-6.8°C 72% 2.4 mph ENE3.9 kmh ENE 4.0 mph6.4 kmh 30.53 in1033.9 mb 0.00 in0.0 mm 0.00 in0.0 mm 0.00 in0.0 mm
10:32 AM 27.5°F-2.5°C 19.7°F-6.8°C 72% 3.0 mph ENE4.8 kmh ENE 4.0 mph6.4 kmh 30.53 in1033.9 mb 0.00 in0.0 mm 0.00 in0.0 mm 0.00 in0.0 mm
10:33 AM 27.6°F-2.4°C 19.8°F-6.8°C 72% 1.9 mph ENE3.1 kmh ENE 4.0 mph6.4 kmh 30.53 in1033.9 mb 0.00 in0.0 mm 0.00 in0.0 mm 0.00 in0.0 mm
10:34 AM 27.6°F-2.4°C 19.8°F-6.8°C 72% 2.4 mph ENE3.9 kmh ENE 4.0 mph6.4 kmh 30.53 in1033.9 mb 0.00 in0.0 mm 0.00 in0.0 mm 0.00 in0.0 mm
10:35 AM 27.6°F-2.4°C 19.8°F-6.8°C 72% 2.6 mph NE4.2 kmh NE 5.0 mph8.0 kmh 30.53 in1033.9 mb 0.00 in0.0 mm 0.00 in0.0 mm 0.00 in0.0 mm
10:36 AM 27.6°F-2.4°C 19.8°F-6.8°C 72% 6.5 mph ENE10.5 kmh ENE 9.0 mph14.5 kmh 30.53 in1033.9 mb 0.00 in0.0 mm 0.00 in0.0 mm 0.00 in0.0 mm
10:37 AM 27.6°F-2.4°C 19.8°F-6.8°C 72% 5.5 mph E8.9 kmh E 9.0 mph14.5 kmh 30.53 in1033.9 mb 0.00 in0.0 mm 0.00 in0.0 mm 0.00 in0.0 mm
10:38 AM 27.6°F-2.4°C 19.4°F-7.0°C 71% 5.7 mph E9.2 kmh E 8.0 mph12.9 kmh 30.53 in1033.9 mb 0.00 in0.0 mm 0.00 in0.0 mm 0.00 in0.0 mm
10:39 AM 27.6°F-2.4°C 19.8°F-6.8°C 72% 4.0 mph ENE6.4 kmh ENE 8.0 mph12.9 kmh 30.53 in1033.9 mb 0.00 in0.0 mm 0.00 in0.0 mm 0.00 in0.0 mm
10:40 AM 27.6°F-2.4°C 19.8°F-6.8°C 72% 3.3 mph ENE5.3 kmh ENE 7.0 mph11.3 kmh 30.53 in1033.9 mb 0.00 in0.0 mm 0.00 in0.0 mm 0.00 in0.0 mm
10:41 AM 27.6°F-2.4°C 19.8°F-6.8°C 72% 3.8 mph ENE6.1 kmh ENE 5.0 mph8.0 kmh 30.53 in1033.9 mb 0.00 in0.0 mm 0.00 in0.0 mm 0.00 in0.0 mm
10:42 AM 27.6°F-2.4°C 19.8°F-6.8°C 72% 4.1 mph ENE6.6 kmh ENE 5.0 mph8.0 kmh 30.53 in1033.9 mb 0.00 in0.0 mm 0.00 in0.0 mm 0.00 in0.0 mm
10:43 AM 27.6°F-2.4°C 19.8°F-6.8°C 72% 3.9 mph ENE6.3 kmh ENE 5.0 mph8.0 kmh 30.53 in1033.9 mb 0.00 in0.0 mm 0.00 in0.0 mm 0.00 in0.0 mm
10:44 AM 27.6°F-2.4°C 19.4°F-7.0°C 71% 3.0 mph ENE4.8 kmh ENE 5.0 mph8.0 kmh 30.53 in1033.9 mb 0.00 in0.0 mm 0.00 in0.0 mm 0.00 in0.0 mm
10:45 AM 27.6°F-2.4°C 19.4°F-7.0°C 71% 3.4 mph ENE5.5 kmh ENE 5.0 mph8.0 kmh 30.53 in1033.9 mb 0.00 in0.0 mm 0.00 in0.0 mm 0.00 in0.0 mm
10:46 AM 27.7°F-2.4°C 19.9°F-6.7°C 72% 2.7 mph ENE4.3 kmh ENE 5.0 mph8.0 kmh 30.53 in1033.9 mb 0.00 in0.0 mm 0.00 in0.0 mm 0.00 in0.0 mm
10:47 AM 27.7°F-2.4°C 19.9°F-6.7°C 72% 2.5 mph ENE4.0 kmh ENE 4.0 mph6.4 kmh 30.53 in1033.9 mb 0.00 in0.0 mm 0.00 in0.0 mm 0.00 in0.0 mm
10:48 AM 27.7°F-2.4°C 19.9°F-6.7°C 72% 3.4 mph NE5.5 kmh NE 7.0 mph11.3 kmh 30.53 in1033.9 mb 0.00 in0.0 mm 0.00 in0.0 mm 0.00 in0.0 mm
10:49 AM 27.7°F-2.4°C 19.9°F-6.7°C 72% 5.5 mph NE8.9 kmh NE 8.0 mph12.9 kmh 30.53 in1033.9 mb 0.00 in0.0 mm 0.00 in0.0 mm 0.00 in0.0 mm
10:50 AM 27.8°F-2.3°C 20.0°F-6.7°C 72% 3.0 mph NE4.8 kmh NE 8.0 mph12.9 kmh 30.53 in1033.9 mb 0.00 in0.0 mm 0.00 in0.0 mm 0.00 in0.0 mm
10:51 AM 27.8°F-2.3°C 19.6°F-6.9°C 71% 4.2 mph NE6.8 kmh NE 7.0 mph11.3 kmh 30.52 in1033.5 mb 0.00 in0.0 mm 0.00 in0.0 mm 0.00 in0.0 mm
10:52 AM 27.8°F-2.3°C 19.6°F-6.9°C 71% 5.9 mph ENE9.5 kmh ENE 8.0 mph12.9 kmh 30.53 in1033.9 mb 0.00 in0.0 mm 0.00 in0.0 mm 0.00 in0.0 mm
10:53 AM 27.8°F-2.3°C 19.6°F-6.9°C 71% 4.2 mph ENE6.8 kmh ENE 8.0 mph12.9 kmh 30.52 in1033.5 mb 0.00 in0.0 mm 0.00 in0.0 mm 0.00 in0.0 mm
10:54 AM 27.8°F-2.3°C 19.6°F-6.9°C 71% 3.1 mph ENE5.0 kmh ENE 8.0 mph12.9 kmh 30.53 in1033.9 mb 0.00 in0.0 mm 0.00 in0.0 mm 0.00 in0.0 mm
10:55 AM 27.9°F-2.3°C 19.7°F-6.8°C 71% 4.2 mph E6.8 kmh E 6.0 mph9.7 kmh 30.53 in1033.9 mb 0.00 in0.0 mm 0.00 in0.0 mm 0.00 in0.0 mm
10:56 AM 27.8°F-2.3°C 19.6°F-6.9°C 71% 6.5 mph E10.5 kmh E 8.0 mph12.9 kmh 30.53 in1033.9 mb 0.00 in0.0 mm 0.00 in0.0 mm 0.00 in0.0 mm
10:57 AM 27.8°F-2.3°C 19.6°F-6.9°C 71% 5.2 mph E8.4 kmh E 8.0 mph12.9 kmh 30.52 in1033.5 mb 0.00 in0.0 mm 0.00 in0.0 mm 0.00 in0.0 mm
10:58 AM 27.8°F-2.3°C 19.6°F-6.9°C 71% 4.4 mph E7.1 kmh E 8.0 mph12.9 kmh 30.52 in1033.5 mb 0.00 in0.0 mm 0.00 in0.0 mm 0.00 in0.0 mm
10:59 AM 27.8°F-2.3°C 19.6°F-6.9°C 71% 5.5 mph E8.9 kmh E 8.0 mph12.9 kmh 30.52 in1033.5 mb 0.00 in0.0 mm 0.00 in0.0 mm 0.00 in0.0 mm
11:00 AM 27.8°F-2.3°C 19.6°F-6.9°C 71% 5.9 mph NE9.5 kmh NE 9.0 mph14.5 kmh 30.52 in1033.5 mb 0.00 in0.0 mm 0.00 in0.0 mm 0.00 in0.0 mm
11:01 AM 27.8°F-2.3°C 19.6°F-6.9°C 71% 5.1 mph ENE8.2 kmh ENE 9.0 mph14.5 kmh 30.52 in1033.5 mb 0.00 in0.0 mm 0.00 in0.0 mm 0.00 in0.0 mm
11:02 AM 27.8°F-2.3°C 19.6°F-6.9°C 71% 5.3 mph ENE8.5 kmh ENE 7.0 mph11.3 kmh 30.52 in1033.5 mb 0.00 in0.0 mm 0.00 in0.0 mm 0.00 in0.0 mm
11:03 AM 27.8°F-2.3°C 19.6°F-6.9°C 71% 6.8 mph ENE10.9 kmh ENE 9.0 mph14.5 kmh 30.52 in1033.5 mb 0.00 in0.0 mm 0.00 in0.0 mm 0.00 in0.0 mm
11:04 AM 27.8°F-2.3°C 19.6°F-6.9°C 71% 5.5 mph ENE8.9 kmh ENE 9.0 mph14.5 kmh 30.52 in1033.5 mb 0.00 in0.0 mm 0.00 in0.0 mm 0.00 in0.0 mm
11:05 AM 27.8°F-2.3°C 19.6°F-6.9°C 71% 5.7 mph ENE9.2 kmh ENE 8.0 mph12.9 kmh 30.52 in1033.5 mb 0.00 in0.0 mm 0.00 in0.0 mm 0.00 in0.0 mm
11:06 AM 27.8°F-2.3°C 19.6°F-6.9°C 71% 5.8 mph ENE9.3 kmh ENE 8.0 mph12.9 kmh 30.52 in1033.5 mb 0.00 in0.0 mm 0.00 in0.0 mm 0.00 in0.0 mm
11:07 AM 27.8°F-2.3°C 19.6°F-6.9°C 71% 4.8 mph NE7.7 kmh NE 8.0 mph12.9 kmh 30.52 in1033.5 mb 0.00 in0.0 mm 0.00 in0.0 mm 0.00 in0.0 mm
11:08 AM 27.7°F-2.4°C 19.5°F-6.9°C 71% 4.0 mph NE6.4 kmh NE 7.0 mph11.3 kmh 30.52 in1033.5 mb 0.00 in0.0 mm 0.00 in0.0 mm 0.00 in0.0 mm
11:09 AM 27.8°F-2.3°C 19.6°F-6.9°C 71% 4.7 mph NE7.6 kmh NE 7.0 mph11.3 kmh 30.52 in1033.5 mb 0.00 in0.0 mm 0.00 in0.0 mm 0.00 in0.0 mm
11:10 AM 27.8°F-2.3°C 19.6°F-6.9°C 71% 5.6 mph NE9.0 kmh NE 8.0 mph12.9 kmh 30.52 in1033.5 mb 0.00 in0.0 mm 0.00 in0.0 mm 0.00 in0.0 mm
11:11 AM 27.8°F-2.3°C 19.6°F-6.9°C 71% 4.2 mph NE6.8 kmh NE 8.0 mph12.9 kmh 30.52 in1033.5 mb 0.00 in0.0 mm 0.00 in0.0 mm 0.00 in0.0 mm
11:12 AM 27.8°F-2.3°C 19.6°F-6.9°C 71% 8.0 mph ENE12.9 kmh ENE 10.0 mph16.1 kmh 30.52 in1033.5 mb 0.00 in0.0 mm 0.00 in0.0 mm 0.00 in0.0 mm
11:13 AM 27.8°F-2.3°C 19.6°F-6.9°C 71% 6.5 mph ENE10.5 kmh ENE 10.0 mph16.1 kmh 30.52 in1033.5 mb 0.00 in0.0 mm 0.00 in0.0 mm 0.00 in0.0 mm
11:14 AM 27.8°F-2.3°C 19.3°F-7.1°C 70% 5.1 mph ENE8.2 kmh ENE 8.0 mph12.9 kmh 30.52 in1033.5 mb 0.00 in0.0 mm 0.00 in0.0 mm 0.00 in0.0 mm
11:15 AM 27.8°F-2.3°C 19.3°F-7.1°C 70% 4.1 mph ENE6.6 kmh ENE 6.0 mph9.7 kmh 30.52 in1033.5 mb 0.00 in0.0 mm 0.00 in0.0 mm 0.00 in0.0 mm
11:16 AM 27.8°F-2.3°C 19.3°F-7.1°C 70% 4.2 mph ENE6.8 kmh ENE 6.0 mph9.7 kmh 30.52 in1033.5 mb 0.00 in0.0 mm 0.00 in0.0 mm 0.00 in0.0 mm
11:17 AM 27.8°F-2.3°C 19.6°F-6.9°C 71% 3.9 mph ENE6.3 kmh ENE 6.0 mph9.7 kmh 30.52 in1033.5 mb 0.00 in0.0 mm 0.00 in0.0 mm 0.00 in0.0 mm
11:18 AM 27.9°F-2.3°C 19.7°F-6.8°C 71% 3.1 mph ENE5.0 kmh ENE 5.0 mph8.0 kmh 30.52 in1033.5 mb 0.00 in0.0 mm 0.00 in0.0 mm 0.00 in0.0 mm
11:19 AM 27.9°F-2.3°C 19.7°F-6.8°C 71% 5.6 mph E9.0 kmh E 9.0 mph14.5 kmh 30.52 in1033.5 mb 0.00 in0.0 mm 0.00 in0.0 mm 0.00 in0.0 mm
11:20 AM 27.9°F-2.3°C 19.4°F-7.0°C 70% 5.5 mph E8.9 kmh E 9.0 mph14.5 kmh 30.52 in1033.5 mb 0.00 in0.0 mm 0.00 in0.0 mm 0.00 in0.0 mm
11:21 AM 27.9°F-2.3°C 19.4°F-7.0°C 70% 5.4 mph E8.7 kmh E 8.0 mph12.9 kmh 30.52 in1033.5 mb 0.00 in0.0 mm 0.00 in0.0 mm 0.00 in0.0 mm
11:22 AM 27.9°F-2.3°C 19.4°F-7.0°C 70% 6.0 mph E9.7 kmh E 7.0 mph11.3 kmh 30.52 in1033.5 mb 0.00 in0.0 mm 0.00 in0.0 mm 0.00 in0.0 mm
11:23 AM 27.9°F-2.3°C 19.4°F-7.0°C 70% 4.0 mph E6.4 kmh E 7.0 mph11.3 kmh 30.52 in1033.5 mb 0.00 in0.0 mm 0.00 in0.0 mm 0.00 in0.0 mm
11:24 AM 27.9°F-2.3°C 19.4°F-7.0°C 70% 4.6 mph E7.4 kmh E 7.0 mph11.3 kmh 30.52 in1033.5 mb 0.00 in0.0 mm 0.00 in0.0 mm 0.00 in0.0 mm
11:25 AM 27.8°F-2.3°C 19.3°F-7.1°C 70% 3.8 mph E6.1 kmh E 7.0 mph11.3 kmh 30.52 in1033.5 mb 0.00 in0.0 mm 0.00 in0.0 mm 0.00 in0.0 mm
11:26 AM 27.9°F-2.3°C 19.4°F-7.0°C 70% 4.9 mph E7.9 kmh E 7.0 mph11.3 kmh 30.52 in1033.5 mb 0.00 in0.0 mm 0.00 in0.0 mm 0.00 in0.0 mm
11:27 AM 27.9°F-2.3°C 19.4°F-7.0°C 70% 4.4 mph E7.1 kmh E 7.0 mph11.3 kmh 30.52 in1033.5 mb 0.00 in0.0 mm 0.00 in0.0 mm 0.00 in0.0 mm
11:28 AM 27.9°F-2.3°C 19.4°F-7.0°C 70% 4.5 mph ENE7.2 kmh ENE 6.0 mph9.7 kmh 30.52 in1033.5 mb 0.00 in0.0 mm 0.00 in0.0 mm 0.00 in0.0 mm
11:29 AM 27.9°F-2.3°C 19.1°F-7.2°C 69% 7.0 mph ENE11.3 kmh ENE 9.0 mph14.5 kmh 30.52 in1033.5 mb 0.00 in0.0 mm 0.00 in0.0 mm 0.00 in0.0 mm
11:30 AM 27.9°F-2.3°C 19.1°F-7.2°C 69% 4.9 mph ENE7.9 kmh ENE 9.0 mph14.5 kmh 30.52 in1033.5 mb 0.00 in0.0 mm 0.00 in0.0 mm 0.00 in0.0 mm
11:31 AM 27.9°F-2.3°C 19.1°F-7.2°C 69% 3.7 mph E6.0 kmh E 8.0 mph12.9 kmh 30.52 in1033.5 mb 0.00 in0.0 mm 0.00 in0.0 mm 0.00 in0.0 mm
11:32 AM 27.9°F-2.3°C 19.4°F-7.0°C 70% 4.4 mph E7.1 kmh E 7.0 mph11.3 kmh 30.52 in1033.5 mb 0.00 in0.0 mm 0.00 in0.0 mm 0.00 in0.0 mm
11:33 AM 27.9°F-2.3°C 19.4°F-7.0°C 70% 4.1 mph E6.6 kmh E 6.0 mph9.7 kmh 30.52 in1033.5 mb 0.00 in0.0 mm 0.00 in0.0 mm 0.00 in0.0 mm
11:34 AM 27.9°F-2.3°C 19.4°F-7.0°C 70% 5.3 mph E8.5 kmh E 7.0 mph11.3 kmh 30.52 in1033.5 mb 0.00 in0.0 mm 0.00 in0.0 mm 0.00 in0.0 mm
11:35 AM 28.0°F-2.2°C 19.5°F-6.9°C 70% 6.2 mph E10.0 kmh E 8.0 mph12.9 kmh 30.52 in1033.5 mb 0.00 in0.0 mm 0.00 in0.0 mm 0.00 in0.0 mm
11:36 AM 27.9°F-2.3°C 19.4°F-7.0°C 70% 6.5 mph E10.5 kmh E 8.0 mph12.9 kmh 30.52 in1033.5 mb 0.00 in0.0 mm 0.00 in0.0 mm 0.00 in0.0 mm
11:37 AM 27.9°F-2.3°C 19.4°F-7.0°C 70% 4.2 mph ENE6.8 kmh ENE 8.0 mph12.9 kmh 30.52 in1033.5 mb 0.00 in0.0 mm 0.00 in0.0 mm 0.00 in0.0 mm
11:38 AM 28.0°F-2.2°C 19.5°F-6.9°C 70% 6.7 mph E10.8 kmh E 8.0 mph12.9 kmh 30.51 in1033.2 mb 0.00 in0.0 mm 0.00 in0.0 mm 0.00 in0.0 mm
11:39 AM 28.0°F-2.2°C 19.5°F-6.9°C 70% 5.9 mph E9.5 kmh E 8.0 mph12.9 kmh 30.51 in1033.2 mb 0.00 in0.0 mm 0.00 in0.0 mm 0.00 in0.0 mm
11:40 AM 27.9°F-2.3°C 19.1°F-7.2°C 69% 4.8 mph E7.7 kmh E 7.0 mph11.3 kmh 30.51 in1033.2 mb 0.00 in0.0 mm 0.00 in0.0 mm 0.00 in0.0 mm
11:41 AM 27.9°F-2.3°C 19.1°F-7.2°C 69% 4.3 mph E6.9 kmh E 7.0 mph11.3 kmh 30.52 in1033.5 mb 0.00 in0.0 mm 0.00 in0.0 mm 0.00 in0.0 mm
11:42 AM 27.9°F-2.3°C 19.1°F-7.2°C 69% 7.3 mph E11.7 kmh E 9.0 mph14.5 kmh 30.52 in1033.5 mb 0.00 in0.0 mm 0.00 in0.0 mm 0.00 in0.0 mm
11:43 AM 27.9°F-2.3°C 19.1°F-7.2°C 69% 6.7 mph E10.8 kmh E 9.0 mph14.5 kmh 30.52 in1033.5 mb 0.00 in0.0 mm 0.00 in0.0 mm 0.00 in0.0 mm
11:44 AM 27.9°F-2.3°C 19.1°F-7.2°C 69% 7.1 mph E11.4 kmh E 8.0 mph12.9 kmh 30.52 in1033.5 mb 0.00 in0.0 mm 0.00 in0.0 mm 0.00 in0.0 mm
11:45 AM 27.9°F-2.3°C 19.1°F-7.2°C 69% 4.5 mph E7.2 kmh E 8.0 mph12.9 kmh 30.52 in1033.5 mb 0.00 in0.0 mm 0.00 in0.0 mm 0.00 in0.0 mm
11:46 AM 27.9°F-2.3°C 19.1°F-7.2°C 69% 5.7 mph E9.2 kmh E 7.0 mph11.3 kmh 30.51 in1033.2 mb 0.00 in0.0 mm 0.00 in0.0 mm 0.00 in0.0 mm
11:47 AM 27.9°F-2.3°C 19.1°F-7.2°C 69% 4.4 mph E7.1 kmh E 7.0 mph11.3 kmh 30.52 in1033.5 mb 0.00 in0.0 mm 0.00 in0.0 mm 0.00 in0.0 mm
11:48 AM 27.9°F-2.3°C 19.1°F-7.2°C 69% 3.3 mph E5.3 kmh E 7.0 mph11.3 kmh 30.51 in1033.2 mb 0.00 in0.0 mm 0.00 in0.0 mm 0.00 in0.0 mm
11:49 AM 27.9°F-2.3°C 19.1°F-7.2°C 69% 2.2 mph E3.5 kmh E 4.0 mph6.4 kmh 30.51 in1033.2 mb 0.00 in0.0 mm 0.00 in0.0 mm 0.00 in0.0 mm
11:50 AM 27.9°F-2.3°C 19.1°F-7.2°C 69% 1.9 mph E3.1 kmh E 3.0 mph4.8 kmh 30.51 in1033.2 mb 0.00 in0.0 mm 0.00 in0.0 mm 0.00 in0.0 mm
11:51 AM 28.0°F-2.2°C 19.2°F-7.1°C 69% 3.3 mph E5.3 kmh E 6.0 mph9.7 kmh 30.51 in1033.2 mb 0.00 in0.0 mm 0.00 in0.0 mm 0.00 in0.0 mm
11:52 AM 28.0°F-2.2°C 18.8°F-7.3°C 68% 3.4 mph E5.5 kmh E 6.0 mph9.7 kmh 30.51 in1033.2 mb 0.00 in0.0 mm 0.00 in0.0 mm 0.00 in0.0 mm
11:53 AM 28.1°F-2.2°C 18.9°F-7.3°C 68% 3.0 mph E4.8 kmh E 5.0 mph8.0 kmh 30.51 in1033.2 mb 0.00 in0.0 mm 0.00 in0.0 mm 0.00 in0.0 mm
11:54 AM 28.1°F-2.2°C 18.9°F-7.3°C 68% 3.5 mph ENE5.6 kmh ENE 5.0 mph8.0 kmh 30.51 in1033.2 mb 0.00 in0.0 mm 0.00 in0.0 mm 0.00 in0.0 mm
11:55 AM 28.1°F-2.2°C 18.9°F-7.3°C 68% 4.6 mph E7.4 kmh E 7.0 mph11.3 kmh 30.51 in1033.2 mb 0.00 in0.0 mm 0.00 in0.0 mm 0.00 in0.0 mm
11:56 AM 28.1°F-2.2°C 18.6°F-7.4°C 67% 4.6 mph E7.4 kmh E 8.0 mph12.9 kmh 30.51 in1033.2 mb 0.00 in0.0 mm 0.00 in0.0 mm 0.00 in0.0 mm
11:57 AM 28.1°F-2.2°C 18.6°F-7.4°C 67% 4.1 mph ENE6.6 kmh ENE 8.0 mph12.9 kmh 30.51 in1033.2 mb 0.00 in0.0 mm 0.00 in0.0 mm 0.00 in0.0 mm
11:58 AM 28.1°F-2.2°C 18.6°F-7.4°C 67% 4.8 mph E7.7 kmh E 8.0 mph12.9 kmh 30.51 in1033.2 mb 0.00 in0.0 mm 0.00 in0.0 mm 0.00 in0.0 mm
11:59 AM 28.1°F-2.2°C 18.9°F-7.3°C 68% 6.0 mph E9.7 kmh E 9.0 mph14.5 kmh 30.51 in1033.2 mb 0.00 in0.0 mm 0.00 in0.0 mm 0.00 in0.0 mm
12:00 PM 28.1°F-2.2°C 18.9°F-7.3°C 68% 3.5 mph SE5.6 kmh SE 9.0 mph14.5 kmh 30.51 in1033.2 mb 0.00 in0.0 mm 0.00 in0.0 mm 0.00 in0.0 mm
12:01 PM 28.2°F-2.1°C 19.0°F-7.2°C 68% 2.1 mph SE3.4 kmh SE 4.0 mph6.4 kmh 30.51 in1033.2 mb 0.00 in0.0 mm 0.00 in0.0 mm 0.00 in0.0 mm
12:02 PM 28.2°F-2.1°C 19.0°F-7.2°C 68% 3.9 mph ESE6.3 kmh ESE 6.0 mph9.7 kmh 30.51 in1033.2 mb 0.00 in0.0 mm 0.00 in0.0 mm 0.00 in0.0 mm
12:03 PM 28.2°F-2.1°C 19.0°F-7.2°C 68% 2.9 mph ESE4.7 kmh ESE 6.0 mph9.7 kmh 30.51 in1033.2 mb 0.00 in0.0 mm 0.00 in0.0 mm 0.00 in0.0 mm
12:04 PM 28.2°F-2.1°C 18.7°F-7.4°C 67% 2.2 mph ESE3.5 kmh ESE 4.0 mph6.4 kmh 30.51 in1033.2 mb 0.00 in0.0 mm 0.00 in0.0 mm 0.00 in0.0 mm
12:05 PM 28.2°F-2.1°C 18.7°F-7.4°C 67% 2.0 mph ESE3.2 kmh ESE 3.0 mph4.8 kmh 30.51 in1033.2 mb 0.00 in0.0 mm 0.00 in0.0 mm 0.00 in0.0 mm
12:06 PM 28.2°F-2.1°C 18.7°F-7.4°C 67% 1.8 mph SE2.9 kmh SE 3.0 mph4.8 kmh 30.51 in1033.2 mb 0.00 in0.0 mm 0.00 in0.0 mm 0.00 in0.0 mm
12:07 PM 28.2°F-2.1°C 18.7°F-7.4°C 67% 2.6 mph SE4.2 kmh SE 5.0 mph8.0 kmh 30.51 in1033.2 mb 0.00 in0.0 mm 0.00 in0.0 mm 0.00 in0.0 mm
12:08 PM 28.2°F-2.1°C 18.7°F-7.4°C 67% 5.3 mph SE8.5 kmh SE 7.0 mph11.3 kmh 30.51 in1033.2 mb 0.00 in0.0 mm 0.00 in0.0 mm 0.00 in0.0 mm
12:09 PM 28.1°F-2.2°C 18.6°F-7.4°C 67% 3.4 mph SE5.5 kmh SE 7.0 mph11.3 kmh 30.51 in1033.2 mb 0.00 in0.0 mm 0.00 in0.0 mm 0.00 in0.0 mm
12:10 PM 28.1°F-2.2°C 18.6°F-7.4°C 67% 2.8 mph SE4.5 kmh SE 4.0 mph6.4 kmh 30.51 in1033.2 mb 0.00 in0.0 mm 0.00 in0.0 mm 0.00 in0.0 mm
12:11 PM 28.1°F-2.2°C 18.6°F-7.4°C 67% 2.2 mph ESE3.5 kmh ESE 4.0 mph6.4 kmh 30.51 in1033.2 mb 0.00 in0.0 mm 0.00 in0.0 mm 0.00 in0.0 mm
12:12 PM 28.1°F-2.2°C 18.6°F-7.4°C 67% 4.7 mph ESE7.6 kmh ESE 8.0 mph12.9 kmh 30.51 in1033.2 mb 0.00 in0.0 mm 0.00 in0.0 mm 0.00 in0.0 mm
12:13 PM 28.1°F-2.2°C 18.6°F-7.4°C 67% 7.7 mph ESE12.4 kmh ESE 9.0 mph14.5 kmh 30.51 in1033.2 mb 0.00 in0.0 mm 0.00 in0.0 mm 0.00 in0.0 mm
12:14 PM 28.1°F-2.2°C 18.6°F-7.4°C 67% 5.3 mph ESE8.5 kmh ESE 9.0 mph14.5 kmh 30.51 in1033.2 mb 0.00 in0.0 mm 0.00 in0.0 mm 0.00 in0.0 mm
12:15 PM 28.1°F-2.2°C 18.6°F-7.4°C 67% 4.9 mph E7.9 kmh E 7.0 mph11.3 kmh 30.51 in1033.2 mb 0.00 in0.0 mm 0.00 in0.0 mm 0.00 in0.0 mm
12:16 PM 28.1°F-2.2°C 18.6°F-7.4°C 67% 5.9 mph E9.5 kmh E 8.0 mph12.9 kmh 30.51 in1033.2 mb 0.00 in0.0 mm 0.00 in0.0 mm 0.00 in0.0 mm
12:17 PM 28.1°F-2.2°C 18.6°F-7.4°C 67% 6.3 mph ESE10.1 kmh ESE 8.0 mph12.9 kmh 30.51 in1033.2 mb 0.00 in0.0 mm 0.00 in0.0 mm 0.00 in0.0 mm
12:18 PM 28.1°F-2.2°C 18.6°F-7.4°C 67% 5.1 mph E8.2 kmh E 8.0 mph12.9 kmh 30.51 in1033.2 mb 0.00 in0.0 mm 0.00 in0.0 mm 0.00 in0.0 mm
12:19 PM 28.1°F-2.2°C 18.6°F-7.4°C 67% 4.5 mph E7.2 kmh E 7.0 mph11.3 kmh 30.50 in1032.8 mb 0.00 in0.0 mm 0.00 in0.0 mm 0.00 in0.0 mm
12:20 PM 28.1°F-2.2°C 18.6°F-7.4°C 67% 3.4 mph E5.5 kmh E 7.0 mph11.3 kmh 30.51 in1033.2 mb 0.00 in0.0 mm 0.00 in0.0 mm 0.00 in0.0 mm
12:21 PM 28.1°F-2.2°C 18.6°F-7.4°C 67% 3.5 mph ESE5.6 kmh ESE 6.0 mph9.7 kmh 30.50 in1032.8 mb 0.00 in0.0 mm 0.00 in0.0 mm 0.00 in0.0 mm
12:22 PM 28.1°F-2.2°C 18.6°F-7.4°C 67% 2.5 mph ESE4.0 kmh ESE 6.0 mph9.7 kmh 30.51 in1033.2 mb 0.00 in0.0 mm 0.00 in0.0 mm 0.00 in0.0 mm
12:23 PM 28.1°F-2.2°C 18.6°F-7.4°C 67% 3.5 mph ESE5.6 kmh ESE 6.0 mph9.7 kmh 30.51 in1033.2 mb 0.00 in0.0 mm 0.00 in0.0 mm 0.00 in0.0 mm
12:24 PM 28.1°F-2.2°C 18.6°F-7.4°C 67% 3.5 mph E5.6 kmh E 6.0 mph9.7 kmh 30.51 in1033.2 mb 0.00 in0.0 mm 0.00 in0.0 mm 0.00 in0.0 mm
12:25 PM 28.2°F-2.1°C 18.7°F-7.4°C 67% 2.6 mph E4.2 kmh E 4.0 mph6.4 kmh 30.51 in1033.2 mb 0.00 in0.0 mm 0.00 in0.0 mm 0.00 in0.0 mm
12:26 PM 28.2°F-2.1°C 18.7°F-7.4°C 67% 2.2 mph ESE3.5 kmh ESE 4.0 mph6.4 kmh 30.51 in1033.2 mb 0.00 in0.0 mm 0.00 in0.0 mm 0.00 in0.0 mm
12:27 PM 28.2°F-2.1°C 18.7°F-7.4°C 67% 2.7 mph SE4.3 kmh SE 4.0 mph6.4 kmh 30.51 in1033.2 mb 0.00 in0.0 mm 0.00 in0.0 mm 0.00 in0.0 mm
12:28 PM 28.2°F-2.1°C 18.7°F-7.4°C 67% 2.6 mph SSE4.2 kmh SSE 4.0 mph6.4 kmh 30.51 in1033.2 mb 0.00 in0.0 mm 0.00 in0.0 mm 0.00 in0.0 mm
12:29 PM 28.2°F-2.1°C 18.7°F-7.4°C 67% 4.5 mph S7.2 kmh S 6.0 mph9.7 kmh 30.51 in1033.2 mb 0.00 in0.0 mm 0.00 in0.0 mm 0.00 in0.0 mm
12:30 PM 28.2°F-2.1°C 18.7°F-7.4°C 67% 4.6 mph S7.4 kmh S 6.0 mph9.7 kmh 30.51 in1033.2 mb 0.00 in0.0 mm 0.00 in0.0 mm 0.00 in0.0 mm
12:31 PM 28.2°F-2.1°C 18.7°F-7.4°C 67% 5.5 mph SSW8.9 kmh SSW 7.0 mph11.3 kmh 30.51 in1033.2 mb 0.00 in0.0 mm 0.00 in0.0 mm 0.00 in0.0 mm
12:32 PM 28.1°F-2.2°C 18.6°F-7.4°C 67% 4.3 mph SW6.9 kmh SW 7.0 mph11.3 kmh 30.51 in1033.2 mb 0.00 in0.0 mm 0.00 in0.0 mm 0.00 in0.0 mm
12:33 PM 28.1°F-2.2°C 18.6°F-7.4°C 67% 4.4 mph SW7.1 kmh SW 6.0 mph9.7 kmh 30.51 in1033.2 mb 0.00 in0.0 mm 0.00 in0.0 mm 0.00 in0.0 mm
12:34 PM 28.0°F-2.2°C 18.5°F-7.5°C 67% 3.0 mph SW4.8 kmh SW 6.0 mph9.7 kmh 30.50 in1032.8 mb 0.00 in0.0 mm 0.00 in0.0 mm 0.00 in0.0 mm
12:35 PM 28.0°F-2.2°C 18.8°F-7.3°C 68% 2.9 mph SW4.7 kmh SW 4.0 mph6.4 kmh 30.50 in1032.8 mb 0.00 in0.0 mm 0.00 in0.0 mm 0.00 in0.0 mm
12:36 PM 28.0°F-2.2°C 18.8°F-7.3°C 68% 1.8 mph SW2.9 kmh SW 4.0 mph6.4 kmh 30.51 in1033.2 mb 0.00 in0.0 mm 0.00 in0.0 mm 0.00 in0.0 mm
12:37 PM 28.1°F-2.2°C 18.9°F-7.3°C 68% 2.4 mph WNW3.9 kmh WNW 4.0 mph6.4 kmh 30.50 in1032.8 mb 0.00 in0.0 mm 0.00 in0.0 mm 0.00 in0.0 mm
12:38 PM 28.1°F-2.2°C 18.9°F-7.3°C 68% 3.0 mph NE4.8 kmh NE 4.0 mph6.4 kmh 30.50 in1032.8 mb 0.00 in0.0 mm 0.00 in0.0 mm 0.00 in0.0 mm
12:39 PM 28.1°F-2.2°C 18.9°F-7.3°C 68% 3.7 mph E6.0 kmh E 5.0 mph8.0 kmh 30.50 in1032.8 mb 0.00 in0.0 mm 0.00 in0.0 mm 0.00 in0.0 mm
12:40 PM 28.1°F-2.2°C 18.9°F-7.3°C 68% 5.4 mph E8.7 kmh E 7.0 mph11.3 kmh 30.50 in1032.8 mb 0.00 in0.0 mm 0.00 in0.0 mm 0.00 in0.0 mm
12:41 PM 28.1°F-2.2°C 18.6°F-7.4°C 67% 4.3 mph E6.9 kmh E 7.0 mph11.3 kmh 30.50 in1032.8 mb 0.00 in0.0 mm 0.00 in0.0 mm 0.00 in0.0 mm
12:42 PM 28.1°F-2.2°C 18.6°F-7.4°C 67% 4.6 mph E7.4 kmh E 7.0 mph11.3 kmh 30.50 in1032.8 mb 0.00 in0.0 mm 0.00 in0.0 mm 0.00 in0.0 mm
12:43 PM 28.2°F-2.1°C 18.7°F-7.4°C 67% 3.3 mph E5.3 kmh E 7.0 mph11.3 kmh 30.50 in1032.8 mb 0.00 in0.0 mm 0.00 in0.0 mm 0.00 in0.0 mm
12:44 PM 28.2°F-2.1°C 18.7°F-7.4°C 67% 5.0 mph E8.0 kmh E 7.0 mph11.3 kmh 30.50 in1032.8 mb 0.00 in0.0 mm 0.00 in0.0 mm 0.00 in0.0 mm
12:45 PM 28.2°F-2.1°C 18.7°F-7.4°C 67% 3.9 mph E6.3 kmh E 7.0 mph11.3 kmh 30.50 in1032.8 mb 0.00 in0.0 mm 0.00 in0.0 mm 0.00 in0.0 mm
12:46 PM 28.2°F-2.1°C 18.7°F-7.4°C 67% 7.7 mph E12.4 kmh E 10.0 mph16.1 kmh 30.50 in1032.8 mb 0.00 in0.0 mm 0.00 in0.0 mm 0.00 in0.0 mm
12:47 PM 28.1°F-2.2°C 18.6°F-7.4°C 67% 8.9 mph E14.3 kmh E 10.0 mph16.1 kmh 30.50 in1032.8 mb 0.00 in0.0 mm 0.00 in0.0 mm 0.00 in0.0 mm
12:48 PM 28.1°F-2.2°C 18.6°F-7.4°C 67% 6.7 mph ESE10.8 kmh ESE 10.0 mph16.1 kmh 30.50 in1032.8 mb 0.00 in0.0 mm 0.00 in0.0 mm 0.00 in0.0 mm
12:49 PM 28.1°F-2.2°C 18.6°F-7.4°C 67% 4.3 mph ESE6.9 kmh ESE 8.0 mph12.9 kmh 30.50 in1032.8 mb 0.00 in0.0 mm 0.00 in0.0 mm 0.00 in0.0 mm
12:50 PM 28.1°F-2.2°C 18.6°F-7.4°C 67% 5.9 mph E9.5 kmh E 8.0 mph12.9 kmh 30.50 in1032.8 mb 0.00 in0.0 mm 0.00 in0.0 mm 0.00 in0.0 mm
12:51 PM 28.1°F-2.2°C 18.6°F-7.4°C 67% 8.0 mph E12.9 kmh E 10.0 mph16.1 kmh 30.50 in1032.8 mb 0.00 in0.0 mm 0.00 in0.0 mm 0.00 in0.0 mm
12:52 PM 28.1°F-2.2°C 18.6°F-7.4°C 67% 5.4 mph E8.7 kmh E 10.0 mph16.1 kmh 30.50 in1032.8 mb 0.00 in0.0 mm 0.00 in0.0 mm 0.00 in0.0 mm
12:53 PM 28.1°F-2.2°C 18.6°F-7.4°C 67% 3.7 mph E6.0 kmh E 8.0 mph12.9 kmh 30.50 in1032.8 mb 0.00 in0.0 mm 0.00 in0.0 mm 0.00 in0.0 mm
12:54 PM 28.0°F-2.2°C 18.5°F-7.5°C 67% 6.0 mph E9.7 kmh E 8.0 mph12.9 kmh 30.50 in1032.8 mb 0.00 in0.0 mm 0.00 in0.0 mm 0.00 in0.0 mm
12:55 PM 28.0°F-2.2°C 18.5°F-7.5°C 67% 3.5 mph ESE5.6 kmh ESE 8.0 mph12.9 kmh 30.50 in1032.8 mb 0.00 in0.0 mm 0.00 in0.0 mm 0.00 in0.0 mm
12:56 PM 28.1°F-2.2°C 18.6°F-7.4°C 67% 2.8 mph ESE4.5 kmh ESE 4.0 mph6.4 kmh 30.50 in1032.8 mb 0.00 in0.0 mm 0.00 in0.0 mm 0.00 in0.0 mm
12:57 PM 28.1°F-2.2°C 18.6°F-7.4°C 67% 0.9 mph ESE1.4 kmh ESE 4.0 mph6.4 kmh 30.50 in1032.8 mb 0.00 in0.0 mm 0.00 in0.0 mm 0.00 in0.0 mm
12:58 PM 28.1°F-2.2°C 18.6°F-7.4°C 67% 0.5 mph ESE0.8 kmh ESE 2.0 mph3.2 kmh 30.50 in1032.8 mb 0.00 in0.0 mm 0.00 in0.0 mm 0.00 in0.0 mm
12:59 PM 28.1°F-2.2°C 18.6°F-7.4°C 67% 0.5 mph ESE0.8 kmh ESE 1.0 mph1.6 kmh 30.50 in1032.8 mb 0.00 in0.0 mm 0.00 in0.0 mm 0.00 in0.0 mm
01:00 PM 28.1°F-2.2°C 18.6°F-7.4°C 67% 0.3 mph ESE0.5 kmh ESE 1.0 mph1.6 kmh 30.50 in1032.8 mb 0.00 in0.0 mm 0.00 in0.0 mm 0.00 in0.0 mm
01:01 PM 28.1°F-2.2°C 18.6°F-7.4°C 67% 2.0 mph ESE3.2 kmh ESE 3.0 mph4.8 kmh 30.50 in1032.8 mb 0.00 in0.0 mm 0.00 in0.0 mm 0.00 in0.0 mm
01:02 PM 28.1°F-2.2°C 18.6°F-7.4°C 67% 4.7 mph E7.6 kmh E 8.0 mph12.9 kmh 30.50 in1032.8 mb 0.00 in0.0 mm 0.00 in0.0 mm 0.00 in0.0 mm
01:03 PM 28.1°F-2.2°C 18.6°F-7.4°C 67% 4.7 mph E7.6 kmh E 8.0 mph12.9 kmh 30.50 in1032.8 mb 0.00 in0.0 mm 0.00 in0.0 mm 0.00 in0.0 mm
01:04 PM 28.1°F-2.2°C 18.6°F-7.4°C 67% 3.5 mph E5.6 kmh E 7.0 mph11.3 kmh 30.50 in1032.8 mb 0.00 in0.0 mm 0.00 in0.0 mm 0.00 in0.0 mm
01:05 PM 28.1°F-2.2°C 18.6°F-7.4°C 67% 4.0 mph E6.4 kmh E 7.0 mph11.3 kmh 30.50 in1032.8 mb 0.00 in0.0 mm 0.00 in0.0 mm 0.00 in0.0 mm
01:06 PM 28.1°F-2.2°C 18.6°F-7.4°C 67% 3.5 mph ENE5.6 kmh ENE 5.0 mph8.0 kmh 30.50 in1032.8 mb 0.00 in0.0 mm 0.00 in0.0 mm 0.00 in0.0 mm
01:07 PM 28.1°F-2.2°C 18.6°F-7.4°C 67% 3.3 mph ENE5.3 kmh ENE 4.0 mph6.4 kmh 30.50 in1032.8 mb 0.00 in0.0 mm 0.00 in0.0 mm 0.00 in0.0 mm
01:08 PM 28.1°F-2.2°C 18.6°F-7.4°C 67% 3.2 mph ENE5.1 kmh ENE 4.0 mph6.4 kmh 30.50 in1032.8 mb 0.00 in0.0 mm 0.00 in0.0 mm 0.00 in0.0 mm
01:09 PM 28.1°F-2.2°C 18.6°F-7.4°C 67% 2.3 mph E3.7 kmh E 4.0 mph6.4 kmh 30.50 in1032.8 mb 0.00 in0.0 mm 0.00 in0.0 mm 0.00 in0.0 mm
01:10 PM 28.1°F-2.2°C 18.6°F-7.4°C 67% 4.6 mph SE7.4 kmh SE 7.0 mph11.3 kmh 30.50 in1032.8 mb 0.00 in0.0 mm 0.00 in0.0 mm 0.00 in0.0 mm
01:11 PM 28.1°F-2.2°C 18.6°F-7.4°C 67% 5.3 mph ESE8.5 kmh ESE 7.0 mph11.3 kmh 30.50 in1032.8 mb 0.00 in0.0 mm 0.00 in0.0 mm 0.00 in0.0 mm
01:12 PM 28.1°F-2.2°C 18.6°F-7.4°C 67% 5.6 mph ESE9.0 kmh ESE 7.0 mph11.3 kmh 30.50 in1032.8 mb 0.00 in0.0 mm 0.00 in0.0 mm 0.00 in0.0 mm
01:13 PM 28.2°F-2.1°C 18.7°F-7.4°C 67% 4.4 mph ESE7.1 kmh ESE 7.0 mph11.3 kmh 30.50 in1032.8 mb 0.00 in0.0 mm 0.00 in0.0 mm 0.00 in0.0 mm
01:14 PM 28.1°F-2.2°C 18.6°F-7.4°C 67% 4.2 mph E6.8 kmh E 7.0 mph11.3 kmh 30.50 in1032.8 mb 0.00 in0.0 mm 0.00 in0.0 mm 0.00 in0.0 mm
01:15 PM 28.1°F-2.2°C 18.6°F-7.4°C 67% 4.6 mph E7.4 kmh E 7.0 mph11.3 kmh 30.50 in1032.8 mb 0.00 in0.0 mm 0.00 in0.0 mm 0.00 in0.0 mm
01:16 PM 28.1°F-2.2°C 18.6°F-7.4°C 67% 5.5 mph E8.9 kmh E 7.0 mph11.3 kmh 30.50 in1032.8 mb 0.00 in0.0 mm 0.00 in0.0 mm 0.00 in0.0 mm
01:17 PM 28.1°F-2.2°C 18.6°F-7.4°C 67% 5.0 mph E8.0 kmh E 7.0 mph11.3 kmh 30.50 in1032.8 mb 0.00 in0.0 mm 0.00 in0.0 mm 0.00 in0.0 mm
01:18 PM 28.1°F-2.2°C 18.6°F-7.4°C 67% 7.0 mph ESE11.3 kmh ESE 10.0 mph16.1 kmh 30.50 in1032.8 mb 0.00 in0.0 mm 0.00 in0.0 mm 0.00 in0.0 mm
01:19 PM 28.1°F-2.2°C 18.6°F-7.4°C 67% 7.3 mph ESE11.7 kmh ESE 10.0 mph16.1 kmh 30.50 in1032.8 mb 0.00 in0.0 mm 0.00 in0.0 mm 0.00 in0.0 mm
01:20 PM 28.1°F-2.2°C 18.6°F-7.4°C 67% 4.5 mph SE7.2 kmh SE 9.0 mph14.5 kmh 30.50 in1032.8 mb 0.00 in0.0 mm 0.00 in0.0 mm 0.00 in0.0 mm
01:21 PM 28.1°F-2.2°C 18.6°F-7.4°C 67% 4.2 mph SE6.8 kmh SE 7.0 mph11.3 kmh 30.50 in1032.8 mb 0.00 in0.0 mm 0.00 in0.0 mm 0.00 in0.0 mm
01:22 PM 28.1°F-2.2°C 18.6°F-7.4°C 67% 3.5 mph SE5.6 kmh SE 5.0 mph8.0 kmh 30.50 in1032.8 mb 0.00 in0.0 mm 0.00 in0.0 mm 0.00 in0.0 mm
01:23 PM 28.1°F-2.2°C 18.2°F-7.7°C 66% 4.1 mph SE6.6 kmh SE 5.0 mph8.0 kmh 30.49 in1032.5 mb 0.00 in0.0 mm 0.00 in0.0 mm 0.00 in0.0 mm
01:24 PM 28.1°F-2.2°C 18.6°F-7.4°C 67% 4.2 mph SE6.8 kmh SE 5.0 mph8.0 kmh 30.49 in1032.5 mb 0.00 in0.0 mm 0.00 in0.0 mm 0.00 in0.0 mm
01:25 PM 28.1°F-2.2°C 18.6°F-7.4°C 67% 4.5 mph SE7.2 kmh SE 7.0 mph11.3 kmh 30.49 in1032.5 mb 0.00 in0.0 mm 0.00 in0.0 mm 0.00 in0.0 mm
01:26 PM 28.1°F-2.2°C 18.6°F-7.4°C 67% 3.7 mph ESE6.0 kmh ESE 7.0 mph11.3 kmh 30.50 in1032.8 mb 0.00 in0.0 mm 0.00 in0.0 mm 0.00 in0.0 mm
01:27 PM 28.1°F-2.2°C 18.2°F-7.7°C 66% 2.3 mph ESE3.7 kmh ESE 4.0 mph6.4 kmh 30.50 in1032.8 mb 0.00 in0.0 mm 0.00 in0.0 mm 0.00 in0.0 mm
01:28 PM 28.0°F-2.2°C 18.1°F-7.7°C 66% 1.3 mph ESE2.1 kmh ESE 3.0 mph4.8 kmh 30.50 in1032.8 mb 0.00 in0.0 mm 0.00 in0.0 mm 0.00 in0.0 mm
01:29 PM 28.1°F-2.2°C 18.2°F-7.7°C 66% 2.4 mph E3.9 kmh E 4.0 mph6.4 kmh 30.49 in1032.5 mb 0.00 in0.0 mm 0.00 in0.0 mm 0.00 in0.0 mm
01:30 PM 28.1°F-2.2°C 18.2°F-7.7°C 66% 1.8 mph E2.9 kmh E 4.0 mph6.4 kmh 30.49 in1032.5 mb 0.00 in0.0 mm 0.00 in0.0 mm 0.00 in0.0 mm
01:31 PM 28.1°F-2.2°C 18.2°F-7.7°C 66% 2.3 mph E3.7 kmh E 3.0 mph4.8 kmh 30.49 in1032.5 mb 0.00 in0.0 mm 0.00 in0.0 mm 0.00 in0.0 mm
01:32 PM 28.1°F-2.2°C 18.6°F-7.4°C 67% 2.2 mph E3.5 kmh E 3.0 mph4.8 kmh 30.49 in1032.5 mb 0.00 in0.0 mm 0.00 in0.0 mm 0.00 in0.0 mm
01:33 PM 28.1°F-2.2°C 18.6°F-7.4°C 67% 2.1 mph E3.4 kmh E 3.0 mph4.8 kmh 30.49 in1032.5 mb 0.00 in0.0 mm 0.00 in0.0 mm 0.00 in0.0 mm
01:34 PM 28.2°F-2.1°C 18.7°F-7.4°C 67% 1.8 mph E2.9 kmh E 3.0 mph4.8 kmh 30.49 in1032.5 mb 0.00 in0.0 mm 0.00 in0.0 mm 0.00 in0.0 mm
01:35 PM 28.2°F-2.1°C 18.3°F-7.6°C 66% 1.3 mph ESE2.1 kmh ESE 3.0 mph4.8 kmh 30.49 in1032.5 mb 0.00 in0.0 mm 0.00 in0.0 mm 0.00 in0.0 mm
01:36 PM 28.2°F-2.1°C 18.3°F-7.6°C 66% 1.5 mph SSE2.4 kmh SSE 2.0 mph3.2 kmh 30.49 in1032.5 mb 0.00 in0.0 mm 0.00 in0.0 mm 0.00 in0.0 mm
01:37 PM 28.2°F-2.1°C 18.3°F-7.6°C 66% 1.5 mph SSE2.4 kmh SSE 2.0 mph3.2 kmh 30.49 in1032.5 mb 0.00 in0.0 mm 0.00 in0.0 mm 0.00 in0.0 mm
01:38 PM 28.2°F-2.1°C 18.3°F-7.6°C 66% 2.1 mph S3.4 kmh S 4.0 mph6.4 kmh 30.49 in1032.5 mb 0.00 in0.0 mm 0.00 in0.0 mm 0.00 in0.0 mm
01:39 PM 28.2°F-2.1°C 18.7°F-7.4°C 67% 1.0 mph S1.6 kmh S 4.0 mph6.4 kmh 30.49 in1032.5 mb 0.00 in0.0 mm 0.00 in0.0 mm 0.00 in0.0 mm
01:40 PM 28.2°F-2.1°C 18.7°F-7.4°C 67% 1.1 mph S1.8 kmh S 2.0 mph3.2 kmh 30.49 in1032.5 mb 0.00 in0.0 mm 0.00 in0.0 mm 0.00 in0.0 mm
01:41 PM 28.2°F-2.1°C 18.7°F-7.4°C 67% 2.8 mph SSE4.5 kmh SSE 6.0 mph9.7 kmh 30.49 in1032.5 mb 0.00 in0.0 mm 0.00 in0.0 mm 0.00 in0.0 mm
01:42 PM 28.2°F-2.1°C 18.7°F-7.4°C 67% 5.0 mph SSE8.0 kmh SSE 6.0 mph9.7 kmh 30.49 in1032.5 mb 0.00 in0.0 mm 0.00 in0.0 mm 0.00 in0.0 mm
01:43 PM 28.2°F-2.1°C 18.7°F-7.4°C 67% 5.5 mph SE8.9 kmh SE 8.0 mph12.9 kmh 30.49 in1032.5 mb 0.00 in0.0 mm 0.00 in0.0 mm 0.00 in0.0 mm
01:44 PM 28.2°F-2.1°C 18.7°F-7.4°C 67% 2.4 mph SE3.9 kmh SE 8.0 mph12.9 kmh 30.49 in1032.5 mb 0.00 in0.0 mm 0.00 in0.0 mm 0.00 in0.0 mm
01:45 PM 28.2°F-2.1°C 18.3°F-7.6°C 66% 4.8 mph SSE7.7 kmh SSE 8.0 mph12.9 kmh 30.49 in1032.5 mb 0.00 in0.0 mm 0.00 in0.0 mm 0.00 in0.0 mm
01:46 PM 28.2°F-2.1°C 18.3°F-7.6°C 66% 2.8 mph SE4.5 kmh SE 8.0 mph12.9 kmh 30.49 in1032.5 mb 0.00 in0.0 mm 0.00 in0.0 mm 0.00 in0.0 mm
01:47 PM 28.2°F-2.1°C 18.3°F-7.6°C 66% 3.4 mph SE5.5 kmh SE 5.0 mph8.0 kmh 30.49 in1032.5 mb 0.00 in0.0 mm 0.00 in0.0 mm 0.00 in0.0 mm
01:48 PM 28.2°F-2.1°C 18.7°F-7.4°C 67% 1.5 mph SE2.4 kmh SE 5.0 mph8.0 kmh 30.49 in1032.5 mb 0.00 in0.0 mm 0.00 in0.0 mm 0.00 in0.0 mm
01:49 PM 28.1°F-2.2°C 18.6°F-7.4°C 67% 0.3 mph SSE0.5 kmh SSE 2.0 mph3.2 kmh 30.49 in1032.5 mb 0.00 in0.0 mm 0.00 in0.0 mm 0.00 in0.0 mm
01:50 PM 28.1°F-2.2°C 18.2°F-7.7°C 66% 0.4 mph SSE0.6 kmh SSE 1.0 mph1.6 kmh 30.49 in1032.5 mb 0.00 in0.0 mm 0.00 in0.0 mm 0.00 in0.0 mm
01:51 PM 28.1°F-2.2°C 18.6°F-7.4°C 67% 0.2 mph SSE0.3 kmh SSE 1.0 mph1.6 kmh 30.49 in1032.5 mb 0.00 in0.0 mm 0.00 in0.0 mm 0.00 in0.0 mm
01:52 PM 28.1°F-2.2°C 18.6°F-7.4°C 67% 0.4 mph SSE0.6 kmh SSE 1.0 mph1.6 kmh 30.49 in1032.5 mb 0.00 in0.0 mm 0.00 in0.0 mm 0.00 in0.0 mm
01:53 PM 28.1°F-2.2°C 18.6°F-7.4°C 67% Calm Calm 1.0 mph1.6 kmh 30.49 in1032.5 mb 0.00 in0.0 mm 0.00 in0.0 mm 0.00 in0.0 mm
01:54 PM 28.1°F-2.2°C 18.6°F-7.4°C 67% 0.6 mph SSE1.0 kmh SSE 2.0 mph3.2 kmh 30.49 in1032.5 mb 0.00 in0.0 mm 0.00 in0.0 mm 0.00 in0.0 mm
01:55 PM 28.2°F-2.1°C 18.3°F-7.6°C 66% 2.6 mph SSE4.2 kmh SSE 3.0 mph4.8 kmh 30.49 in1032.5 mb 0.00 in0.0 mm 0.00 in0.0 mm 0.00 in0.0 mm
01:56 PM 28.1°F-2.2°C 18.2°F-7.7°C 66% 0.8 mph SSE1.3 kmh SSE 3.0 mph4.8 kmh 30.49 in1032.5 mb 0.00 in0.0 mm 0.00 in0.0 mm 0.00 in0.0 mm
01:57 PM 28.1°F-2.2°C 18.2°F-7.7°C 66% 0.6 mph SSE1.0 kmh SSE 2.0 mph3.2 kmh 30.49 in1032.5 mb 0.00 in0.0 mm 0.00 in0.0 mm 0.00 in0.0 mm
01:58 PM 28.1°F-2.2°C 18.2°F-7.7°C 66% 0.9 mph SSE1.4 kmh SSE 2.0 mph3.2 kmh 30.49 in1032.5 mb 0.00 in0.0 mm 0.00 in0.0 mm 0.00 in0.0 mm
01:59 PM 28.1°F-2.2°C 18.2°F-7.7°C 66% 1.9 mph SE3.1 kmh SE 3.0 mph4.8 kmh 30.48 in1032.2 mb 0.00 in0.0 mm 0.00 in0.0 mm 0.00 in0.0 mm
02:00 PM 28.1°F-2.2°C 18.2°F-7.7°C 66% 2.3 mph ESE3.7 kmh ESE 3.0 mph4.8 kmh 30.48 in1032.2 mb 0.00 in0.0 mm 0.00 in0.0 mm 0.00 in0.0 mm
02:01 PM 28.1°F-2.2°C 18.2°F-7.7°C 66% 4.5 mph SE7.2 kmh SE 6.0 mph9.7 kmh 30.48 in1032.2 mb 0.00 in0.0 mm 0.00 in0.0 mm 0.00 in0.0 mm
02:02 PM 28.0°F-2.2°C 18.1°F-7.7°C 66% 4.6 mph S7.4 kmh S 6.0 mph9.7 kmh 30.48 in1032.2 mb 0.00 in0.0 mm 0.00 in0.0 mm 0.00 in0.0 mm
02:03 PM 28.1°F-2.2°C 18.2°F-7.7°C 66% 2.0 mph S3.2 kmh S 6.0 mph9.7 kmh 30.48 in1032.2 mb 0.00 in0.0 mm 0.00 in0.0 mm 0.00 in0.0 mm
02:04 PM 28.1°F-2.2°C 18.2°F-7.7°C 66% 0.7 mph S1.1 kmh S 4.0 mph6.4 kmh 30.48 in1032.2 mb 0.00 in0.0 mm 0.00 in0.0 mm 0.00 in0.0 mm
02:05 PM 28.0°F-2.2°C 18.1°F-7.7°C 66% 1.9 mph SW3.1 kmh SW 3.0 mph4.8 kmh 30.48 in1032.2 mb 0.00 in0.0 mm 0.00 in0.0 mm 0.00 in0.0 mm
02:06 PM 28.1°F-2.2°C 18.2°F-7.7°C 66% 2.0 mph SW3.2 kmh SW 4.0 mph6.4 kmh 30.48 in1032.2 mb 0.00 in0.0 mm 0.00 in0.0 mm 0.00 in0.0 mm
02:07 PM 28.0°F-2.2°C 18.1°F-7.7°C 66% 2.7 mph S4.3 kmh S 4.0 mph6.4 kmh 30.48 in1032.2 mb 0.00 in0.0 mm 0.00 in0.0 mm 0.00 in0.0 mm
02:08 PM 27.9°F-2.3°C 18.0°F-7.8°C 66% 4.5 mph S7.2 kmh S 6.0 mph9.7 kmh 30.48 in1032.2 mb 0.00 in0.0 mm 0.00 in0.0 mm 0.00 in0.0 mm
02:09 PM 28.0°F-2.2°C 18.1°F-7.7°C 66% 4.4 mph S7.1 kmh S 6.0 mph9.7 kmh 30.48 in1032.2 mb 0.00 in0.0 mm 0.00 in0.0 mm 0.00 in0.0 mm
02:10 PM 27.9°F-2.3°C 17.7°F-7.9°C 65% 4.9 mph SSW7.9 kmh SSW 7.0 mph11.3 kmh 30.48 in1032.2 mb 0.00 in0.0 mm 0.00 in0.0 mm 0.00 in0.0 mm
02:11 PM 28.0°F-2.2°C 17.8°F-7.9°C 65% 5.2 mph SSW8.4 kmh SSW 7.0 mph11.3 kmh 30.48 in1032.2 mb 0.00 in0.0 mm 0.00 in0.0 mm 0.00 in0.0 mm
02:12 PM 27.9°F-2.3°C 17.7°F-7.9°C 65% 5.1 mph S8.2 kmh S 7.0 mph11.3 kmh 30.48 in1032.2 mb 0.00 in0.0 mm 0.00 in0.0 mm 0.00 in0.0 mm
02:13 PM 27.9°F-2.3°C 18.0°F-7.8°C 66% 4.5 mph S7.2 kmh S 6.0 mph9.7 kmh 30.48 in1032.2 mb 0.00 in0.0 mm 0.00 in0.0 mm 0.00 in0.0 mm
02:14 PM 28.0°F-2.2°C 18.1°F-7.7°C 66% 4.5 mph S7.2 kmh S 6.0 mph9.7 kmh 30.48 in1032.2 mb 0.00 in0.0 mm 0.00 in0.0 mm 0.00 in0.0 mm
02:15 PM 28.0°F-2.2°C 17.8°F-7.9°C 65% 4.3 mph S6.9 kmh S 6.0 mph9.7 kmh 30.48 in1032.2 mb 0.00 in0.0 mm 0.00 in0.0 mm 0.00 in0.0 mm
02:16 PM 27.9°F-2.3°C 18.0°F-7.8°C 66% 2.7 mph S4.3 kmh S 6.0 mph9.7 kmh 30.48 in1032.2 mb 0.00 in0.0 mm 0.00 in0.0 mm 0.00 in0.0 mm
02:17 PM 27.9°F-2.3°C 18.0°F-7.8°C 66% 3.1 mph S5.0 kmh S 4.0 mph6.4 kmh 30.48 in1032.2 mb 0.00 in0.0 mm 0.00 in0.0 mm 0.00 in0.0 mm
02:18 PM 28.0°F-2.2°C 18.1°F-7.7°C 66% 3.2 mph SSE5.1 kmh SSE 4.0 mph6.4 kmh 30.48 in1032.2 mb 0.00 in0.0 mm 0.00 in0.0 mm 0.00 in0.0 mm
02:19 PM 28.0°F-2.2°C 18.1°F-7.7°C 66% 2.6 mph SSE4.2 kmh SSE 4.0 mph6.4 kmh 30.48 in1032.2 mb 0.00 in0.0 mm 0.00 in0.0 mm 0.00 in0.0 mm
02:20 PM 28.0°F-2.2°C 18.1°F-7.7°C 66% 1.9 mph SSE3.1 kmh SSE 4.0 mph6.4 kmh 30.48 in1032.2 mb 0.00 in0.0 mm 0.00 in0.0 mm 0.00 in0.0 mm
02:21 PM 28.0°F-2.2°C 18.1°F-7.7°C 66% 2.3 mph SSE3.7 kmh SSE 4.0 mph6.4 kmh 30.48 in1032.2 mb 0.00 in0.0 mm 0.00 in0.0 mm 0.00 in0.0 mm
02:22 PM 28.0°F-2.2°C 18.1°F-7.7°C 66% 3.6 mph S5.8 kmh S 6.0 mph9.7 kmh 30.48 in1032.2 mb 0.00 in0.0 mm 0.00 in0.0 mm 0.00 in0.0 mm
02:23 PM 28.0°F-2.2°C 18.1°F-7.7°C 66% 3.8 mph S6.1 kmh S 6.0 mph9.7 kmh 30.48 in1032.2 mb 0.00 in0.0 mm 0.00 in0.0 mm 0.00 in0.0 mm
02:24 PM 28.1°F-2.2°C 18.2°F-7.7°C 66% 3.7 mph S6.0 kmh S 6.0 mph9.7 kmh 30.48 in1032.2 mb 0.00 in0.0 mm 0.00 in0.0 mm 0.00 in0.0 mm
02:25 PM 28.1°F-2.2°C 18.2°F-7.7°C 66% 5.1 mph SSE8.2 kmh SSE 6.0 mph9.7 kmh 30.48 in1032.2 mb 0.00 in0.0 mm 0.00 in0.0 mm 0.00 in0.0 mm
02:26 PM 28.1°F-2.2°C 18.2°F-7.7°C 66% 6.0 mph SSE9.7 kmh SSE 7.0 mph11.3 kmh 30.48 in1032.2 mb 0.00 in0.0 mm 0.00 in0.0 mm 0.00 in0.0 mm
02:27 PM 28.0°F-2.2°C 17.8°F-7.9°C 65% 4.5 mph SE7.2 kmh SE 7.0 mph11.3 kmh 30.48 in1032.2 mb 0.00 in0.0 mm 0.00 in0.0 mm 0.00 in0.0 mm
02:28 PM 28.1°F-2.2°C 17.9°F-7.8°C 65% 2.9 mph SE4.7 kmh SE 7.0 mph11.3 kmh 30.48 in1032.2 mb 0.00 in0.0 mm 0.00 in0.0 mm 0.00 in0.0 mm
02:29 PM 28.0°F-2.2°C 17.8°F-7.9°C 65% 4.2 mph SSE6.8 kmh SSE 6.0 mph9.7 kmh 30.48 in1032.2 mb 0.00 in0.0 mm 0.00 in0.0 mm 0.00 in0.0 mm
02:30 PM 28.1°F-2.2°C 17.9°F-7.8°C 65% 3.7 mph S6.0 kmh S 6.0 mph9.7 kmh 30.48 in1032.2 mb 0.00 in0.0 mm 0.00 in0.0 mm 0.00 in0.0 mm
02:31 PM 28.0°F-2.2°C 17.8°F-7.9°C 65% 2.6 mph S4.2 kmh S 6.0 mph9.7 kmh 30.48 in1032.2 mb 0.00 in0.0 mm 0.00 in0.0 mm 0.00 in0.0 mm
02:32 PM 27.9°F-2.3°C 17.7°F-7.9°C 65% 4.1 mph SSW6.6 kmh SSW 6.0 mph9.7 kmh 30.48 in1032.2 mb 0.00 in0.0 mm 0.00 in0.0 mm 0.00 in0.0 mm
02:33 PM 27.9°F-2.3°C 17.7°F-7.9°C 65% 3.5 mph SSW5.6 kmh SSW 6.0 mph9.7 kmh 30.48 in1032.2 mb 0.00 in0.0 mm 0.00 in0.0 mm 0.00 in0.0 mm
02:34 PM 27.9°F-2.3°C 17.7°F-7.9°C 65% 1.2 mph SSW1.9 kmh SSW 5.0 mph8.0 kmh 30.48 in1032.2 mb 0.00 in0.0 mm 0.00 in0.0 mm 0.00 in0.0 mm
02:35 PM 27.9°F-2.3°C 18.0°F-7.8°C 66% 1.0 mph SSW1.6 kmh SSW 2.0 mph3.2 kmh 30.48 in1032.2 mb 0.00 in0.0 mm 0.00 in0.0 mm 0.00 in0.0 mm
02:36 PM 27.9°F-2.3°C 18.0°F-7.8°C 66% 1.8 mph SSW2.9 kmh SSW 3.0 mph4.8 kmh 30.47 in1031.8 mb 0.00 in0.0 mm 0.00 in0.0 mm 0.00 in0.0 mm
02:37 PM 27.9°F-2.3°C 18.0°F-7.8°C 66% 1.0 mph SSW1.6 kmh SSW 3.0 mph4.8 kmh 30.47 in1031.8 mb 0.00 in0.0 mm 0.00 in0.0 mm 0.00 in0.0 mm
02:38 PM 27.9°F-2.3°C 18.0°F-7.8°C 66% 1.2 mph SSW1.9 kmh SSW 2.0 mph3.2 kmh 30.47 in1031.8 mb 0.00 in0.0 mm 0.00 in0.0 mm 0.00 in0.0 mm
02:39 PM 27.9°F-2.3°C 18.0°F-7.8°C 66% 0.3 mph SSW0.5 kmh SSW 2.0 mph3.2 kmh 30.47 in1031.8 mb 0.00 in0.0 mm 0.00 in0.0 mm 0.00 in0.0 mm
02:40 PM 28.0°F-2.2°C 18.1°F-7.7°C 66% 0.7 mph SSW1.1 kmh SSW 2.0 mph3.2 kmh 30.47 in1031.8 mb 0.00 in0.0 mm 0.00 in0.0 mm 0.00 in0.0 mm
02:41 PM 28.0°F-2.2°C 18.1°F-7.7°C 66% 1.4 mph SSW2.3 kmh SSW 2.0 mph3.2 kmh 30.47 in1031.8 mb 0.00 in0.0 mm 0.00 in0.0 mm 0.00 in0.0 mm
02:42 PM 28.0°F-2.2°C 18.5°F-7.5°C 67% 1.8 mph SSW2.9 kmh SSW 3.0 mph4.8 kmh 30.47 in1031.8 mb 0.00 in0.0 mm 0.00 in0.0 mm 0.00 in0.0 mm
02:43 PM 28.0°F-2.2°C 18.1°F-7.7°C 66% 1.8 mph SW2.9 kmh SW 3.0 mph4.8 kmh 30.47 in1031.8 mb 0.00 in0.0 mm 0.00 in0.0 mm 0.00 in0.0 mm
02:44 PM 28.0°F-2.2°C 18.1°F-7.7°C 66% 1.4 mph SW2.3 kmh SW 2.0 mph3.2 kmh 30.47 in1031.8 mb 0.00 in0.0 mm 0.00 in0.0 mm 0.00 in0.0 mm
02:45 PM 28.0°F-2.2°C 18.1°F-7.7°C 66% 0.4 mph SW0.6 kmh SW 2.0 mph3.2 kmh 30.47 in1031.8 mb 0.00 in0.0 mm 0.00 in0.0 mm 0.00 in0.0 mm
02:46 PM 28.0°F-2.2°C 18.1°F-7.7°C 66% 0.5 mph SW0.8 kmh SW 2.0 mph3.2 kmh 30.47 in1031.8 mb 0.00 in0.0 mm 0.00 in0.0 mm 0.00 in0.0 mm
02:47 PM 28.1°F-2.2°C 18.2°F-7.7°C 66% 1.9 mph S3.1 kmh S 3.0 mph4.8 kmh 30.47 in1031.8 mb 0.00 in0.0 mm 0.00 in0.0 mm 0.00 in0.0 mm
02:48 PM 28.1°F-2.2°C 18.2°F-7.7°C 66% 2.8 mph SE4.5 kmh SE 5.0 mph8.0 kmh 30.47 in1031.8 mb 0.00 in0.0 mm 0.00 in0.0 mm 0.00 in0.0 mm
02:49 PM 28.1°F-2.2°C 18.2°F-7.7°C 66% 3.6 mph S5.8 kmh S 6.0 mph9.7 kmh 30.47 in1031.8 mb 0.00 in0.0 mm 0.00 in0.0 mm 0.00 in0.0 mm
02:50 PM 28.1°F-2.2°C 18.2°F-7.7°C 66% 2.3 mph S3.7 kmh S 6.0 mph9.7 kmh 30.46 in1031.5 mb 0.00 in0.0 mm 0.00 in0.0 mm 0.00 in0.0 mm
02:51 PM 28.1°F-2.2°C 18.2°F-7.7°C 66% 1.2 mph S1.9 kmh S 3.0 mph4.8 kmh 30.46 in1031.5 mb 0.00 in0.0 mm 0.00 in0.0 mm 0.00 in0.0 mm
02:52 PM 28.1°F-2.2°C 18.2°F-7.7°C 66% 1.2 mph S1.9 kmh S 2.0 mph3.2 kmh 30.46 in1031.5 mb 0.00 in0.0 mm 0.00 in0.0 mm 0.00 in0.0 mm
02:53 PM 28.1°F-2.2°C 18.2°F-7.7°C 66% 0.8 mph S1.3 kmh S 2.0 mph3.2 kmh 30.46 in1031.5 mb 0.00 in0.0 mm 0.00 in0.0 mm 0.00 in0.0 mm
02:54 PM 28.1°F-2.2°C 18.2°F-7.7°C 66% 0.7 mph S1.1 kmh S 2.0 mph3.2 kmh 30.46 in1031.5 mb 0.00 in0.0 mm 0.00 in0.0 mm 0.00 in0.0 mm
02:55 PM 28.1°F-2.2°C 18.2°F-7.7°C 66% 4.1 mph S6.6 kmh S 6.0 mph9.7 kmh 30.46 in1031.5 mb 0.00 in0.0 mm 0.00 in0.0 mm 0.00 in0.0 mm
02:56 PM 28.1°F-2.2°C 18.2°F-7.7°C 66% 4.7 mph SSE7.6 kmh SSE 6.0 mph9.7 kmh 30.46 in1031.5 mb 0.00 in0.0 mm 0.00 in0.0 mm 0.00 in0.0 mm
02:57 PM 28.1°F-2.2°C 18.2°F-7.7°C 66% 4.1 mph SSE6.6 kmh SSE 6.0 mph9.7 kmh 30.46 in1031.5 mb 0.00 in0.0 mm 0.00 in0.0 mm 0.00 in0.0 mm
02:58 PM 28.1°F-2.2°C 18.2°F-7.7°C 66% 2.2 mph SSE3.5 kmh SSE 6.0 mph9.7 kmh 30.46 in1031.5 mb 0.00 in0.0 mm 0.00 in0.0 mm 0.00 in0.0 mm
02:59 PM 28.1°F-2.2°C 18.2°F-7.7°C 66% 2.0 mph SSE3.2 kmh SSE 3.0 mph4.8 kmh 30.46 in1031.5 mb 0.00 in0.0 mm 0.00 in0.0 mm 0.00 in0.0 mm
03:00 PM 28.1°F-2.2°C 18.2°F-7.7°C 66% 2.5 mph SSE4.0 kmh SSE 3.0 mph4.8 kmh 30.46 in1031.5 mb 0.00 in0.0 mm 0.00 in0.0 mm 0.00 in0.0 mm
03:01 PM 28.1°F-2.2°C 18.2°F-7.7°C 66% 3.5 mph S5.6 kmh S 5.0 mph8.0 kmh 30.46 in1031.5 mb 0.00 in0.0 mm 0.00 in0.0 mm 0.00 in0.0 mm
03:02 PM 28.1°F-2.2°C 18.2°F-7.7°C 66% 3.3 mph S5.3 kmh S 5.0 mph8.0 kmh 30.46 in1031.5 mb 0.00 in0.0 mm 0.00 in0.0 mm 0.00 in0.0 mm
03:03 PM 28.1°F-2.2°C 18.2°F-7.7°C 66% 3.2 mph S5.1 kmh S 5.0 mph8.0 kmh 30.46 in1031.5 mb 0.00 in0.0 mm 0.00 in0.0 mm 0.00 in0.0 mm
03:04 PM 28.0°F-2.2°C 18.1°F-7.7°C 66% 4.6 mph S7.4 kmh S 6.0 mph9.7 kmh 30.46 in1031.5 mb 0.00 in0.0 mm 0.00 in0.0 mm 0.00 in0.0 mm
03:05 PM 28.0°F-2.2°C 18.1°F-7.7°C 66% 4.2 mph S6.8 kmh S 6.0 mph9.7 kmh 30.46 in1031.5 mb 0.00 in0.0 mm 0.00 in0.0 mm 0.00 in0.0 mm
03:06 PM 28.0°F-2.2°C 18.1°F-7.7°C 66% 3.8 mph S6.1 kmh S 5.0 mph8.0 kmh 30.46 in1031.5 mb 0.00 in0.0 mm 0.00 in0.0 mm 0.00 in0.0 mm
03:07 PM 28.0°F-2.2°C 18.1°F-7.7°C 66% 3.4 mph S5.5 kmh S 5.0 mph8.0 kmh 30.46 in1031.5 mb 0.00 in0.0 mm 0.00 in0.0 mm 0.00 in0.0 mm
03:08 PM 28.0°F-2.2°C 18.1°F-7.7°C 66% 1.4 mph S2.3 kmh S 4.0 mph6.4 kmh 30.46 in1031.5 mb 0.00 in0.0 mm 0.00 in0.0 mm 0.00 in0.0 mm
03:09 PM 28.0°F-2.2°C 18.1°F-7.7°C 66% 3.3 mph S5.3 kmh S 4.0 mph6.4 kmh 30.46 in1031.5 mb 0.00 in0.0 mm 0.00 in0.0 mm 0.00 in0.0 mm
03:10 PM 28.1°F-2.2°C 18.2°F-7.7°C 66% 4.0 mph SSE6.4 kmh SSE 6.0 mph9.7 kmh 30.46 in1031.5 mb 0.00 in0.0 mm 0.00 in0.0 mm 0.00 in0.0 mm
03:11 PM 28.0°F-2.2°C 18.1°F-7.7°C 66% 1.7 mph SSE2.7 kmh SSE 6.0 mph9.7 kmh 30.46 in1031.5 mb 0.00 in0.0 mm 0.00 in0.0 mm 0.00 in0.0 mm
03:12 PM 28.0°F-2.2°C 18.1°F-7.7°C 66% 3.2 mph SSE5.1 kmh SSE 4.0 mph6.4 kmh 30.46 in1031.5 mb 0.00 in0.0 mm 0.00 in0.0 mm 0.00 in0.0 mm
03:13 PM 28.0°F-2.2°C 18.1°F-7.7°C 66% 3.6 mph S5.8 kmh S 5.0 mph8.0 kmh 30.46 in1031.5 mb 0.00 in0.0 mm 0.00 in0.0 mm 0.00 in0.0 mm
03:14 PM 28.0°F-2.2°C 18.1°F-7.7°C 66% 3.9 mph S6.3 kmh S 5.0 mph8.0 kmh 30.46 in1031.5 mb 0.00 in0.0 mm 0.00 in0.0 mm 0.00 in0.0 mm
03:15 PM 28.0°F-2.2°C 18.1°F-7.7°C 66% 2.7 mph S4.3 kmh S 5.0 mph8.0 kmh 30.46 in1031.5 mb 0.00 in0.0 mm 0.00 in0.0 mm 0.00 in0.0 mm
03:16 PM 28.0°F-2.2°C 18.1°F-7.7°C 66% 3.8 mph S6.1 kmh S 5.0 mph8.0 kmh 30.46 in1031.5 mb 0.00 in0.0 mm 0.00 in0.0 mm 0.00 in0.0 mm
03:17 PM 27.9°F-2.3°C 18.0°F-7.8°C 66% 3.8 mph S6.1 kmh S 6.0 mph9.7 kmh 30.46 in1031.5 mb 0.00 in0.0 mm 0.00 in0.0 mm 0.00 in0.0 mm
03:18 PM 28.0°F-2.2°C 17.8°F-7.9°C 65% 4.0 mph SSE6.4 kmh SSE 6.0 mph9.7 kmh 30.46 in1031.5 mb 0.00 in0.0 mm 0.00 in0.0 mm 0.00 in0.0 mm
03:19 PM 28.0°F-2.2°C 18.1°F-7.7°C 66% 3.2 mph SSE5.1 kmh SSE 6.0 mph9.7 kmh 30.46 in1031.5 mb 0.00 in0.0 mm 0.00 in0.0 mm 0.00 in0.0 mm
03:20 PM 27.9°F-2.3°C 18.0°F-7.8°C 66% 4.3 mph SSE6.9 kmh SSE 6.0 mph9.7 kmh 30.46 in1031.5 mb 0.00 in0.0 mm 0.00 in0.0 mm 0.00 in0.0 mm
03:21 PM 27.9°F-2.3°C 18.0°F-7.8°C 66% 4.5 mph SSE7.2 kmh SSE 6.0 mph9.7 kmh 30.46 in1031.5 mb 0.00 in0.0 mm 0.00 in0.0 mm 0.00 in0.0 mm
03:22 PM 27.9°F-2.3°C 18.0°F-7.8°C 66% 2.0 mph SSE3.2 kmh SSE 5.0 mph8.0 kmh 30.46 in1031.5 mb 0.00 in0.0 mm 0.00 in0.0 mm 0.00 in0.0 mm
03:23 PM 27.9°F-2.3°C 18.0°F-7.8°C 66% 3.6 mph SSE5.8 kmh SSE 5.0 mph8.0 kmh 30.46 in1031.5 mb 0.00 in0.0 mm 0.00 in0.0 mm 0.00 in0.0 mm
03:24 PM 27.9°F-2.3°C 18.0°F-7.8°C 66% 3.5 mph SSE5.6 kmh SSE 5.0 mph8.0 kmh 30.45 in1031.2 mb 0.00 in0.0 mm 0.00 in0.0 mm 0.00 in0.0 mm
03:25 PM 27.9°F-2.3°C 18.0°F-7.8°C 66% 4.5 mph SSE7.2 kmh SSE 6.0 mph9.7 kmh 30.45 in1031.2 mb 0.00 in0.0 mm 0.00 in0.0 mm 0.00 in0.0 mm
03:26 PM 27.9°F-2.3°C 18.0°F-7.8°C 66% 2.3 mph S3.7 kmh S 6.0 mph9.7 kmh 30.45 in1031.2 mb 0.00 in0.0 mm 0.00 in0.0 mm 0.00 in0.0 mm
03:27 PM 27.9°F-2.3°C 18.0°F-7.8°C 66% 3.0 mph SSE4.8 kmh SSE 6.0 mph9.7 kmh 30.45 in1031.2 mb 0.00 in0.0 mm 0.00 in0.0 mm 0.00 in0.0 mm
03:28 PM 27.9°F-2.3°C 18.0°F-7.8°C 66% 3.6 mph S5.8 kmh S 6.0 mph9.7 kmh 30.46 in1031.5 mb 0.00 in0.0 mm 0.00 in0.0 mm 0.00 in0.0 mm
03:29 PM 27.9°F-2.3°C 18.0°F-7.8°C 66% 2.7 mph S4.3 kmh S 6.0 mph9.7 kmh 30.46 in1031.5 mb 0.00 in0.0 mm 0.00 in0.0 mm 0.00 in0.0 mm
03:30 PM 27.8°F-2.3°C 17.9°F-7.8°C 66% 3.7 mph S6.0 kmh S 5.0 mph8.0 kmh 30.46 in1031.5 mb 0.00 in0.0 mm 0.00 in0.0 mm 0.00 in0.0 mm
03:31 PM 27.9°F-2.3°C 18.0°F-7.8°C 66% 3.1 mph S5.0 kmh S 5.0 mph8.0 kmh 30.45 in1031.2 mb 0.00 in0.0 mm 0.00 in0.0 mm 0.00 in0.0 mm
03:32 PM 27.9°F-2.3°C 17.7°F-7.9°C 65% 1.5 mph S2.4 kmh S 4.0 mph6.4 kmh 30.45 in1031.2 mb 0.00 in0.0 mm 0.00 in0.0 mm 0.00 in0.0 mm
03:33 PM 27.9°F-2.3°C 18.0°F-7.8°C 66% 1.1 mph S1.8 kmh S 2.0 mph3.2 kmh 30.45 in1031.2 mb 0.00 in0.0 mm 0.00 in0.0 mm 0.00 in0.0 mm
03:34 PM 27.8°F-2.3°C 17.9°F-7.8°C 66% 0.8 mph S1.3 kmh S 2.0 mph3.2 kmh 30.45 in1031.2 mb 0.00 in0.0 mm 0.00 in0.0 mm 0.00 in0.0 mm
03:35 PM 27.8°F-2.3°C 17.9°F-7.8°C 66% 0.2 mph S0.3 kmh S 2.0 mph3.2 kmh 30.45 in1031.2 mb 0.00 in0.0 mm 0.00 in0.0 mm 0.00 in0.0 mm
03:36 PM 27.8°F-2.3°C 17.9°F-7.8°C 66% 0.7 mph S1.1 kmh S 2.0 mph3.2 kmh 30.45 in1031.2 mb 0.00 in0.0 mm 0.00 in0.0 mm 0.00 in0.0 mm
03:37 PM 27.8°F-2.3°C 17.9°F-7.8°C 66% 1.7 mph S2.7 kmh S 3.0 mph4.8 kmh 30.45 in1031.2 mb 0.00 in0.0 mm 0.00 in0.0 mm 0.00 in0.0 mm
03:38 PM 27.8°F-2.3°C 17.9°F-7.8°C 66% 2.0 mph S3.2 kmh S 4.0 mph6.4 kmh 30.45 in1031.2 mb 0.00 in0.0 mm 0.00 in0.0 mm 0.00 in0.0 mm
03:39 PM 27.8°F-2.3°C 17.9°F-7.8°C 66% 2.0 mph S3.2 kmh S 4.0 mph6.4 kmh 30.45 in1031.2 mb 0.00 in0.0 mm 0.00 in0.0 mm 0.00 in0.0 mm
03:40 PM 27.8°F-2.3°C 17.9°F-7.8°C 66% 1.2 mph S1.9 kmh S 3.0 mph4.8 kmh 30.45 in1031.2 mb 0.00 in0.0 mm 0.00 in0.0 mm 0.00 in0.0 mm
03:41 PM 27.8°F-2.3°C 17.9°F-7.8°C 66% 0.3 mph S0.5 kmh S 2.0 mph3.2 kmh 30.45 in1031.2 mb 0.00 in0.0 mm 0.00 in0.0 mm 0.00 in0.0 mm
03:42 PM 27.8°F-2.3°C 17.9°F-7.8°C 66% Calm Calm 1.0 mph1.6 kmh 30.45 in1031.2 mb 0.00 in0.0 mm 0.00 in0.0 mm 0.00 in0.0 mm
03:43 PM 27.8°F-2.3°C 17.9°F-7.8°C 66% 1.2 mph S1.9 kmh S 2.0 mph3.2 kmh 30.45 in1031.2 mb 0.00 in0.0 mm 0.00 in0.0 mm 0.00 in0.0 mm
03:44 PM 27.8°F-2.3°C 17.9°F-7.8°C 66% 2.1 mph S3.4 kmh S 3.0 mph4.8 kmh 30.45 in1031.2 mb 0.00 in0.0 mm 0.00 in0.0 mm 0.00 in0.0 mm
03:45 PM 27.8°F-2.3°C 17.9°F-7.8°C 66% 1.5 mph S2.4 kmh S 3.0 mph4.8 kmh 30.45 in1031.2 mb 0.00 in0.0 mm 0.00 in0.0 mm 0.00 in0.0 mm
03:46 PM 27.8°F-2.3°C 17.9°F-7.8°C 66% 0.6 mph S1.0 kmh S 3.0 mph4.8 kmh 30.45 in1031.2 mb 0.00 in0.0 mm 0.00 in0.0 mm 0.00 in0.0 mm
03:47 PM 27.8°F-2.3°C 17.9°F-7.8°C 66% 1.2 mph S1.9 kmh S 2.0 mph3.2 kmh 30.45 in1031.2 mb 0.00 in0.0 mm 0.00 in0.0 mm 0.00 in0.0 mm
03:48 PM 27.8°F-2.3°C 17.9°F-7.8°C 66% 0.9 mph S1.4 kmh S 2.0 mph3.2 kmh 30.45 in1031.2 mb 0.00 in0.0 mm 0.00 in0.0 mm 0.00 in0.0 mm
03:49 PM 27.8°F-2.3°C 17.9°F-7.8°C 66% 1.5 mph S2.4 kmh S 3.0 mph4.8 kmh 30.45 in1031.2 mb 0.00 in0.0 mm 0.00 in0.0 mm 0.00 in0.0 mm
03:50 PM 27.8°F-2.3°C 17.9°F-7.8°C 66% 2.3 mph S3.7 kmh S 3.0 mph4.8 kmh 30.45 in1031.2 mb 0.00 in0.0 mm 0.00 in0.0 mm 0.00 in0.0 mm
03:51 PM 27.8°F-2.3°C 17.6°F-8.0°C 65% 2.3 mph S3.7 kmh S 4.0 mph6.4 kmh 30.45 in1031.2 mb 0.00 in0.0 mm 0.00 in0.0 mm 0.00 in0.0 mm
03:52 PM 27.8°F-2.3°C 17.6°F-8.0°C 65% 1.2 mph SSE1.9 kmh SSE 4.0 mph6.4 kmh 30.45 in1031.2 mb 0.00 in0.0 mm 0.00 in0.0 mm 0.00 in0.0 mm
03:53 PM 27.8°F-2.3°C 17.9°F-7.8°C 66% 2.5 mph SSE4.0 kmh SSE 4.0 mph6.4 kmh 30.45 in1031.2 mb 0.00 in0.0 mm 0.00 in0.0 mm 0.00 in0.0 mm
03:54 PM 27.8°F-2.3°C 17.9°F-7.8°C 66% 3.3 mph SE5.3 kmh SE 5.0 mph8.0 kmh 30.45 in1031.2 mb 0.00 in0.0 mm 0.00 in0.0 mm 0.00 in0.0 mm
03:55 PM 27.8°F-2.3°C 17.9°F-7.8°C 66% 5.3 mph ESE8.5 kmh ESE 8.0 mph12.9 kmh 30.45 in1031.2 mb 0.00 in0.0 mm 0.00 in0.0 mm 0.00 in0.0 mm
03:56 PM 27.8°F-2.3°C 17.9°F-7.8°C 66% 5.6 mph ENE9.0 kmh ENE 8.0 mph12.9 kmh 30.45 in1031.2 mb 0.00 in0.0 mm 0.00 in0.0 mm 0.00 in0.0 mm
03:57 PM 27.8°F-2.3°C 17.9°F-7.8°C 66% 5.7 mph NE9.2 kmh NE 8.0 mph12.9 kmh 30.45 in1031.2 mb 0.00 in0.0 mm 0.00 in0.0 mm 0.00 in0.0 mm
03:58 PM 27.7°F-2.4°C 17.5°F-8.1°C 65% 6.9 mph ENE11.1 kmh ENE 8.0 mph12.9 kmh 30.45 in1031.2 mb 0.00 in0.0 mm 0.00 in0.0 mm 0.00 in0.0 mm
03:59 PM 27.7°F-2.4°C 17.5°F-8.1°C 65% 4.9 mph E7.9 kmh E 8.0 mph12.9 kmh 30.45 in1031.2 mb 0.00 in0.0 mm 0.00 in0.0 mm 0.00 in0.0 mm
04:00 PM 27.7°F-2.4°C 17.5°F-8.1°C 65% 2.5 mph E4.0 kmh E 7.0 mph11.3 kmh 30.45 in1031.2 mb 0.00 in0.0 mm 0.00 in0.0 mm 0.00 in0.0 mm
04:01 PM 27.6°F-2.4°C 17.4°F-8.1°C 65% 2.0 mph E3.2 kmh E 4.0 mph6.4 kmh 30.45 in1031.2 mb 0.00 in0.0 mm 0.00 in0.0 mm 0.00 in0.0 mm
04:02 PM 27.6°F-2.4°C 17.4°F-8.1°C 65% 2.2 mph E3.5 kmh E 3.0 mph4.8 kmh 30.45 in1031.2 mb 0.00 in0.0 mm 0.00 in0.0 mm 0.00 in0.0 mm
04:03 PM 27.6°F-2.4°C 17.4°F-8.1°C 65% 1.9 mph E3.1 kmh E 3.0 mph4.8 kmh 30.45 in1031.2 mb 0.00 in0.0 mm 0.00 in0.0 mm 0.00 in0.0 mm
04:04 PM 27.6°F-2.4°C 17.4°F-8.1°C 65% 3.0 mph E4.8 kmh E 4.0 mph6.4 kmh 30.45 in1031.2 mb 0.00 in0.0 mm 0.00 in0.0 mm 0.00 in0.0 mm
04:05 PM 27.6°F-2.4°C 17.8°F-7.9°C 66% 3.4 mph NE5.5 kmh NE 5.0 mph8.0 kmh 30.45 in1031.2 mb 0.00 in0.0 mm 0.00 in0.0 mm 0.00 in0.0 mm
04:06 PM 27.5°F-2.5°C 17.7°F-7.9°C 66% 3.6 mph NE5.8 kmh NE 4.0 mph6.4 kmh 30.45 in1031.2 mb 0.00 in0.0 mm 0.00 in0.0 mm 0.00 in0.0 mm
04:07 PM 27.5°F-2.5°C 17.7°F-7.9°C 66% 3.9 mph NE6.3 kmh NE 6.0 mph9.7 kmh 30.45 in1031.2 mb 0.00 in0.0 mm 0.00 in0.0 mm 0.00 in0.0 mm
04:08 PM 27.6°F-2.4°C 17.8°F-7.9°C 66% 2.5 mph NNE4.0 kmh NNE 6.0 mph9.7 kmh 30.45 in1031.2 mb 0.00 in0.0 mm 0.00 in0.0 mm 0.00 in0.0 mm
04:09 PM 27.5°F-2.5°C 17.7°F-7.9°C 66% 4.0 mph NE6.4 kmh NE 6.0 mph9.7 kmh 30.45 in1031.2 mb 0.00 in0.0 mm 0.00 in0.0 mm 0.00 in0.0 mm
04:10 PM 27.4°F-2.6°C 17.6°F-8.0°C 66% 4.6 mph NE7.4 kmh NE 8.0 mph12.9 kmh 30.45 in1031.2 mb 0.00 in0.0 mm 0.00 in0.0 mm 0.00 in0.0 mm
04:11 PM 27.4°F-2.6°C 17.6°F-8.0°C 66% 7.4 mph NNE11.9 kmh NNE 9.0 mph14.5 kmh 30.45 in1031.2 mb 0.00 in0.0 mm 0.00 in0.0 mm 0.00 in0.0 mm
04:12 PM 27.4°F-2.6°C 17.6°F-8.0°C 66% 5.0 mph NE8.0 kmh NE 9.0 mph14.5 kmh 30.45 in1031.2 mb 0.00 in0.0 mm 0.00 in0.0 mm 0.00 in0.0 mm
04:13 PM 27.3°F-2.6°C 17.5°F-8.1°C 66% 4.4 mph NE7.1 kmh NE 7.0 mph11.3 kmh 30.45 in1031.2 mb 0.00 in0.0 mm 0.00 in0.0 mm 0.00 in0.0 mm
04:14 PM 27.3°F-2.6°C 17.5°F-8.1°C 66% 2.8 mph NE4.5 kmh NE 5.0 mph8.0 kmh 30.44 in1030.8 mb 0.00 in0.0 mm 0.00 in0.0 mm 0.00 in0.0 mm
04:15 PM 27.3°F-2.6°C 17.5°F-8.1°C 66% 1.7 mph NE2.7 kmh NE 4.0 mph6.4 kmh 30.44 in1030.8 mb 0.00 in0.0 mm 0.00 in0.0 mm 0.00 in0.0 mm
04:16 PM 27.3°F-2.6°C 17.1°F-8.3°C 65% 0.5 mph NE0.8 kmh NE 2.0 mph3.2 kmh 30.44 in1030.8 mb 0.00 in0.0 mm 0.00 in0.0 mm 0.00 in0.0 mm
04:17 PM 27.2°F-2.7°C 17.0°F-8.3°C 65% 0.6 mph NE1.0 kmh NE 3.0 mph4.8 kmh 30.44 in1030.8 mb 0.00 in0.0 mm 0.00 in0.0 mm 0.00 in0.0 mm
04:18 PM 27.2°F-2.7°C 17.0°F-8.3°C 65% 1.5 mph NNE2.4 kmh NNE 3.0 mph4.8 kmh 30.44 in1030.8 mb 0.00 in0.0 mm 0.00 in0.0 mm 0.00 in0.0 mm
04:19 PM 27.3°F-2.6°C 17.1°F-8.3°C 65% 0.1 mph NNE0.2 kmh NNE 3.0 mph4.8 kmh 30.44 in1030.8 mb 0.00 in0.0 mm 0.00 in0.0 mm 0.00 in0.0 mm
04:20 PM 27.2°F-2.7°C 17.0°F-8.3°C 65% 0.3 mph NNE0.5 kmh NNE 1.0 mph1.6 kmh 30.44 in1030.8 mb 0.00 in0.0 mm 0.00 in0.0 mm 0.00 in0.0 mm
04:21 PM 27.2°F-2.7°C 17.0°F-8.3°C 65% 0.1 mph NNE0.2 kmh NNE 1.0 mph1.6 kmh 30.44 in1030.8 mb 0.00 in0.0 mm 0.00 in0.0 mm 0.00 in0.0 mm
04:22 PM 27.2°F-2.7°C 17.0°F-8.3°C 65% 0.5 mph NNE0.8 kmh NNE 2.0 mph3.2 kmh 30.44 in1030.8 mb 0.00 in0.0 mm 0.00 in0.0 mm 0.00 in0.0 mm
04:23 PM 27.2°F-2.7°C 17.0°F-8.3°C 65% 1.2 mph NNE1.9 kmh NNE 2.0 mph3.2 kmh 30.44 in1030.8 mb 0.00 in0.0 mm 0.00 in0.0 mm 0.00 in0.0 mm
04:24 PM 27.2°F-2.7°C 17.0°F-8.3°C 65% 1.5 mph NNE2.4 kmh NNE 2.0 mph3.2 kmh 30.44 in1030.8 mb 0.00 in0.0 mm 0.00 in0.0 mm 0.00 in0.0 mm
04:25 PM 27.2°F-2.7°C 17.0°F-8.3°C 65% 1.7 mph NNE2.7 kmh NNE 2.0 mph3.2 kmh 30.44 in1030.8 mb 0.00 in0.0 mm 0.00 in0.0 mm 0.00 in0.0 mm
04:26 PM 27.2°F-2.7°C 17.0°F-8.3°C 65% 1.8 mph NNE2.9 kmh NNE 2.0 mph3.2 kmh 30.44 in1030.8 mb 0.00 in0.0 mm 0.00 in0.0 mm 0.00 in0.0 mm
04:27 PM 27.2°F-2.7°C 17.4°F-8.1°C 66% 1.1 mph NNE1.8 kmh NNE 2.0 mph3.2 kmh 30.44 in1030.8 mb 0.00 in0.0 mm 0.00 in0.0 mm 0.00 in0.0 mm
04:28 PM 27.2°F-2.7°C 17.4°F-8.1°C 66% 0.1 mph NNE0.2 kmh NNE 2.0 mph3.2 kmh 30.44 in1030.8 mb 0.00 in0.0 mm 0.00 in0.0 mm 0.00 in0.0 mm
04:29 PM 27.2°F-2.7°C 17.4°F-8.1°C 66% 1.0 mph NNE1.6 kmh NNE 2.0 mph3.2 kmh 30.44 in1030.8 mb 0.00 in0.0 mm 0.00 in0.0 mm 0.00 in0.0 mm
04:30 PM 27.2°F-2.7°C 17.4°F-8.1°C 66% 1.8 mph NNE2.9 kmh NNE 3.0 mph4.8 kmh 30.44 in1030.8 mb 0.00 in0.0 mm 0.00 in0.0 mm 0.00 in0.0 mm
04:31 PM 27.2°F-2.7°C 17.7°F-7.9°C 67% 2.7 mph N4.3 kmh N 3.0 mph4.8 kmh 30.44 in1030.8 mb 0.00 in0.0 mm 0.00 in0.0 mm 0.00 in0.0 mm
04:32 PM 27.2°F-2.7°C 17.7°F-7.9°C 67% 2.5 mph N4.0 kmh N 3.0 mph4.8 kmh 30.44 in1030.8 mb 0.00 in0.0 mm 0.00 in0.0 mm 0.00 in0.0 mm
04:33 PM 27.2°F-2.7°C 17.4°F-8.1°C 66% 2.1 mph N3.4 kmh N 3.0 mph4.8 kmh 30.44 in1030.8 mb 0.00 in0.0 mm 0.00 in0.0 mm 0.00 in0.0 mm
04:34 PM 27.2°F-2.7°C 17.4°F-8.1°C 66% 1.3 mph N2.1 kmh N 3.0 mph4.8 kmh 30.44 in1030.8 mb 0.00 in0.0 mm 0.00 in0.0 mm 0.00 in0.0 mm
04:35 PM 27.2°F-2.7°C 17.4°F-8.1°C 66% 1.9 mph N3.1 kmh N 3.0 mph4.8 kmh 30.44 in1030.8 mb 0.00 in0.0 mm 0.00 in0.0 mm 0.00 in0.0 mm
04:36 PM 27.2°F-2.7°C 17.4°F-8.1°C 66% 1.5 mph N2.4 kmh N 3.0 mph4.8 kmh 30.44 in1030.8 mb 0.00 in0.0 mm 0.00 in0.0 mm 0.00 in0.0 mm
04:37 PM 27.3°F-2.6°C 17.5°F-8.1°C 66% 1.1 mph N1.8 kmh N 2.0 mph3.2 kmh 30.44 in1030.8 mb 0.00 in0.0 mm 0.00 in0.0 mm 0.00 in0.0 mm
04:38 PM 27.3°F-2.6°C 17.5°F-8.1°C 66% 2.0 mph N3.2 kmh N 3.0 mph4.8 kmh 30.44 in1030.8 mb 0.00 in0.0 mm 0.00 in0.0 mm 0.00 in0.0 mm
04:39 PM 27.3°F-2.6°C 17.5°F-8.1°C 66% 1.9 mph N3.1 kmh N 3.0 mph4.8 kmh 30.44 in1030.8 mb 0.00 in0.0 mm 0.00 in0.0 mm 0.00 in0.0 mm
04:40 PM 27.3°F-2.6°C 17.5°F-8.1°C 66% 1.7 mph N2.7 kmh N 2.0 mph3.2 kmh 30.44 in1030.8 mb 0.00 in0.0 mm 0.00 in0.0 mm 0.00 in0.0 mm
04:41 PM 27.3°F-2.6°C 17.5°F-8.1°C 66% 2.0 mph N3.2 kmh N 4.0 mph6.4 kmh 30.44 in1030.8 mb 0.00 in0.0 mm 0.00 in0.0 mm 0.00 in0.0 mm
04:42 PM 27.3°F-2.6°C 17.8°F-7.9°C 67% 2.8 mph N4.5 kmh N 4.0 mph6.4 kmh 30.44 in1030.8 mb 0.00 in0.0 mm 0.00 in0.0 mm 0.00 in0.0 mm
04:43 PM 27.2°F-2.7°C 17.4°F-8.1°C 66% 0.8 mph NNW1.3 kmh NNW 4.0 mph6.4 kmh 30.44 in1030.8 mb 0.00 in0.0 mm 0.00 in0.0 mm 0.00 in0.0 mm
04:44 PM 27.3°F-2.6°C 17.5°F-8.1°C 66% 1.3 mph NNW2.1 kmh NNW 2.0 mph3.2 kmh 30.44 in1030.8 mb 0.00 in0.0 mm 0.00 in0.0 mm 0.00 in0.0 mm
04:45 PM 27.2°F-2.7°C 17.4°F-8.1°C 66% 0.5 mph NNW0.8 kmh NNW 2.0 mph3.2 kmh 30.44 in1030.8 mb 0.00 in0.0 mm 0.00 in0.0 mm 0.00 in0.0 mm
04:46 PM 27.2°F-2.7°C 17.4°F-8.1°C 66% 0.3 mph NNW0.5 kmh NNW 1.0 mph1.6 kmh 30.43 in1030.5 mb 0.00 in0.0 mm 0.00 in0.0 mm 0.00 in0.0 mm
04:47 PM 27.2°F-2.7°C 17.4°F-8.1°C 66% 0.2 mph NNW0.3 kmh NNW 1.0 mph1.6 kmh 30.43 in1030.5 mb 0.00 in0.0 mm 0.00 in0.0 mm 0.00 in0.0 mm
04:48 PM 27.2°F-2.7°C 17.4°F-8.1°C 66% 0.4 mph NNW0.6 kmh NNW 1.0 mph1.6 kmh 30.43 in1030.5 mb 0.00 in0.0 mm 0.00 in0.0 mm 0.00 in0.0 mm
04:49 PM 27.2°F-2.7°C 17.4°F-8.1°C 66% Calm Calm 1.0 mph1.6 kmh 30.43 in1030.5 mb 0.00 in0.0 mm 0.00 in0.0 mm 0.00 in0.0 mm
04:50 PM 27.2°F-2.7°C 17.4°F-8.1°C 66% Calm Calm 1.0 mph1.6 kmh 30.43 in1030.5 mb 0.00 in0.0 mm 0.00 in0.0 mm 0.00 in0.0 mm
04:51 PM 27.2°F-2.7°C 17.4°F-8.1°C 66% 0.3 mph NNW0.5 kmh NNW 1.0 mph1.6 kmh 30.43 in1030.5 mb 0.00 in0.0 mm 0.00 in0.0 mm 0.00 in0.0 mm
04:52 PM 27.2°F-2.7°C 17.4°F-8.1°C 66% 0.1 mph NNW0.2 kmh NNW 1.0 mph1.6 kmh 30.43 in1030.5 mb 0.00 in0.0 mm 0.00 in0.0 mm 0.00 in0.0 mm
04:53 PM 27.2°F-2.7°C 17.4°F-8.1°C 66% 0.1 mph NNW0.2 kmh NNW 1.0 mph1.6 kmh 30.43 in1030.5 mb 0.00 in0.0 mm 0.00 in0.0 mm 0.00 in0.0 mm
04:54 PM 27.2°F-2.7°C 17.4°F-8.1°C 66% 0.1 mph NNW0.2 kmh NNW 1.0 mph1.6 kmh 30.43 in1030.5 mb 0.00 in0.0 mm 0.00 in0.0 mm 0.00 in0.0 mm
04:55 PM 27.2°F-2.7°C 17.4°F-8.1°C 66% 0.1 mph NNW0.2 kmh NNW 1.0 mph1.6 kmh 30.43 in1030.5 mb 0.00 in0.0 mm 0.00 in0.0 mm 0.00 in0.0 mm
04:56 PM 27.2°F-2.7°C 17.4°F-8.1°C 66% Calm Calm 1.0 mph1.6 kmh 30.43 in1030.5 mb 0.00 in0.0 mm 0.00 in0.0 mm 0.00 in0.0 mm
04:57 PM 27.2°F-2.7°C 17.4°F-8.1°C 66% 0.1 mph NNW0.2 kmh NNW 1.0 mph1.6 kmh 30.43 in1030.5 mb 0.00 in0.0 mm 0.00 in0.0 mm 0.00 in0.0 mm
04:58 PM 27.2°F-2.7°C 17.4°F-8.1°C 66% 1.0 mph NNW1.6 kmh NNW 2.0 mph3.2 kmh 30.43 in1030.5 mb 0.00 in0.0 mm 0.00 in0.0 mm 0.00 in0.0 mm
04:59 PM 27.2°F-2.7°C 17.4°F-8.1°C 66% 1.0 mph NNW1.6 kmh NNW 2.0 mph3.2 kmh 30.43 in1030.5 mb 0.00 in0.0 mm 0.00 in0.0 mm 0.00 in0.0 mm
05:00 PM 27.1°F-2.7°C 17.3°F-8.2°C 66% 1.2 mph NNW1.9 kmh NNW 2.0 mph3.2 kmh 30.43 in1030.5 mb 0.00 in0.0 mm 0.00 in0.0 mm 0.00 in0.0 mm
05:01 PM 27.2°F-2.7°C 17.4°F-8.1°C 66% 0.7 mph NNW1.1 kmh NNW 2.0 mph3.2 kmh 30.43 in1030.5 mb 0.00 in0.0 mm 0.00 in0.0 mm 0.00 in0.0 mm
05:02 PM 27.2°F-2.7°C 17.4°F-8.1°C 66% 0.1 mph NNW0.2 kmh NNW 2.0 mph3.2 kmh 30.43 in1030.5 mb 0.00 in0.0 mm 0.00 in0.0 mm 0.00 in0.0 mm
05:03 PM 27.2°F-2.7°C 17.4°F-8.1°C 66% 1.2 mph NNW1.9 kmh NNW 2.0 mph3.2 kmh 30.43 in1030.5 mb 0.00 in0.0 mm 0.00 in0.0 mm 0.00 in0.0 mm
05:04 PM 27.2°F-2.7°C 17.4°F-8.1°C 66% 2.0 mph N3.2 kmh N 3.0 mph4.8 kmh 30.43 in1030.5 mb 0.00 in0.0 mm 0.00 in0.0 mm 0.00 in0.0 mm
05:05 PM 27.1°F-2.7°C 17.3°F-8.2°C 66% 2.4 mph N3.9 kmh N 3.0 mph4.8 kmh 30.43 in1030.5 mb 0.00 in0.0 mm 0.00 in0.0 mm 0.00 in0.0 mm
05:06 PM 27.2°F-2.7°C 17.4°F-8.1°C 66% 1.1 mph NNE1.8 kmh NNE 3.0 mph4.8 kmh 30.43 in1030.5 mb 0.00 in0.0 mm 0.00 in0.0 mm 0.00 in0.0 mm
05:07 PM 27.1°F-2.7°C 17.6°F-8.0°C 67% 1.0 mph NNE1.6 kmh NNE 2.0 mph3.2 kmh 30.43 in1030.5 mb 0.00 in0.0 mm 0.00 in0.0 mm 0.00 in0.0 mm
05:08 PM 27.1°F-2.7°C 17.6°F-8.0°C 67% 1.0 mph NNE1.6 kmh NNE 2.0 mph3.2 kmh 30.43 in1030.5 mb 0.00 in0.0 mm 0.00 in0.0 mm 0.00 in0.0 mm
05:09 PM 27.1°F-2.7°C 17.6°F-8.0°C 67% 0.8 mph NNE1.3 kmh NNE 2.0 mph3.2 kmh 30.43 in1030.5 mb 0.00 in0.0 mm 0.00 in0.0 mm 0.00 in0.0 mm
05:10 PM 27.1°F-2.7°C 17.6°F-8.0°C 67% 0.1 mph NNE0.2 kmh NNE 1.0 mph1.6 kmh 30.43 in1030.5 mb 0.00 in0.0 mm 0.00 in0.0 mm 0.00 in0.0 mm
05:11 PM 27.1°F-2.7°C 17.6°F-8.0°C 67% Calm Calm 1.0 mph1.6 kmh 30.43 in1030.5 mb 0.00 in0.0 mm 0.00 in0.0 mm 0.00 in0.0 mm
05:12 PM 27.1°F-2.7°C 17.6°F-8.0°C 67% Calm Calm -- 30.43 in1030.5 mb 0.00 in0.0 mm 0.00 in0.0 mm 0.00 in0.0 mm
05:13 PM 27.1°F-2.7°C 17.6°F-8.0°C 67% Calm Calm 1.0 mph1.6 kmh 30.43 in1030.5 mb 0.00 in0.0 mm 0.00 in0.0 mm 0.00 in0.0 mm
05:14 PM 27.1°F-2.7°C 17.6°F-8.0°C 67% 0.2 mph NNE0.3 kmh NNE 1.0 mph1.6 kmh 30.43 in1030.5 mb 0.00 in0.0 mm 0.00 in0.0 mm 0.00 in0.0 mm
05:15 PM 27.0°F-2.8°C 17.5°F-8.1°C 67% Calm Calm 1.0 mph1.6 kmh 30.42 in1030.1 mb 0.00 in0.0 mm 0.00 in0.0 mm 0.00 in0.0 mm
05:16 PM 27.1°F-2.7°C 17.6°F-8.0°C 67% 0.1 mph NNE0.2 kmh NNE 1.0 mph1.6 kmh 30.42 in1030.1 mb 0.00 in0.0 mm 0.00 in0.0 mm 0.00 in0.0 mm
05:17 PM 27.1°F-2.7°C 17.6°F-8.0°C 67% 0.6 mph NNE1.0 kmh NNE 1.0 mph1.6 kmh 30.42 in1030.1 mb 0.00 in0.0 mm 0.00 in0.0 mm 0.00 in0.0 mm
05:18 PM 27.1°F-2.7°C 18.0°F-7.8°C 68% 0.2 mph NNE0.3 kmh NNE 1.0 mph1.6 kmh 30.42 in1030.1 mb 0.00 in0.0 mm 0.00 in0.0 mm 0.00 in0.0 mm
05:19 PM 27.1°F-2.7°C 18.0°F-7.8°C 68% 0.7 mph NNE1.1 kmh NNE 2.0 mph3.2 kmh 30.42 in1030.1 mb 0.00 in0.0 mm 0.00 in0.0 mm 0.00 in0.0 mm
05:20 PM 27.1°F-2.7°C 17.6°F-8.0°C 67% 1.0 mph NNE1.6 kmh NNE 2.0 mph3.2 kmh 30.42 in1030.1 mb 0.00 in0.0 mm 0.00 in0.0 mm 0.00 in0.0 mm
05:21 PM 27.1°F-2.7°C 17.6°F-8.0°C 67% 1.0 mph NNE1.6 kmh NNE 2.0 mph3.2 kmh 30.42 in1030.1 mb 0.00 in0.0 mm 0.00 in0.0 mm 0.00 in0.0 mm
05:22 PM 27.1°F-2.7°C 17.6°F-8.0°C 67% 1.9 mph NNE3.1 kmh NNE 3.0 mph4.8 kmh 30.42 in1030.1 mb 0.00 in0.0 mm 0.00 in0.0 mm 0.00 in0.0 mm
05:23 PM 27.1°F-2.7°C 18.0°F-7.8°C 68% 1.8 mph NE2.9 kmh NE 3.0 mph4.8 kmh 30.42 in1030.1 mb 0.00 in0.0 mm 0.00 in0.0 mm 0.00 in0.0 mm
05:24 PM 27.1°F-2.7°C 18.0°F-7.8°C 68% 2.2 mph NE3.5 kmh NE 4.0 mph6.4 kmh 30.42 in1030.1 mb 0.00 in0.0 mm 0.00 in0.0 mm 0.00 in0.0 mm
05:25 PM 27.1°F-2.7°C 18.0°F-7.8°C 68% 5.0 mph E8.0 kmh E 7.0 mph11.3 kmh 30.42 in1030.1 mb 0.00 in0.0 mm 0.00 in0.0 mm 0.00 in0.0 mm
05:26 PM 27.1°F-2.7°C 17.6°F-8.0°C 67% 6.2 mph ESE10.0 kmh ESE 8.0 mph12.9 kmh 30.42 in1030.1 mb 0.00 in0.0 mm 0.00 in0.0 mm 0.00 in0.0 mm
05:27 PM 27.1°F-2.7°C 17.6°F-8.0°C 67% 4.8 mph ESE7.7 kmh ESE 8.0 mph12.9 kmh 30.42 in1030.1 mb 0.00 in0.0 mm 0.00 in0.0 mm 0.00 in0.0 mm
05:28 PM 27.1°F-2.7°C 17.6°F-8.0°C 67% 1.9 mph ESE3.1 kmh ESE 7.0 mph11.3 kmh 30.42 in1030.1 mb 0.00 in0.0 mm 0.00 in0.0 mm 0.00 in0.0 mm
05:29 PM 27.1°F-2.7°C 17.6°F-8.0°C 67% 0.1 mph ESE0.2 kmh ESE 3.0 mph4.8 kmh 30.42 in1030.1 mb 0.00 in0.0 mm 0.00 in0.0 mm 0.00 in0.0 mm
05:30 PM 27.0°F-2.8°C 17.5°F-8.1°C 67% 1.4 mph SE2.3 kmh SE 6.0 mph9.7 kmh 30.42 in1030.1 mb 0.00 in0.0 mm 0.00 in0.0 mm 0.00 in0.0 mm
05:31 PM 27.1°F-2.7°C 17.6°F-8.0°C 67% 4.5 mph SE7.2 kmh SE 7.0 mph11.3 kmh 30.42 in1030.1 mb 0.00 in0.0 mm 0.00 in0.0 mm 0.00 in0.0 mm
05:32 PM 27.1°F-2.7°C 17.3°F-8.2°C 66% 2.8 mph SSE4.5 kmh SSE 7.0 mph11.3 kmh 30.42 in1030.1 mb 0.00 in0.0 mm 0.00 in0.0 mm 0.00 in0.0 mm
05:33 PM 27.0°F-2.8°C 17.2°F-8.2°C 66% 2.2 mph SE3.5 kmh SE 5.0 mph8.0 kmh 30.42 in1030.1 mb 0.00 in0.0 mm 0.00 in0.0 mm 0.00 in0.0 mm
05:34 PM 27.0°F-2.8°C 17.2°F-8.2°C 66% 0.8 mph SSE1.3 kmh SSE 4.0 mph6.4 kmh 30.42 in1030.1 mb 0.00 in0.0 mm 0.00 in0.0 mm 0.00 in0.0 mm
05:35 PM 27.0°F-2.8°C 17.2°F-8.2°C 66% 0.6 mph SSE1.0 kmh SSE 2.0 mph3.2 kmh 30.42 in1030.1 mb 0.00 in0.0 mm 0.00 in0.0 mm 0.00 in0.0 mm
05:36 PM 27.0°F-2.8°C 17.2°F-8.2°C 66% Calm Calm 2.0 mph3.2 kmh 30.41 in1029.8 mb 0.00 in0.0 mm 0.00 in0.0 mm 0.00 in0.0 mm
05:37 PM 27.0°F-2.8°C 17.2°F-8.2°C 66% 0.2 mph SSE0.3 kmh SSE 1.0 mph1.6 kmh 30.41 in1029.8 mb 0.00 in0.0 mm 0.00 in0.0 mm 0.00 in0.0 mm
05:38 PM 27.0°F-2.8°C 17.2°F-8.2°C 66% 1.7 mph SE2.7 kmh SE 3.0 mph4.8 kmh 30.42 in1030.1 mb 0.00 in0.0 mm 0.00 in0.0 mm 0.00 in0.0 mm
05:39 PM 27.0°F-2.8°C 17.2°F-8.2°C 66% 3.5 mph E5.6 kmh E 5.0 mph8.0 kmh 30.42 in1030.1 mb 0.00 in0.0 mm 0.00 in0.0 mm 0.00 in0.0 mm
05:40 PM 27.0°F-2.8°C 17.5°F-8.1°C 67% 3.1 mph ENE5.0 kmh ENE 5.0 mph8.0 kmh 30.41 in1029.8 mb 0.00 in0.0 mm 0.00 in0.0 mm 0.00 in0.0 mm
05:41 PM 27.0°F-2.8°C 17.5°F-8.1°C 67% 2.5 mph ENE4.0 kmh ENE 4.0 mph6.4 kmh 30.41 in1029.8 mb 0.00 in0.0 mm 0.00 in0.0 mm 0.00 in0.0 mm
05:42 PM 27.0°F-2.8°C 17.5°F-8.1°C 67% 2.6 mph ENE4.2 kmh ENE 4.0 mph6.4 kmh 30.41 in1029.8 mb 0.00 in0.0 mm 0.00 in0.0 mm 0.00 in0.0 mm
05:43 PM 27.0°F-2.8°C 17.9°F-7.8°C 68% 3.3 mph ENE5.3 kmh ENE 4.0 mph6.4 kmh 30.41 in1029.8 mb 0.00 in0.0 mm 0.00 in0.0 mm 0.00 in0.0 mm
05:44 PM 27.0°F-2.8°C 17.5°F-8.1°C 67% 2.8 mph ENE4.5 kmh ENE 4.0 mph6.4 kmh 30.41 in1029.8 mb 0.00 in0.0 mm 0.00 in0.0 mm 0.00 in0.0 mm
05:45 PM 27.0°F-2.8°C 17.9°F-7.8°C 68% 3.3 mph ENE5.3 kmh ENE 5.0 mph8.0 kmh 30.41 in1029.8 mb 0.00 in0.0 mm 0.00 in0.0 mm 0.00 in0.0 mm
05:46 PM 27.0°F-2.8°C 17.9°F-7.8°C 68% 4.9 mph ENE7.9 kmh ENE 7.0 mph11.3 kmh 30.41 in1029.8 mb 0.00 in0.0 mm 0.00 in0.0 mm 0.00 in0.0 mm
05:47 PM 26.9°F-2.8°C 17.8°F-7.9°C 68% 4.1 mph ENE6.6 kmh ENE 7.0 mph11.3 kmh 30.41 in1029.8 mb 0.00 in0.0 mm 0.00 in0.0 mm 0.00 in0.0 mm
05:48 PM 26.9°F-2.8°C 17.8°F-7.9°C 68% 4.5 mph NE7.2 kmh NE 6.0 mph9.7 kmh 30.41 in1029.8 mb 0.00 in0.0 mm 0.00 in0.0 mm 0.00 in0.0 mm
05:49 PM 26.9°F-2.8°C 17.8°F-7.9°C 68% 3.1 mph NE5.0 kmh NE 6.0 mph9.7 kmh 30.41 in1029.8 mb 0.00 in0.0 mm 0.00 in0.0 mm 0.00 in0.0 mm
05:50 PM 26.8°F-2.9°C 17.3°F-8.2°C 67% 2.1 mph NE3.4 kmh NE 4.0 mph6.4 kmh 30.41 in1029.8 mb 0.00 in0.0 mm 0.00 in0.0 mm 0.00 in0.0 mm
05:51 PM 26.9°F-2.8°C 17.4°F-8.1°C 67% 1.3 mph NE2.1 kmh NE 4.0 mph6.4 kmh 30.41 in1029.8 mb 0.00 in0.0 mm 0.00 in0.0 mm 0.00 in0.0 mm
05:52 PM 26.9°F-2.8°C 17.4°F-8.1°C 67% 1.7 mph NE2.7 kmh NE 3.0 mph4.8 kmh 30.41 in1029.8 mb 0.00 in0.0 mm 0.00 in0.0 mm 0.00 in0.0 mm
05:53 PM 26.8°F-2.9°C 17.3°F-8.2°C 67% 2.4 mph NE3.9 kmh NE 4.0 mph6.4 kmh 30.41 in1029.8 mb 0.00 in0.0 mm 0.00 in0.0 mm 0.00 in0.0 mm
05:54 PM 26.8°F-2.9°C 17.3°F-8.2°C 67% 2.1 mph NE3.4 kmh NE 4.0 mph6.4 kmh 30.41 in1029.8 mb 0.00 in0.0 mm 0.00 in0.0 mm 0.00 in0.0 mm
05:55 PM 26.8°F-2.9°C 17.7°F-7.9°C 68% 2.1 mph NE3.4 kmh NE 3.0 mph4.8 kmh 30.41 in1029.8 mb 0.00 in0.0 mm 0.00 in0.0 mm 0.00 in0.0 mm
05:56 PM 26.8°F-2.9°C 17.7°F-7.9°C 68% 1.6 mph NE2.6 kmh NE 3.0 mph4.8 kmh 30.41 in1029.8 mb 0.00 in0.0 mm 0.00 in0.0 mm 0.00 in0.0 mm
05:57 PM 26.8°F-2.9°C 17.7°F-7.9°C 68% 2.0 mph NE3.2 kmh NE 3.0 mph4.8 kmh 30.41 in1029.8 mb 0.00 in0.0 mm 0.00 in0.0 mm 0.00 in0.0 mm
05:58 PM 26.8°F-2.9°C 17.7°F-7.9°C 68% 2.3 mph NE3.7 kmh NE 3.0 mph4.8 kmh 30.41 in1029.8 mb 0.00 in0.0 mm 0.00 in0.0 mm 0.00 in0.0 mm
05:59 PM 26.7°F-2.9°C 17.6°F-8.0°C 68% 2.1 mph NE3.4 kmh NE 3.0 mph4.8 kmh 30.41 in1029.8 mb 0.00 in0.0 mm 0.00 in0.0 mm 0.00 in0.0 mm
06:00 PM 26.7°F-2.9°C 17.6°F-8.0°C 68% 1.9 mph NE3.1 kmh NE 3.0 mph4.8 kmh 30.41 in1029.8 mb 0.00 in0.0 mm 0.00 in0.0 mm 0.00 in0.0 mm
06:01 PM 26.7°F-2.9°C 17.6°F-8.0°C 68% 1.4 mph NE2.3 kmh NE 3.0 mph4.8 kmh 30.41 in1029.8 mb 0.00 in0.0 mm 0.00 in0.0 mm 0.00 in0.0 mm
06:02 PM 26.7°F-2.9°C 17.6°F-8.0°C 68% 0.6 mph NE1.0 kmh NE 2.0 mph3.2 kmh 30.41 in1029.8 mb 0.00 in0.0 mm 0.00 in0.0 mm 0.00 in0.0 mm
06:03 PM 26.7°F-2.9°C 17.6°F-8.0°C 68% 2.0 mph NE3.2 kmh NE 3.0 mph4.8 kmh 30.41 in1029.8 mb 0.00 in0.0 mm 0.00 in0.0 mm 0.00 in0.0 mm
06:04 PM 26.7°F-2.9°C 17.6°F-8.0°C 68% 2.4 mph NE3.9 kmh NE 3.0 mph4.8 kmh 30.41 in1029.8 mb 0.00 in0.0 mm 0.00 in0.0 mm 0.00 in0.0 mm
06:05 PM 26.7°F-2.9°C 17.6°F-8.0°C 68% 3.0 mph NE4.8 kmh NE 4.0 mph6.4 kmh 30.40 in1029.5 mb 0.00 in0.0 mm 0.00 in0.0 mm 0.00 in0.0 mm
06:06 PM 26.7°F-2.9°C 17.6°F-8.0°C 68% 2.6 mph NE4.2 kmh NE 4.0 mph6.4 kmh 30.41 in1029.8 mb 0.00 in0.0 mm 0.00 in0.0 mm 0.00 in0.0 mm
06:07 PM 26.7°F-2.9°C 17.2°F-8.2°C 67% 2.4 mph NE3.9 kmh NE 4.0 mph6.4 kmh 30.40 in1029.5 mb 0.00 in0.0 mm 0.00 in0.0 mm 0.00 in0.0 mm
06:08 PM 26.7°F-2.9°C 17.2°F-8.2°C 67% 1.9 mph NE3.1 kmh NE 3.0 mph4.8 kmh 30.40 in1029.5 mb 0.00 in0.0 mm 0.00 in0.0 mm 0.00 in0.0 mm
06:09 PM 26.6°F-3.0°C 17.1°F-8.3°C 67% 1.6 mph NE2.6 kmh NE 3.0 mph4.8 kmh 30.40 in1029.5 mb 0.00 in0.0 mm 0.00 in0.0 mm 0.00 in0.0 mm
06:10 PM 26.7°F-2.9°C 17.6°F-8.0°C 68% 1.7 mph NE2.7 kmh NE 2.0 mph3.2 kmh 30.40 in1029.5 mb 0.00 in0.0 mm 0.00 in0.0 mm 0.00 in0.0 mm
06:11 PM 26.6°F-3.0°C 17.5°F-8.1°C 68% 2.3 mph NE3.7 kmh NE 3.0 mph4.8 kmh 30.40 in1029.5 mb 0.00 in0.0 mm 0.00 in0.0 mm 0.00 in0.0 mm
06:12 PM 26.6°F-3.0°C 17.1°F-8.3°C 67% 2.2 mph NE3.5 kmh NE 3.0 mph4.8 kmh 30.40 in1029.5 mb 0.00 in0.0 mm 0.00 in0.0 mm 0.00 in0.0 mm
06:13 PM 26.6°F-3.0°C 17.5°F-8.1°C 68% 2.7 mph NE4.3 kmh NE 4.0 mph6.4 kmh 30.40 in1029.5 mb 0.00 in0.0 mm 0.00 in0.0 mm 0.00 in0.0 mm
06:14 PM 26.6°F-3.0°C 17.1°F-8.3°C 67% 1.8 mph NE2.9 kmh NE 4.0 mph6.4 kmh 30.40 in1029.5 mb 0.00 in0.0 mm 0.00 in0.0 mm 0.00 in0.0 mm
06:15 PM 26.6°F-3.0°C 17.1°F-8.3°C 67% 2.5 mph NE4.0 kmh NE 3.0 mph4.8 kmh 30.40 in1029.5 mb 0.00 in0.0 mm 0.00 in0.0 mm 0.00 in0.0 mm
06:16 PM 26.6°F-3.0°C 17.1°F-8.3°C 67% 2.7 mph NE4.3 kmh NE 3.0 mph4.8 kmh 30.40 in1029.5 mb 0.00 in0.0 mm 0.00 in0.0 mm 0.00 in0.0 mm
06:17 PM 26.6°F-3.0°C 17.5°F-8.1°C 68% 2.4 mph NE3.9 kmh NE 3.0 mph4.8 kmh 30.40 in1029.5 mb 0.00 in0.0 mm 0.00 in0.0 mm 0.00 in0.0 mm
06:18 PM 26.6°F-3.0°C 17.5°F-8.1°C 68% 2.8 mph NE4.5 kmh NE 4.0 mph6.4 kmh 30.40 in1029.5 mb 0.00 in0.0 mm 0.00 in0.0 mm 0.00 in0.0 mm
06:19 PM 26.6°F-3.0°C 17.5°F-8.1°C 68% 2.4 mph NE3.9 kmh NE 4.0 mph6.4 kmh 30.40 in1029.5 mb 0.00 in0.0 mm 0.00 in0.0 mm 0.00 in0.0 mm
06:20 PM 26.6°F-3.0°C 17.5°F-8.1°C 68% 2.4 mph NE3.9 kmh NE 3.0 mph4.8 kmh 30.40 in1029.5 mb 0.00 in0.0 mm 0.00 in0.0 mm 0.00 in0.0 mm
06:21 PM 26.5°F-3.1°C 17.4°F-8.1°C 68% 2.6 mph NE4.2 kmh NE 3.0 mph4.8 kmh 30.40 in1029.5 mb 0.00 in0.0 mm 0.00 in0.0 mm 0.00 in0.0 mm
06:22 PM 26.5°F-3.1°C 17.4°F-8.1°C 68% 2.8 mph NE4.5 kmh NE 4.0 mph6.4 kmh 30.40 in1029.5 mb 0.00 in0.0 mm 0.00 in0.0 mm 0.00 in0.0 mm
06:23 PM 26.5°F-3.1°C 17.4°F-8.1°C 68% 3.0 mph NE4.8 kmh NE 4.0 mph6.4 kmh 30.40 in1029.5 mb 0.00 in0.0 mm 0.00 in0.0 mm 0.00 in0.0 mm
06:24 PM 26.5°F-3.1°C 17.4°F-8.1°C 68% 2.3 mph NE3.7 kmh NE 4.0 mph6.4 kmh 30.40 in1029.5 mb 0.00 in0.0 mm 0.00 in0.0 mm 0.00 in0.0 mm
06:25 PM 26.5°F-3.1°C 17.4°F-8.1°C 68% 2.6 mph NE4.2 kmh NE 4.0 mph6.4 kmh 30.40 in1029.5 mb 0.00 in0.0 mm 0.00 in0.0 mm 0.00 in0.0 mm
06:26 PM 26.5°F-3.1°C 17.4°F-8.1°C 68% 3.2 mph NE5.1 kmh NE 4.0 mph6.4 kmh 30.40 in1029.5 mb 0.00 in0.0 mm 0.00 in0.0 mm 0.00 in0.0 mm
06:27 PM 26.5°F-3.1°C 17.4°F-8.1°C 68% 2.9 mph NE4.7 kmh NE 4.0 mph6.4 kmh 30.40 in1029.5 mb 0.00 in0.0 mm 0.00 in0.0 mm 0.00 in0.0 mm
06:28 PM 26.5°F-3.1°C 17.4°F-8.1°C 68% 2.8 mph NE4.5 kmh NE 3.0 mph4.8 kmh 30.40 in1029.5 mb 0.00 in0.0 mm 0.00 in0.0 mm 0.00 in0.0 mm
06:29 PM 26.5°F-3.1°C 17.4°F-8.1°C 68% 2.5 mph NE4.0 kmh NE 3.0 mph4.8 kmh 30.40 in1029.5 mb 0.00 in0.0 mm 0.00 in0.0 mm 0.00 in0.0 mm
06:30 PM 26.4°F-3.1°C 17.3°F-8.2°C 68% 2.9 mph NE4.7 kmh NE 4.0 mph6.4 kmh 30.40 in1029.5 mb 0.00 in0.0 mm 0.00 in0.0 mm 0.00 in0.0 mm
06:31 PM 26.4°F-3.1°C 17.3°F-8.2°C 68% 2.3 mph NE3.7 kmh NE 4.0 mph6.4 kmh 30.40 in1029.5 mb 0.00 in0.0 mm 0.00 in0.0 mm 0.00 in0.0 mm
06:32 PM 26.4°F-3.1°C 17.3°F-8.2°C 68% 2.1 mph NE3.4 kmh NE 4.0 mph6.4 kmh 30.40 in1029.5 mb 0.00 in0.0 mm 0.00 in0.0 mm 0.00 in0.0 mm
06:33 PM 26.4°F-3.1°C 17.6°F-8.0°C 69% 3.2 mph NE5.1 kmh NE 4.0 mph6.4 kmh 30.40 in1029.5 mb 0.00 in0.0 mm 0.00 in0.0 mm 0.00 in0.0 mm
06:34 PM 26.4°F-3.1°C 17.6°F-8.0°C 69% 2.1 mph NE3.4 kmh NE 4.0 mph6.4 kmh 30.40 in1029.5 mb 0.00 in0.0 mm 0.00 in0.0 mm 0.00 in0.0 mm
06:35 PM 26.4°F-3.1°C 17.6°F-8.0°C 69% 2.3 mph NE3.7 kmh NE 3.0 mph4.8 kmh 30.40 in1029.5 mb 0.00 in0.0 mm 0.00 in0.0 mm 0.00 in0.0 mm
06:36 PM 26.4°F-3.1°C 17.6°F-8.0°C 69% 2.5 mph NE4.0 kmh NE 4.0 mph6.4 kmh 30.40 in1029.5 mb 0.00 in0.0 mm 0.00 in0.0 mm 0.00 in0.0 mm
06:37 PM 26.4°F-3.1°C 17.6°F-8.0°C 69% 2.3 mph NE3.7 kmh NE 4.0 mph6.4 kmh 30.40 in1029.5 mb 0.00 in0.0 mm 0.00 in0.0 mm 0.00 in0.0 mm
06:38 PM 26.3°F-3.2°C 17.5°F-8.1°C 69% 2.1 mph NE3.4 kmh NE 4.0 mph6.4 kmh 30.40 in1029.5 mb 0.00 in0.0 mm 0.00 in0.0 mm 0.00 in0.0 mm
06:39 PM 26.3°F-3.2°C 17.5°F-8.1°C 69% 2.4 mph NE3.9 kmh NE 3.0 mph4.8 kmh 30.40 in1029.5 mb 0.00 in0.0 mm 0.00 in0.0 mm 0.00 in0.0 mm
06:40 PM 26.3°F-3.2°C 17.5°F-8.1°C 69% 2.1 mph NE3.4 kmh NE 3.0 mph4.8 kmh 30.40 in1029.5 mb 0.00 in0.0 mm 0.00 in0.0 mm 0.00 in0.0 mm
06:41 PM 26.3°F-3.2°C 17.5°F-8.1°C 69% 2.2 mph NE3.5 kmh NE 3.0 mph4.8 kmh 30.40 in1029.5 mb 0.00 in0.0 mm 0.00 in0.0 mm 0.00 in0.0 mm
06:42 PM 26.3°F-3.2°C 17.5°F-8.1°C 69% 2.3 mph NE3.7 kmh NE 4.0 mph6.4 kmh 30.40 in1029.5 mb 0.00 in0.0 mm 0.00 in0.0 mm 0.00 in0.0 mm
06:43 PM 26.3°F-3.2°C 17.5°F-8.1°C 69% 3.8 mph ENE6.1 kmh ENE 5.0 mph8.0 kmh 30.40 in1029.5 mb 0.00 in0.0 mm 0.00 in0.0 mm 0.00 in0.0 mm
06:44 PM 26.3°F-3.2°C 17.5°F-8.1°C 69% 3.1 mph ENE5.0 kmh ENE 5.0 mph8.0 kmh 30.40 in1029.5 mb 0.00 in0.0 mm 0.00 in0.0 mm 0.00 in0.0 mm
06:45 PM 26.3°F-3.2°C 17.5°F-8.1°C 69% 4.0 mph ENE6.4 kmh ENE 5.0 mph8.0 kmh 30.40 in1029.5 mb 0.00 in0.0 mm 0.00 in0.0 mm 0.00 in0.0 mm
06:46 PM 26.2°F-3.2°C 17.4°F-8.1°C 69% 4.0 mph ENE6.4 kmh ENE 5.0 mph8.0 kmh 30.40 in1029.5 mb 0.00 in0.0 mm 0.00 in0.0 mm 0.00 in0.0 mm
06:47 PM 26.3°F-3.2°C 17.5°F-8.1°C 69% 3.7 mph ENE6.0 kmh ENE 5.0 mph8.0 kmh 30.40 in1029.5 mb 0.00 in0.0 mm 0.00 in0.0 mm 0.00 in0.0 mm
06:48 PM 26.3°F-3.2°C 17.5°F-8.1°C 69% 4.2 mph ENE6.8 kmh ENE 5.0 mph8.0 kmh 30.40 in1029.5 mb 0.00 in0.0 mm 0.00 in0.0 mm 0.00 in0.0 mm
06:49 PM 26.3°F-3.2°C 17.5°F-8.1°C 69% 3.4 mph ENE5.5 kmh ENE 5.0 mph8.0 kmh 30.40 in1029.5 mb 0.00 in0.0 mm 0.00 in0.0 mm 0.00 in0.0 mm
06:50 PM 26.3°F-3.2°C 17.5°F-8.1°C 69% 3.1 mph ENE5.0 kmh ENE 4.0 mph6.4 kmh 30.40 in1029.5 mb 0.00 in0.0 mm 0.00 in0.0 mm 0.00 in0.0 mm
06:51 PM 26.2°F-3.2°C 17.4°F-8.1°C 69% 2.7 mph ENE4.3 kmh ENE 4.0 mph6.4 kmh 30.40 in1029.5 mb 0.00 in0.0 mm 0.00 in0.0 mm 0.00 in0.0 mm
06:52 PM 26.2°F-3.2°C 17.4°F-8.1°C 69% 3.3 mph ENE5.3 kmh ENE 4.0 mph6.4 kmh 30.40 in1029.5 mb 0.00 in0.0 mm 0.00 in0.0 mm 0.00 in0.0 mm
06:53 PM 26.2°F-3.2°C 17.4°F-8.1°C 69% 3.6 mph ENE5.8 kmh ENE 4.0 mph6.4 kmh 30.40 in1029.5 mb 0.00 in0.0 mm 0.00 in0.0 mm 0.00 in0.0 mm
06:54 PM 26.2°F-3.2°C 17.4°F-8.1°C 69% 2.9 mph ENE4.7 kmh ENE 4.0 mph6.4 kmh 30.40 in1029.5 mb 0.00 in0.0 mm 0.00 in0.0 mm 0.00 in0.0 mm
06:55 PM 26.2°F-3.2°C 17.4°F-8.1°C 69% 3.4 mph ENE5.5 kmh ENE 5.0 mph8.0 kmh 30.40 in1029.5 mb 0.00 in0.0 mm 0.00 in0.0 mm 0.00 in0.0 mm
06:56 PM 26.2°F-3.2°C 17.4°F-8.1°C 69% 3.1 mph ENE5.0 kmh ENE 5.0 mph8.0 kmh 30.40 in1029.5 mb 0.00 in0.0 mm 0.00 in0.0 mm 0.00 in0.0 mm
06:57 PM 26.2°F-3.2°C 17.4°F-8.1°C 69% 3.0 mph ENE4.8 kmh ENE 4.0 mph6.4 kmh 30.40 in1029.5 mb 0.00 in0.0 mm 0.00 in0.0 mm 0.00 in0.0 mm
06:58 PM 26.2°F-3.2°C 17.4°F-8.1°C 69% 2.3 mph ENE3.7 kmh ENE 4.0 mph6.4 kmh 30.39 in1029.1 mb 0.00 in0.0 mm 0.00 in0.0 mm 0.00 in0.0 mm
06:59 PM 26.2°F-3.2°C 17.4°F-8.1°C 69% 1.5 mph ENE2.4 kmh ENE 3.0 mph4.8 kmh 30.39 in1029.1 mb 0.00 in0.0 mm 0.00 in0.0 mm 0.00 in0.0 mm
07:00 PM 26.2°F-3.2°C 17.8°F-7.9°C 70% 1.6 mph ENE2.6 kmh ENE 2.0 mph3.2 kmh 30.39 in1029.1 mb 0.00 in0.0 mm 0.00 in0.0 mm 0.00 in0.0 mm
07:01 PM 26.2°F-3.2°C 17.8°F-7.9°C 70% 1.9 mph ENE3.1 kmh ENE 3.0 mph4.8 kmh 30.39 in1029.1 mb 0.00 in0.0 mm 0.00 in0.0 mm 0.00 in0.0 mm
07:02 PM 26.2°F-3.2°C 17.8°F-7.9°C 70% 1.6 mph ENE2.6 kmh ENE 3.0 mph4.8 kmh 30.39 in1029.1 mb 0.00 in0.0 mm 0.00 in0.0 mm 0.00 in0.0 mm
07:03 PM 26.1°F-3.3°C 17.7°F-7.9°C 70% 2.0 mph ENE3.2 kmh ENE 3.0 mph4.8 kmh 30.39 in1029.1 mb 0.00 in0.0 mm 0.00 in0.0 mm 0.00 in0.0 mm
07:04 PM 26.1°F-3.3°C 17.7°F-7.9°C 70% 2.3 mph ENE3.7 kmh ENE 3.0 mph4.8 kmh 30.39 in1029.1 mb 0.00 in0.0 mm 0.00 in0.0 mm 0.00 in0.0 mm
07:05 PM 26.1°F-3.3°C 17.7°F-7.9°C 70% 1.7 mph ENE2.7 kmh ENE 4.0 mph6.4 kmh 30.39 in1029.1 mb 0.00 in0.0 mm 0.00 in0.0 mm 0.00 in0.0 mm
07:06 PM 26.1°F-3.3°C 17.7°F-7.9°C 70% 2.1 mph ENE3.4 kmh ENE 4.0 mph6.4 kmh 30.39 in1029.1 mb 0.00 in0.0 mm 0.00 in0.0 mm 0.00 in0.0 mm
07:07 PM 26.1°F-3.3°C 17.7°F-7.9°C 70% 2.6 mph ENE4.2 kmh ENE 4.0 mph6.4 kmh 30.39 in1029.1 mb 0.00 in0.0 mm 0.00 in0.0 mm 0.00 in0.0 mm
07:08 PM 26.1°F-3.3°C 17.7°F-7.9°C 70% 1.6 mph ENE2.6 kmh ENE 4.0 mph6.4 kmh 30.39 in1029.1 mb 0.00 in0.0 mm 0.00 in0.0 mm 0.00 in0.0 mm
07:09 PM 26.1°F-3.3°C 17.7°F-7.9°C 70% 3.1 mph ENE5.0 kmh ENE 5.0 mph8.0 kmh 30.39 in1029.1 mb 0.00 in0.0 mm 0.00 in0.0 mm 0.00 in0.0 mm
07:10 PM 26.1°F-3.3°C 17.7°F-7.9°C 70% 3.3 mph ENE5.3 kmh ENE 5.0 mph8.0 kmh 30.39 in1029.1 mb 0.00 in0.0 mm 0.00 in0.0 mm 0.00 in0.0 mm
07:11 PM 26.1°F-3.3°C 17.7°F-7.9°C 70% 3.0 mph ENE4.8 kmh ENE 5.0 mph8.0 kmh 30.39 in1029.1 mb 0.00 in0.0 mm 0.00 in0.0 mm 0.00 in0.0 mm
07:12 PM 26.0°F-3.3°C 17.6°F-8.0°C 70% 3.3 mph ENE5.3 kmh ENE 4.0 mph6.4 kmh 30.39 in1029.1 mb 0.00 in0.0 mm 0.00 in0.0 mm 0.00 in0.0 mm
07:13 PM 26.0°F-3.3°C 17.6°F-8.0°C 70% 3.4 mph ENE5.5 kmh ENE 4.0 mph6.4 kmh 30.39 in1029.1 mb 0.00 in0.0 mm 0.00 in0.0 mm 0.00 in0.0 mm
07:14 PM 26.0°F-3.3°C 17.6°F-8.0°C 70% 3.3 mph ENE5.3 kmh ENE 4.0 mph6.4 kmh 30.39 in1029.1 mb 0.00 in0.0 mm 0.00 in0.0 mm 0.00 in0.0 mm
07:15 PM 26.0°F-3.3°C 17.6°F-8.0°C 70% 2.8 mph ENE4.5 kmh ENE 4.0 mph6.4 kmh 30.39 in1029.1 mb 0.00 in0.0 mm 0.00 in0.0 mm 0.00 in0.0 mm
07:16 PM 26.0°F-3.3°C 17.6°F-8.0°C 70% 2.7 mph ENE4.3 kmh ENE 4.0 mph6.4 kmh 30.39 in1029.1 mb 0.00 in0.0 mm 0.00 in0.0 mm 0.00 in0.0 mm
07:17 PM 26.0°F-3.3°C 17.6°F-8.0°C 70% 2.6 mph ENE4.2 kmh ENE 4.0 mph6.4 kmh 30.39 in1029.1 mb 0.00 in0.0 mm 0.00 in0.0 mm 0.00 in0.0 mm
07:18 PM 26.0°F-3.3°C 17.9°F-7.8°C 71% 2.9 mph ENE4.7 kmh ENE 4.0 mph6.4 kmh 30.39 in1029.1 mb 0.00 in0.0 mm 0.00 in0.0 mm 0.00 in0.0 mm
07:19 PM 25.9°F-3.4°C 17.8°F-7.9°C 71% 2.3 mph ENE3.7 kmh ENE 4.0 mph6.4 kmh 30.39 in1029.1 mb 0.00 in0.0 mm 0.00 in0.0 mm 0.00 in0.0 mm
07:20 PM 25.9°F-3.4°C 17.8°F-7.9°C 71% 2.5 mph ENE4.0 kmh ENE 3.0 mph4.8 kmh 30.39 in1029.1 mb 0.00 in0.0 mm 0.00 in0.0 mm 0.00 in0.0 mm
07:21 PM 25.9°F-3.4°C 17.8°F-7.9°C 71% 2.7 mph ENE4.3 kmh ENE 3.0 mph4.8 kmh 30.39 in1029.1 mb 0.00 in0.0 mm 0.00 in0.0 mm 0.00 in0.0 mm
07:22 PM 25.9°F-3.4°C 17.8°F-7.9°C 71% 2.4 mph ENE3.9 kmh ENE 3.0 mph4.8 kmh 30.39 in1029.1 mb 0.00 in0.0 mm 0.00 in0.0 mm 0.00 in0.0 mm
07:23 PM 25.8°F-3.4°C 17.7°F-7.9°C 71% 3.3 mph ENE5.3 kmh ENE 4.0 mph6.4 kmh 30.39 in1029.1 mb 0.00 in0.0 mm 0.00 in0.0 mm 0.00 in0.0 mm
07:24 PM 25.8°F-3.4°C 17.7°F-7.9°C 71% 3.0 mph ENE4.8 kmh ENE 4.0 mph6.4 kmh 30.39 in1029.1 mb 0.00 in0.0 mm 0.00 in0.0 mm 0.00 in0.0 mm
07:25 PM 25.8°F-3.4°C 17.7°F-7.9°C 71% 3.4 mph ENE5.5 kmh ENE 4.0 mph6.4 kmh 30.39 in1029.1 mb 0.00 in0.0 mm 0.00 in0.0 mm 0.00 in0.0 mm
07:26 PM 25.8°F-3.4°C 17.7°F-7.9°C 71% 3.0 mph ENE4.8 kmh ENE 4.0 mph6.4 kmh 30.39 in1029.1 mb 0.00 in0.0 mm 0.00 in0.0 mm 0.00 in0.0 mm
07:27 PM 25.7°F-3.5°C 17.6°F-8.0°C 71% 2.8 mph ENE4.5 kmh ENE 4.0 mph6.4 kmh 30.39 in1029.1 mb 0.00 in0.0 mm 0.00 in0.0 mm 0.00 in0.0 mm
07:28 PM 25.7°F-3.5°C 17.6°F-8.0°C 71% 2.9 mph ENE4.7 kmh ENE 4.0 mph6.4 kmh 30.39 in1029.1 mb 0.00 in0.0 mm 0.00 in0.0 mm 0.00 in0.0 mm
07:29 PM 25.6°F-3.6°C 17.5°F-8.1°C 71% 2.2 mph ENE3.5 kmh ENE 4.0 mph6.4 kmh 30.39 in1029.1 mb 0.00 in0.0 mm 0.00 in0.0 mm 0.00 in0.0 mm
07:30 PM 25.6°F-3.6°C 17.5°F-8.1°C 71% 2.1 mph ENE3.4 kmh ENE 4.0 mph6.4 kmh 30.39 in1029.1 mb 0.00 in0.0 mm 0.00 in0.0 mm 0.00 in0.0 mm
07:31 PM 25.6°F-3.6°C 17.5°F-8.1°C 71% 2.4 mph ENE3.9 kmh ENE 3.0 mph4.8 kmh 30.39 in1029.1 mb 0.00 in0.0 mm 0.00 in0.0 mm 0.00 in0.0 mm
07:32 PM 25.6°F-3.6°C 17.5°F-8.1°C 71% 2.7 mph ENE4.3 kmh ENE 4.0 mph6.4 kmh 30.39 in1029.1 mb 0.00 in0.0 mm 0.00 in0.0 mm 0.00 in0.0 mm
07:33 PM 25.6°F-3.6°C 17.5°F-8.1°C 71% 3.1 mph ENE5.0 kmh ENE 4.0 mph6.4 kmh 30.39 in1029.1 mb 0.00 in0.0 mm 0.00 in0.0 mm 0.00 in0.0 mm
07:34 PM 25.5°F-3.6°C 17.4°F-8.1°C 71% 3.2 mph ENE5.1 kmh ENE 4.0 mph6.4 kmh 30.39 in1029.1 mb 0.00 in0.0 mm 0.00 in0.0 mm 0.00 in0.0 mm
07:35 PM 25.4°F-3.7°C<